BE796 / EC-KKQ 7700 Squawk Report (15th of August, 2022)

Aircraft AT75 Reg No. EC-KKQ Age 15 years old
Model ATR 72 Turboprop engines 2 First flight 28-09-07
Registered 23-06-22 Rollout 09-07 Delivered 24-10-07
Construction No. 763 Line No. N/A Series 212A
ADSHEX 342699 Airline name FlyBE Owner Swiftair
Airfield based Exeter~Devon~G First tracked N/A

Flight history for EC-KKQ

Route Flight No Date Playback
???? N/A 2022-10-04 13:41:00
Glasgow (GLA) - Birmingham (BHX) BE7122 2022-10-03 20:05:00
Birmingham (BHX) - Glasgow (GLA) BE796 2022-10-03 18:57:00
Glasgow (GLA) - Birmingham (BHX) BE787 2022-10-03 17:07:00
Birmingham (BHX) - Edinburgh (EDI) BE852 2022-10-03 14:50:00
Glasgow (GLA) - Birmingham (BHX) BE494 2022-10-03 13:28:00
Birmingham (BHX) - Glasgow (GLA) BE784 2022-10-03 11:36:00
Edinburgh (EDI) - Birmingham (BHX) BE892 2022-10-03 09:06:00
Birmingham (BHX) - Edinburgh (EDI) BE840 2022-10-03 07:00:00
Glasgow (GLA) - Birmingham (BHX) BE7122 2022-10-03 05:34:00
Birmingham (BHX) - Glasgow (GLA) BE796 2022-10-02 18:47:00
Glasgow (GLA) - Birmingham (BHX) BE787 2022-10-02 17:29:00
Birmingham (BHX) - Edinburgh (EDI) BE852 2022-10-02 15:36:00
Belfast City (BHD) - Birmingham (BHX) BE535 2022-10-02 13:36:00
Birmingham (BHX) - Belfast City (BHD) BE412 2022-10-02 11:00:00
Glasgow (GLA) - Birmingham (BHX) BE494 2022-10-01 12:58:00
Birmingham (BHX) - Glasgow (GLA) BE784 2022-10-01 11:00:00
Edinburgh (EDI) - Birmingham (BHX) BE892 2022-10-01 09:47:00
Birmingham (BHX) - Edinburgh (EDI) BE840 2022-10-01 07:11:00
Glasgow (GLA) - Birmingham (BHX) BE7122 2022-10-01 05:45:00
Time Lat Lon Altitude Heading Speed Vertical Rate
2022-08-15 20:26:17 GMT 55.865360 -4.433885 0 75 0 0
2022-08-15 20:26:15 GMT 55.865349 -4.433906 0 75 2 0
2022-08-15 20:26:13 GMT 55.865349 -4.433906 0 75 2 0
2022-08-15 20:26:11 GMT 55.865330 -4.433941 0 75 3 0
2022-08-15 20:26:10 GMT 55.865337 -4.433949 0 75 3 0
2022-08-15 20:26:06 GMT 55.865318 -4.434045 0 75 3 0
2022-08-15 20:26:03 GMT 55.865307 -4.434107 0 75 3 0
2022-08-15 20:26:01 GMT 55.865295 -4.434149 0 75 3 0
2022-08-15 20:26:00 GMT 55.865284 -4.434169 0 75 3 0
2022-08-15 20:25:59 GMT 55.865284 -4.434190 0 75 4 0
2022-08-15 20:25:57 GMT 55.865269 -4.434249 0 75 4 0
2022-08-15 20:25:56 GMT 55.865257 -4.434271 0 75 4 0
2022-08-15 20:25:52 GMT 55.865223 -4.434443 0 75 3 0
2022-08-15 20:25:50 GMT 55.865223 -4.434443 0 75 3 0
2022-08-15 20:25:48 GMT 55.865200 -4.434528 0 75 2 0
2022-08-15 20:25:45 GMT 55.865200 -4.434528 0 75 2 0
2022-08-15 20:25:44 GMT 55.865192 -4.434565 0 75 0 0
2022-08-15 20:25:42 GMT 55.865158 -4.434586 0 75 0 0
2022-08-15 20:25:41 GMT 55.865158 -4.434586 0 75 0 0
2022-08-15 20:25:15 GMT 55.865200 -4.434636 0 75 0 0
2022-08-15 20:25:09 GMT 55.865200 -4.434636 0 75 0 0
2022-08-15 20:24:47 GMT 55.865223 -4.434636 0 75 0 0
2022-08-15 20:24:32 GMT 55.865295 -4.434565 0 75 0 0
2022-08-15 20:24:26 GMT 55.865280 -4.434571 0 75 0 0
2022-08-15 20:24:22 GMT 55.865307 -4.434565 0 75 0 0
2022-08-15 20:24:18 GMT 55.865337 -4.434550 0 78 0 0
2022-08-15 20:24:15 GMT 55.865337 -4.434550 0 78 0 0
2022-08-15 20:24:13 GMT 55.865314 -4.434571 0 78 0 0
2022-08-15 20:24:11 GMT 55.865314 -4.434571 0 78 0 0
2022-08-15 20:24:08 GMT 55.865303 -4.434571 0 78 0 0
2022-08-15 20:24:06 GMT 55.865295 -4.434586 0 75 4 0
2022-08-15 20:24:05 GMT 55.865292 -4.434636 0 75 7 0
2022-08-15 20:24:03 GMT 55.865269 -4.434743 0 87 7 0
2022-08-15 20:23:59 GMT 55.865246 -4.434893 0 109 7 0
2022-08-15 20:23:57 GMT 55.865273 -4.435043 0 137 7 0
2022-08-15 20:23:55 GMT 55.865303 -4.435129 0 157 7 0
2022-08-15 20:23:53 GMT 55.865364 -4.435189 0 165 8 0
2022-08-15 20:23:52 GMT 55.865410 -4.435231 0 165 9 0
2022-08-15 20:23:50 GMT 55.865444 -4.435231 0 165 10 0
2022-08-15 20:23:48 GMT 55.865501 -4.435272 0 165 11 0
2022-08-15 20:23:45 GMT 55.865700 -4.435387 0 168 12 0
2022-08-15 20:23:44 GMT 55.865753 -4.435397 0 168 11 0
2022-08-15 20:23:42 GMT 55.865852 -4.435451 0 168 10 0
2022-08-15 20:23:41 GMT 55.865936 -4.435480 0 168 10 0
2022-08-15 20:23:39 GMT 55.865978 -4.435515 0 168 10 0
2022-08-15 20:23:35 GMT 55.866108 -4.435580 0 165 10 0
2022-08-15 20:23:33 GMT 55.866199 -4.435623 0 165 10 0
2022-08-15 20:23:31 GMT 55.866268 -4.435666 0 165 10 0
2022-08-15 20:23:29 GMT 55.866360 -4.435709 0 168 10 0
2022-08-15 20:23:28 GMT 55.866428 -4.435730 0 168 10 0
2022-08-15 20:23:26 GMT 55.866497 -4.435772 0 168 10 0
2022-08-15 20:23:24 GMT 55.866577 -4.435813 0 168 9 0
2022-08-15 20:23:22 GMT 55.866657 -4.435855 0 168 9 0
2022-08-15 20:23:21 GMT 55.866749 -4.435902 0 165 9 0
2022-08-15 20:23:18 GMT 55.866806 -4.435938 0 165 9 0
2022-08-15 20:23:16 GMT 55.866886 -4.435966 0 165 10 0
2022-08-15 20:23:13 GMT 55.867001 -4.436042 0 171 10 0
2022-08-15 20:23:11 GMT 55.867092 -4.436084 0 177 10 0
2022-08-15 20:23:10 GMT 55.867252 -4.436105 0 194 10 0
2022-08-15 20:23:08 GMT 55.867252 -4.436105 0 194 10 0
2022-08-15 20:23:07 GMT 55.867298 -4.436105 0 202 10 0
2022-08-15 20:23:04 GMT 55.867386 -4.436052 0 216 11 0
2022-08-15 20:23:03 GMT 55.867538 -4.435837 0 236 11 0
2022-08-15 20:23:01 GMT 55.867538 -4.435837 0 241 11 0
2022-08-15 20:22:59 GMT 55.867584 -4.435730 0 253 12 0
2022-08-15 20:22:58 GMT 55.867607 -4.435626 0 255 12 0
2022-08-15 20:22:57 GMT 55.867619 -4.435537 0 258 13 0
2022-08-15 20:22:55 GMT 55.867664 -4.435314 0 258 14 0
2022-08-15 20:22:53 GMT 55.867714 -4.434979 0 258 14 0
2022-08-15 20:22:51 GMT 55.867714 -4.434915 0 258 14 0
2022-08-15 20:22:50 GMT 55.867748 -4.434764 0 258 14 0
2022-08-15 20:22:48 GMT 55.867767 -4.434586 0 258 14 0
2022-08-15 20:22:47 GMT 55.867805 -4.434378 0 258 14 0
2022-08-15 20:22:45 GMT 55.867817 -4.434271 0 258 14 0
2022-08-15 20:22:44 GMT 55.867840 -4.434164 0 258 14 0
2022-08-15 20:22:42 GMT 55.867889 -4.433906 0 258 14 0
2022-08-15 20:22:41 GMT 55.867889 -4.433842 0 258 14 0
2022-08-15 20:22:40 GMT 55.867935 -4.433606 0 258 14 0
2022-08-15 20:22:38 GMT 55.867950 -4.433504 0 258 14 0
2022-08-15 20:22:37 GMT 55.867973 -4.433400 0 258 13 0
2022-08-15 20:22:34 GMT 55.868027 -4.433069 0 258 13 0
2022-08-15 20:22:33 GMT 55.868061 -4.432790 0 258 13 0
2022-08-15 20:22:31 GMT 55.868061 -4.432790 0 258 13 0
2022-08-15 20:22:29 GMT 55.868099 -4.432567 0 255 14 0
2022-08-15 20:22:28 GMT 55.868118 -4.432447 0 255 14 0
2022-08-15 20:22:26 GMT 55.868156 -4.432232 0 258 14 0
2022-08-15 20:22:24 GMT 55.868191 -4.432089 0 258 14 0
2022-08-15 20:22:23 GMT 55.868202 -4.431975 0 258 14 0
2022-08-15 20:22:21 GMT 55.868248 -4.431717 0 258 15 0
2022-08-15 20:22:19 GMT 55.868294 -4.431485 0 258 14 0
2022-08-15 20:22:18 GMT 55.868317 -4.431288 0 258 14 0
2022-08-15 20:22:15 GMT 55.868355 -4.431074 0 258 14 0
2022-08-15 20:22:14 GMT 55.868389 -4.430859 0 258 13 0
2022-08-15 20:22:11 GMT 55.868443 -4.430570 0 258 12 0
2022-08-15 20:22:09 GMT 55.868465 -4.430445 0 258 12 0
2022-08-15 20:22:06 GMT 55.868500 -4.430237 0 258 12 0
2022-08-15 20:22:05 GMT 55.868538 -4.429979 0 247 13 0
2022-08-15 20:22:03 GMT 55.868557 -4.429883 0 239 13 0
2022-08-15 20:22:01 GMT 55.868626 -4.429717 0 225 13 0
2022-08-15 20:22:00 GMT 55.868725 -4.429593 0 213 15 0
2022-08-15 20:21:58 GMT 55.868774 -4.429550 0 210 17 0
2022-08-15 20:21:57 GMT 55.868843 -4.429486 0 210 19 0
2022-08-15 20:21:55 GMT 55.869003 -4.429336 0 210 22 0
2022-08-15 20:21:54 GMT 55.869144 -4.429228 0 210 23 0
2022-08-15 20:21:51 GMT 55.869335 -4.429051 0 210 24 0
2022-08-15 20:21:48 GMT 55.869610 -4.428799 0 213 24 0
2022-08-15 20:21:46 GMT 55.869808 -4.428627 0 210 25 0
2022-08-15 20:21:45 GMT 55.870148 -4.428364 0 205 25 0
2022-08-15 20:21:43 GMT 55.870148 -4.428364 0 205 25 0
2022-08-15 20:21:41 GMT 55.870392 -4.428220 0 205 25 0
2022-08-15 20:21:40 GMT 55.870495 -4.428134 0 205 24 0
2022-08-15 20:21:39 GMT 55.870720 -4.428010 0 205 24 0
2022-08-15 20:21:36 GMT 55.870995 -4.427823 0 205 23 0
2022-08-15 20:21:34 GMT 55.871098 -4.427761 0 205 23 0
2022-08-15 20:21:33 GMT 55.871273 -4.427640 0 205 22 0
2022-08-15 20:21:31 GMT 55.871372 -4.427594 0 205 21 0
2022-08-15 20:21:29 GMT 55.871567 -4.427469 0 208 21 0
2022-08-15 20:21:28 GMT 55.871647 -4.427404 0 208 21 0
2022-08-15 20:21:27 GMT 55.871834 -4.427276 0 208 20 0
2022-08-15 20:21:25 GMT 55.871910 -4.427199 0 210 20 0
2022-08-15 20:21:24 GMT 55.872089 -4.427061 0 208 20 0
2022-08-15 20:21:22 GMT 55.872242 -4.426928 0 205 20 0
2022-08-15 20:21:19 GMT 55.872414 -4.426824 0 205 20 0
2022-08-15 20:21:17 GMT 55.872566 -4.426739 0 205 19 0
2022-08-15 20:21:16 GMT 55.872646 -4.426675 0 205 19 0
2022-08-15 20:21:13 GMT 55.872986 -4.426460 0 205 19 0
2022-08-15 20:21:11 GMT 55.873077 -4.426408 0 202 19 0
2022-08-15 20:21:10 GMT 55.873238 -4.426304 0 202 19 0
2022-08-15 20:21:08 GMT 55.873398 -4.426200 0 205 20 0
2022-08-15 20:21:06 GMT 55.873489 -4.426159 0 205 20 0
2022-08-15 20:21:03 GMT 55.873684 -4.426031 0 210 21 0
2022-08-15 20:21:02 GMT 55.873775 -4.425930 0 213 21 0
2022-08-15 20:21:01 GMT 55.873844 -4.425859 0 219 21 0
2022-08-15 20:20:59 GMT 55.873997 -4.425666 0 227 22 0
2022-08-15 20:20:58 GMT 55.874065 -4.425538 0 233 23 0
2022-08-15 20:20:57 GMT 55.874153 -4.425389 0 233 23 0
2022-08-15 20:20:55 GMT 55.874298 -4.425108 0 233 24 0
2022-08-15 20:20:52 GMT 55.874531 -4.424681 0 233 26 0
2022-08-15 20:20:50 GMT 55.874695 -4.424357 0 233 26 0
2022-08-15 20:20:49 GMT 55.874836 -4.424121 0 233 27 0
2022-08-15 20:20:47 GMT 55.875080 -4.423649 0 233 26 0
2022-08-15 20:20:45 GMT 55.875080 -4.423649 0 233 26 0
2022-08-15 20:20:44 GMT 55.875256 -4.423349 0 233 25 0
2022-08-15 20:20:42 GMT 55.875336 -4.423156 0 233 24 0
2022-08-15 20:20:39 GMT 55.875568 -4.422727 0 233 22 0
2022-08-15 20:20:37 GMT 55.875767 -4.422362 0 233 19 0
2022-08-15 20:20:35 GMT 55.875824 -4.422268 0 233 18 0
2022-08-15 20:20:33 GMT 55.875931 -4.422061 0 230 16 0
2022-08-15 20:20:32 GMT 55.875977 -4.421976 0 227 15 0
2022-08-15 20:20:31 GMT 55.876068 -4.421825 0 222 12 0
2022-08-15 20:20:29 GMT 55.876118 -4.421761 0 216 11 0
2022-08-15 20:20:28 GMT 55.876190 -4.421685 0 208 9 0
2022-08-15 20:20:25 GMT 55.876266 -4.421632 0 202 6 0
2022-08-15 20:20:24 GMT 55.876293 -4.421602 0 202 5 0
2022-08-15 20:20:23 GMT 55.876305 -4.421581 0 199 3 0
2022-08-15 20:20:19 GMT 55.876335 -4.421589 0 199 0 0
2022-08-15 20:20:17 GMT 55.876335 -4.421589 0 199 0 0
2022-08-15 20:20:15 GMT 55.876335 -4.421589 0 199 0 0
2022-08-15 20:20:13 GMT 55.876339 -4.421581 0 202 0 0
2022-08-15 20:20:12 GMT 55.876339 -4.421581 0 202 0 0
2022-08-15 20:20:10 GMT 55.876335 -4.421589 0 202 0 0
2022-08-15 20:20:07 GMT 55.876328 -4.421581 0 202 0 0
2022-08-15 20:20:04 GMT 55.876339 -4.421581 0 202 2 0
2022-08-15 20:20:03 GMT 55.876373 -4.421568 0 202 4 0
2022-08-15 20:20:01 GMT 55.876373 -4.421568 0 205 4 0
2022-08-15 20:19:59 GMT 55.876396 -4.421546 0 202 4 0
2022-08-15 20:19:58 GMT 55.876419 -4.421539 0 202 5 0
2022-08-15 20:19:57 GMT 55.876465 -4.421504 0 199 9 0
2022-08-15 20:19:55 GMT 55.876572 -4.421461 0 191 14 0
2022-08-15 20:19:53 GMT 55.876614 -4.421456 0 188 15 0
2022-08-15 20:19:51 GMT 55.876751 -4.421456 0 180 15 0
2022-08-15 20:19:49 GMT 55.876888 -4.421498 0 168 15 0
2022-08-15 20:19:48 GMT 55.876999 -4.421568 0 160 14 0
2022-08-15 20:19:46 GMT 55.877056 -4.421632 0 157 14 0
2022-08-15 20:19:44 GMT 55.877174 -4.421747 0 149 13 0
2022-08-15 20:19:43 GMT 55.877232 -4.421810 0 146 14 0
2022-08-15 20:19:42 GMT 55.877316 -4.421954 0 140 14 0
2022-08-15 20:19:40 GMT 55.877350 -4.422019 0 137 13 0
2022-08-15 20:19:39 GMT 55.877453 -4.422233 0 118 13 0
2022-08-15 20:19:36 GMT 55.877502 -4.422491 0 95 12 0
2022-08-15 20:19:33 GMT 55.877487 -4.422770 0 70 12 0
2022-08-15 20:19:32 GMT 55.877487 -4.422770 0 70 12 0
2022-08-15 20:19:30 GMT 55.877441 -4.422963 0 59 13 0
2022-08-15 20:19:28 GMT 55.877338 -4.423199 0 50 17 0
2022-08-15 20:19:26 GMT 55.877281 -4.423285 0 50 18 0
2022-08-15 20:19:23 GMT 55.877094 -4.423620 0 50 24 0
2022-08-15 20:19:21 GMT 55.876980 -4.423828 0 50 26 0
2022-08-15 20:19:20 GMT 55.876888 -4.423974 0 50 28 0
2022-08-15 20:19:18 GMT 55.876709 -4.424336 0 53 31 0
2022-08-15 20:19:17 GMT 55.876602 -4.424536 0 53 32 0
2022-08-15 20:19:15 GMT 55.876396 -4.424937 0 50 33 0
2022-08-15 20:19:14 GMT 55.876289 -4.425130 0 50 33 0
2022-08-15 20:19:13 GMT 55.875977 -4.425709 0 50 35 0
2022-08-15 20:19:11 GMT 55.875977 -4.425709 0 50 35 0
2022-08-15 20:19:08 GMT 55.875389 -4.426804 0 47 38 0
2022-08-15 20:19:06 GMT 55.875389 -4.426804 0 50 39 0
2022-08-15 20:19:05 GMT 55.875195 -4.427157 0 47 40 0
2022-08-15 20:19:02 GMT 55.874931 -4.427636 0 47 41 0
2022-08-15 20:19:00 GMT 55.874611 -4.428239 0 50 41 0
2022-08-15 20:18:59 GMT 55.874474 -4.428499 0 47 40 0
2022-08-15 20:18:57 GMT 55.874279 -4.428864 0 50 39 0
2022-08-15 20:18:56 GMT 55.874126 -4.429164 0 50 38 0
2022-08-15 20:18:54 GMT 55.873901 -4.429613 0 50 36 0
2022-08-15 20:18:53 GMT 55.873650 -4.430070 0 50 34 0
2022-08-15 20:18:51 GMT 55.873535 -4.430278 0 50 33 0
2022-08-15 20:18:49 GMT 55.873322 -4.430687 0 50 31 0
2022-08-15 20:18:47 GMT 55.873066 -4.431152 0 50 29 0
2022-08-15 20:18:45 GMT 55.872974 -4.431319 0 53 28 0
2022-08-15 20:18:43 GMT 55.872799 -4.431653 0 53 26 0
2022-08-15 20:18:42 GMT 55.872719 -4.431825 0 56 25 0
2022-08-15 20:18:41 GMT 55.872631 -4.432005 0 56 23 0
2022-08-15 20:18:39 GMT 55.872482 -4.432297 0 53 22 0
2022-08-15 20:18:38 GMT 55.872414 -4.432422 0 53 24 0
2022-08-15 20:18:36 GMT 55.872265 -4.432704 0 50 30 0
2022-08-15 20:18:35 GMT 55.872169 -4.432855 0 50 36 0
2022-08-15 20:18:34 GMT 55.871857 -4.433434 0 50 47 0
2022-08-15 20:18:32 GMT 55.871857 -4.433434 0 50 47 0
2022-08-15 20:18:31 GMT 55.871704 -4.433732 0 53 56 0
2022-08-15 20:18:28 GMT 55.871120 -4.434794 0 50 68 0
2022-08-15 20:18:25 GMT 55.870640 -4.435668 0 50 76 0
2022-08-15 20:18:24 GMT 55.870274 -4.436375 0 53 84 0
2022-08-15 20:18:23 GMT 55.870033 -4.436854 0 53 88 0
2022-08-15 20:18:21 GMT 55.869312 -4.438227 0 53 96 0
2022-08-15 20:18:19 GMT 55.868866 -4.438976 200 46 99 0
2022-08-15 20:18:17 GMT 55.867805 -4.441051 200 46 113 -64
2022-08-15 20:18:15 GMT 55.867493 -4.441639 200 46 113 -64
2022-08-15 20:18:13 GMT 55.866783 -4.442940 225 46 117 -192
2022-08-15 20:18:11 GMT 55.865982 -4.444469 225 46 120 -256
2022-08-15 20:18:08 GMT 55.864746 -4.446716 250 46 123 -704
2022-08-15 20:18:06 GMT 55.863991 -4.448175 275 46 123 -832
2022-08-15 20:18:04 GMT 55.862591 -4.450836 325 46 123 -768
2022-08-15 20:18:02 GMT 55.862591 -4.450836 325 46 123 -704
2022-08-15 20:18:00 GMT 55.861679 -4.452542 375 46 123 -576
2022-08-15 20:17:57 GMT 55.860123 -4.455455 400 45 121 -640
2022-08-15 20:17:56 GMT 55.860123 -4.455455 400 45 120 -640
2022-08-15 20:17:55 GMT 55.859379 -4.456758 425 45 117 -384
2022-08-15 20:17:53 GMT 55.858932 -4.457536 425 45 115 -320
2022-08-15 20:17:51 GMT 55.858154 -4.458868 425 46 112 -448
2022-08-15 20:17:50 GMT 55.857426 -4.460278 450 46 110 -384
2022-08-15 20:17:47 GMT 55.856354 -4.462252 475 47 108 -512
2022-08-15 20:17:45 GMT 55.856030 -4.462852 475 47 109 -448
2022-08-15 20:17:43 GMT 55.855423 -4.464054 500 46 111 -768
2022-08-15 20:17:41 GMT 55.854725 -4.465427 525 46 112 -832
2022-08-15 20:17:40 GMT 55.854355 -4.466114 525 47 113 -704
2022-08-15 20:17:39 GMT 55.853981 -4.466801 550 47 113 -576
2022-08-15 20:17:38 GMT 55.853653 -4.467487 550 46 113 -576
2022-08-15 20:17:35 GMT 55.852585 -4.469547 600 46 115 -640
2022-08-15 20:17:32 GMT 55.851517 -4.471519 625 46 114 -704
2022-08-15 20:17:30 GMT 55.850784 -4.472850 650 46 113 -640
2022-08-15 20:17:29 GMT 55.850395 -4.473667 650 46 113 -640
2022-08-15 20:17:27 GMT 55.849560 -4.475126 675 45 113 -512
2022-08-15 20:17:26 GMT 55.849228 -4.475680 700 45 113 -576
2022-08-15 20:17:25 GMT 55.848488 -4.477100 700 45 112 -576
2022-08-15 20:17:23 GMT 55.848114 -4.477787 725 45 112 -320
2022-08-15 20:17:21 GMT 55.847351 -4.479176 725 46 113 -320
2022-08-15 20:17:20 GMT 55.847122 -4.479509 725 46 113 -384
2022-08-15 20:17:18 GMT 55.846348 -4.480963 750 46 113 -704
2022-08-15 20:17:16 GMT 55.845741 -4.482164 750 46 113 -768
2022-08-15 20:17:14 GMT 55.845108 -4.483337 800 47 115 -832
2022-08-15 20:17:13 GMT 55.844715 -4.484138 800 47 116 -832
2022-08-15 20:17:12 GMT 55.844296 -4.484911 825 48 116 -832
2022-08-15 20:17:11 GMT 55.843647 -4.486198 850 47 117 -768
2022-08-15 20:17:09 GMT 55.843231 -4.487000 875 47 117 -768
2022-08-15 20:17:08 GMT 55.842499 -4.488414 875 46 116 -704
2022-08-15 20:17:06 GMT 55.842110 -4.489202 900 46 116 -448
2022-08-15 20:17:05 GMT 55.841736 -4.489889 925 46 116 -448
2022-08-15 20:17:03 GMT 55.841038 -4.491177 925 47 111 -320
2022-08-15 20:17:02 GMT 55.840572 -4.492121 925 47 110 -320
2022-08-15 20:17:00 GMT 55.839874 -4.493408 925 46 108 -448
2022-08-15 20:16:59 GMT 55.839500 -4.494095 950 47 107 -448
2022-08-15 20:16:57 GMT 55.838928 -4.495156 950 46 106 -640
2022-08-15 20:16:56 GMT 55.838154 -4.496670 975 46 106 -640
2022-08-15 20:16:53 GMT 55.837269 -4.498386 1,000 46 111 -640
2022-08-15 20:16:50 GMT 55.836151 -4.500446 1,050 47 114 -768
2022-08-15 20:16:48 GMT 55.835827 -4.501133 1,050 47 116 -768
2022-08-15 20:16:47 GMT 55.834846 -4.503021 1,100 46 118 -896
2022-08-15 20:16:44 GMT 55.834335 -4.503965 1,125 47 120 -768
2022-08-15 20:16:43 GMT 55.833961 -4.504652 1,125 47 120 -704
2022-08-15 20:16:42 GMT 55.833218 -4.506111 1,150 47 121 -576
2022-08-15 20:16:39 GMT 55.832008 -4.508429 1,175 46 123 -448
2022-08-15 20:16:37 GMT 55.831680 -4.509029 1,200 46 123 -448
2022-08-15 20:16:36 GMT 55.830917 -4.510554 1,200 46 126 -384
2022-08-15 20:16:34 GMT 55.830334 -4.511604 1,225 46 127 -448
2022-08-15 20:16:33 GMT 55.830139 -4.511968 1,225 46 129 -640
2022-08-15 20:16:31 GMT 55.829121 -4.513836 1,250 46 131 -704
2022-08-15 20:16:30 GMT 55.828903 -4.514216 1,250 46 132 -704
2022-08-15 20:16:29 GMT 55.828400 -4.515214 1,275 46 133 -768
2022-08-15 20:16:27 GMT 55.827576 -4.516796 1,300 46 136 -832
2022-08-15 20:16:26 GMT 55.827168 -4.517527 1,300 46 137 -768
2022-08-15 20:16:24 GMT 55.826294 -4.519209 1,325 46 140 -768
2022-08-15 20:16:22 GMT 55.824978 -4.521646 1,375 46 142 -768
2022-08-15 20:16:21 GMT 55.824978 -4.521646 1,375 46 143 -832
2022-08-15 20:16:18 GMT 55.822998 -4.525285 1,425 46 147 -896
2022-08-15 20:16:16 GMT 55.822605 -4.526024 1,450 46 148 -832
2022-08-15 20:16:15 GMT 55.821533 -4.527998 1,475 46 151 -832
2022-08-15 20:16:13 GMT 55.821255 -4.528513 1,475 46 151 -896
2022-08-15 20:16:12 GMT 55.820709 -4.529530 1,500 46 152 -896
2022-08-15 20:16:11 GMT 55.819813 -4.531260 1,525 45 153 -896
2022-08-15 20:16:09 GMT 55.819298 -4.532118 1,550 45 154 -896
2022-08-15 20:16:08 GMT 55.818600 -4.533405 1,575 45 154 -896
2022-08-15 20:16:06 GMT 55.817642 -4.535106 1,600 45 155 -960
2022-08-15 20:16:04 GMT 55.816635 -4.536937 1,625 45 156 -896
2022-08-15 20:16:03 GMT 55.816132 -4.537853 1,650 45 156 -896
2022-08-15 20:16:01 GMT 55.815155 -4.539585 1,675 45 157 -896
2022-08-15 20:16:00 GMT 55.814621 -4.540599 1,675 46 158 -960
2022-08-15 20:15:58 GMT 55.812973 -4.543596 1,725 46 158 -768
2022-08-15 20:15:54 GMT 55.811710 -4.545937 1,775 45 159 -704
2022-08-15 20:15:53 GMT 55.811234 -4.546758 1,775 46 159 -704
2022-08-15 20:15:52 GMT 55.810410 -4.548257 1,800 46 161 -704
2022-08-15 20:15:51 GMT 55.809402 -4.550171 1,825 46 163 -832
2022-08-15 20:15:49 GMT 55.809151 -4.550657 1,825 46 163 -960
2022-08-15 20:15:48 GMT 55.807846 -4.553084 1,875 47 164 -896
2022-08-15 20:15:46 GMT 55.807297 -4.554083 1,900 46 165 -832
2022-08-15 20:15:45 GMT 55.806313 -4.555979 1,925 46 165 -768
2022-08-15 20:15:42 GMT 55.805237 -4.558078 1,925 46 165 -704
2022-08-15 20:15:41 GMT 55.804775 -4.558897 1,950 46 164 -768
2022-08-15 20:15:39 GMT 55.804184 -4.559992 1,975 46 164 -832
2022-08-15 20:15:36 GMT 55.802307 -4.563571 2,025 46 161 -896
2022-08-15 20:15:34 GMT 55.801392 -4.565319 2,050 46 161 -832
2022-08-15 20:15:32 GMT 55.800339 -4.567233 2,075 46 161 -768
2022-08-15 20:15:29 GMT 55.798828 -4.570063 2,100 46 159 -1024
2022-08-15 20:15:26 GMT 55.797134 -4.573059 2,175 44 159 -1088
2022-08-15 20:15:24 GMT 55.796394 -4.574432 2,200 44 159 -704
2022-08-15 20:15:22 GMT 55.795258 -4.576388 2,225 44 161 -384
2022-08-15 20:15:19 GMT 55.793884 -4.578719 2,250 44 164 -704
2022-08-15 20:15:16 GMT 55.791779 -4.582298 2,300 44 166 -896
2022-08-15 20:15:14 GMT 55.790909 -4.583796 2,325 44 168 -832
2022-08-15 20:15:12 GMT 55.789764 -4.585710 2,375 44 169 -960
2022-08-15 20:15:09 GMT 55.787979 -4.588790 2,425 43 171 -1024
2022-08-15 20:15:06 GMT 55.786011 -4.592119 2,475 43 172 -960
2022-08-15 20:15:04 GMT 55.785175 -4.593573 2,500 42 174 -896
2022-08-15 20:15:02 GMT 55.784199 -4.595118 2,525 42 175 -1024
2022-08-15 20:14:59 GMT 55.782196 -4.598379 2,575 41 176 -1088
2022-08-15 20:14:56 GMT 55.780102 -4.601641 2,625 39 178 -1280
2022-08-15 20:14:54 GMT 55.778915 -4.603438 2,675 38 178 -1344
2022-08-15 20:14:52 GMT 55.776031 -4.607350 2,725 36 178 -1472
2022-08-15 20:14:49 GMT 55.776031 -4.607350 2,825 29 178 -1408
2022-08-15 20:14:46 GMT 55.773514 -4.610180 2,875 24 178 -1600
2022-08-15 20:14:43 GMT 55.768650 -4.613314 2,975 15 178 -1536
2022-08-15 20:14:39 GMT 55.768650 -4.613314 3,025 13 179 -1408
2022-08-15 20:14:36 GMT 55.765625 -4.614687 3,100 14 179 -1088
2022-08-15 20:14:34 GMT 55.764404 -4.615257 3,150 14 180 -896
2022-08-15 20:14:32 GMT 55.762878 -4.615889 3,175 15 182 -192
2022-08-15 20:14:29 GMT 55.757523 -4.618549 3,200 15 182 -64
2022-08-15 20:14:26 GMT 55.757523 -4.618549 3,200 15 182 -64
2022-08-15 20:14:23 GMT 55.754917 -4.619837 3,200 16 180 -64
2022-08-15 20:14:20 GMT 55.753052 -4.620750 3,200 16 180 -64
2022-08-15 20:14:17 GMT 55.750351 -4.622081 3,200 15 179 -64
2022-08-15 20:14:14 GMT 55.748215 -4.623184 3,200 15 179 -64
2022-08-15 20:14:12 GMT 55.746304 -4.624128 3,200 14 179 -64
2022-08-15 20:14:09 GMT 55.744537 -4.624901 3,200 14 179 -64
2022-08-15 20:14:07 GMT 55.742905 -4.625673 3,200 13 179 -128
2022-08-15 20:14:04 GMT 55.738449 -4.627491 3,225 12 182 -64
2022-08-15 20:14:02 GMT 55.738449 -4.627491 3,225 12 182 -64
2022-08-15 20:13:59 GMT 55.736298 -4.628324 3,225 9 184 -64
2022-08-15 20:13:57 GMT 55.734650 -4.628906 3,225 8 186 -64
2022-08-15 20:13:54 GMT 55.731720 -4.629489 3,225 1 190 -320
2022-08-15 20:13:52 GMT 55.729980 -4.629489 3,250 356 191 -512
2022-08-15 20:13:49 GMT 55.727692 -4.628989 3,275 346 195 -896
2022-08-15 20:13:47 GMT 55.725769 -4.628074 3,300 337 197 -1280
2022-08-15 20:13:44 GMT 55.723114 -4.626076 3,375 327 198 -1664
2022-08-15 20:13:42 GMT 55.719677 -4.621897 3,500 317 201 -1536
2022-08-15 20:13:39 GMT 55.719677 -4.621897 3,500 317 201 -1536
2022-08-15 20:13:37 GMT 55.718048 -4.619236 3,550 316 202 -1472
2022-08-15 20:13:34 GMT 55.715744 -4.615090 3,650 315 204 -1536
2022-08-15 20:13:31 GMT 55.714184 -4.612370 3,750 316 205 -1536
2022-08-15 20:13:28 GMT 55.712044 -4.608593 3,750 316 207 -1536
2022-08-15 20:13:24 GMT 55.708969 -4.603271 3,900 316 209 -1472
2022-08-15 20:13:21 GMT 55.707249 -4.600182 3,975 316 210 -1536
2022-08-15 20:13:18 GMT 55.705154 -4.596577 4,050 316 212 -1472
2022-08-15 20:13:15 GMT 55.701187 -4.589539 4,150 316 214 -1536
2022-08-15 20:13:12 GMT 55.701187 -4.589539 4,175 316 216 -1536
2022-08-15 20:13:10 GMT 55.699520 -4.586706 4,300 316 218 -1472
2022-08-15 20:13:07 GMT 55.697376 -4.583015 4,350 316 219 -1408
2022-08-15 20:13:05 GMT 55.695877 -4.580300 4,375 316 221 -1344
2022-08-15 20:13:02 GMT 55.693863 -4.576721 4,425 316 224 -1280
2022-08-15 20:12:59 GMT 55.691605 -4.572802 4,500 316 225 -1344
2022-08-15 20:12:57 GMT 55.690063 -4.570063 4,550 316 228 -1344
2022-08-15 20:12:55 GMT 55.688416 -4.567150 4,575 315 229 -1344
2022-08-15 20:12:52 GMT 55.686253 -4.563360 4,650 315 230 -1280
2022-08-15 20:12:49 GMT 55.682556 -4.556746 4,725 315 229 -1280
2022-08-15 20:12:47 GMT 55.680527 -4.553146 4,775 315 229 -1280
2022-08-15 20:12:45 GMT 55.680527 -4.553146 4,875 315 228 -1344
2022-08-15 20:12:42 GMT 55.678665 -4.549838 4,900 315 227 -1344
2022-08-15 20:12:39 GMT 55.675312 -4.543877 4,975 315 226 -1280
2022-08-15 20:12:35 GMT 55.671249 -4.536688 5,050 315 226 -1088
2022-08-15 20:12:32 GMT 55.671249 -4.536688 5,125 315 226 -1024
2022-08-15 20:12:28 GMT 55.668236 -4.531260 5,200 315 226 -1024
2022-08-15 20:12:25 GMT 55.666142 -4.527655 5,200 315 226 -1024
2022-08-15 20:12:23 GMT 55.663284 -4.522539 5,250 315 227 -1024
2022-08-15 20:12:21 GMT 55.663284 -4.522539 5,275 315 227 -1024
2022-08-15 20:12:18 GMT 55.660835 -4.518213 5,325 315 229 -1024
2022-08-15 20:12:15 GMT 55.656319 -4.510231 5,400 315 229 -1024
2022-08-15 20:12:12 GMT 55.653946 -4.506025 5,550 315 231 -1024
2022-08-15 20:12:08 GMT 55.653946 -4.506025 5,475 315 230 -1024
2022-08-15 20:12:06 GMT 55.651989 -4.502506 5,525 315 231 -1024
2022-08-15 20:12:04 GMT 55.649185 -4.497570 5,550 315 231 -1024
2022-08-15 20:12:02 GMT 55.649185 -4.497570 5,600 315 232 -1024
2022-08-15 20:11:59 GMT 55.646484 -4.492742 5,650 315 232 -1024
2022-08-15 20:11:56 GMT 55.643330 -4.487143 5,675 315 234 -1024
2022-08-15 20:11:54 GMT 55.643330 -4.487143 5,700 315 234 -1024
2022-08-15 20:11:52 GMT 55.640724 -4.482508 5,775 315 236 -1024
2022-08-15 20:11:49 GMT 55.637924 -4.477511 5,975 315 237 -1024
2022-08-15 20:11:44 GMT 55.635590 -4.473350 5,875 315 237 -1024
2022-08-15 20:11:42 GMT 55.633694 -4.469891 5,975 315 236 -1024
2022-08-15 20:11:39 GMT 55.631042 -4.465170 5,975 315 236 -1024
2022-08-15 20:11:37 GMT 55.629593 -4.462530 6,000 315 236 -1024
2022-08-15 20:11:34 GMT 55.627899 -4.459534 6,050 315 234 -1024
2022-08-15 20:11:32 GMT 55.626015 -4.456158 6,100 315 232 -1024
2022-08-15 20:11:29 GMT 55.623688 -4.451877 6,150 315 231 -960
2022-08-15 20:11:27 GMT 55.620209 -4.445801 6,175 316 229 -960
2022-08-15 20:11:24 GMT 55.620209 -4.445801 6,225 316 228 -1024
2022-08-15 20:11:21 GMT 55.617729 -4.441481 6,300 317 230 -1024
2022-08-15 20:11:17 GMT 55.612701 -4.432812 6,350 316 232 -1024
2022-08-15 20:11:14 GMT 55.610275 -4.428739 6,475 316 234 -1024
2022-08-15 20:11:12 GMT 55.610275 -4.428739 6,450 316 236 -1024
2022-08-15 20:11:09 GMT 55.606789 -4.422598 6,500 316 241 -1024
2022-08-15 20:11:04 GMT 55.604740 -4.419079 6,600 316 244 -1024
2022-08-15 20:11:02 GMT 55.602970 -4.415989 6,600 316 243 -1024
2022-08-15 20:10:59 GMT 55.600204 -4.411177 6,650 316 244 -1024
2022-08-15 20:10:56 GMT 55.598602 -4.408347 6,675 316 244 -1024
2022-08-15 20:10:54 GMT 55.596497 -4.404685 6,775 316 246 -1024
2022-08-15 20:10:52 GMT 55.594711 -4.401606 6,775 316 246 -1024
2022-08-15 20:10:49 GMT 55.592148 -4.397028 6,825 316 247 -1024
2022-08-15 20:10:46 GMT 55.589935 -4.393244 6,850 316 249 -1024
2022-08-15 20:10:43 GMT 55.587570 -4.389038 6,925 316 250 -1024
2022-08-15 20:10:41 GMT 55.585838 -4.386034 6,950 316 251 -1024
2022-08-15 20:10:38 GMT 55.584091 -4.383046 6,975 315 251 -960
2022-08-15 20:10:36 GMT 55.582535 -4.380283 7,025 315 251 -960
2022-08-15 20:10:34 GMT 55.577785 -4.371786 7,125 315 250 -1280
2022-08-15 20:10:31 GMT 55.577785 -4.371786 7,150 315 250 -1280
2022-08-15 20:10:28 GMT 55.574852 -4.366636 7,200 315 248 -1280
2022-08-15 20:10:25 GMT 55.573036 -4.363461 7,250 315 248 -1280
2022-08-15 20:10:23 GMT 55.571083 -4.360027 7,325 315 246 -1280
2022-08-15 20:10:20 GMT 55.569077 -4.356412 7,350 315 245 -1280
2022-08-15 20:10:17 GMT 55.565960 -4.350929 7,450 315 243 -1344
2022-08-15 20:10:14 GMT 55.564098 -4.347496 7,475 315 242 -1280
2022-08-15 20:10:12 GMT 55.562515 -4.344749 7,550 315 239 -1280
2022-08-15 20:10:09 GMT 55.560329 -4.340801 7,600 315 238 -1280
2022-08-15 20:10:06 GMT 55.557953 -4.336681 7,650 315 236 -1344
2022-08-15 20:10:04 GMT 55.555954 -4.333162 7,700 315 236 -1344
2022-08-15 20:10:01 GMT 55.552185 -4.326533 7,775 316 234 -1344
2022-08-15 20:09:58 GMT 55.552185 -4.326533 7,850 316 234 -1280
2022-08-15 20:09:56 GMT 55.549896 -4.322454 7,925 315 234 -1280
2022-08-15 20:09:53 GMT 55.548065 -4.319208 7,925 315 234 -1280
2022-08-15 20:09:51 GMT 55.546455 -4.316425 8,000 315 236 -1344
2022-08-15 20:09:48 GMT 55.543198 -4.310675 8,075 315 237 -1344
2022-08-15 20:09:45 GMT 55.541988 -4.308529 8,100 315 237 -1344
2022-08-15 20:09:43 GMT 55.540359 -4.305696 8,175 315 238 -1344
2022-08-15 20:09:41 GMT 55.538315 -4.302063 8,225 315 239 -1344
2022-08-15 20:09:38 GMT 55.536621 -4.299067 8,275 315 239 -1344
2022-08-15 20:09:35 GMT 55.532166 -4.291191 8,400 315 241 -1344
2022-08-15 20:09:33 GMT 55.532166 -4.291191 8,375 315 240 -1344
2022-08-15 20:09:31 GMT 55.530582 -4.288445 8,450 315 241 -1344
2022-08-15 20:09:28 GMT 55.528610 -4.285001 8,475 315 243 -1280
2022-08-15 20:09:25 GMT 55.526020 -4.280376 8,550 315 243 -1344
2022-08-15 20:09:23 GMT 55.524391 -4.277544 8,600 315 244 -1344
2022-08-15 20:09:21 GMT 55.522808 -4.274712 8,650 315 245 -1344
2022-08-15 20:09:18 GMT 55.520004 -4.269770 8,700 315 246 -1280
2022-08-15 20:09:15 GMT 55.518013 -4.266214 8,825 315 248 -1280
2022-08-15 20:09:12 GMT 55.516056 -4.262867 8,825 315 248 -1280
2022-08-15 20:09:09 GMT 55.512772 -4.256952 8,925 315 248 -1344
2022-08-15 20:09:06 GMT 55.510563 -4.253082 8,975 315 249 -1344
2022-08-15 20:09:03 GMT 55.507957 -4.248447 9,025 315 250 -1344
2022-08-15 20:09:01 GMT 55.506729 -4.246299 9,075 315 250 -1280
2022-08-15 20:08:58 GMT 55.504303 -4.241971 9,125 315 251 -1344
2022-08-15 20:08:56 GMT 55.502419 -4.238663 9,175 315 251 -1344
2022-08-15 20:08:53 GMT 55.499905 -4.234371 9,250 316 252 -1344
2022-08-15 20:08:51 GMT 55.498535 -4.231900 9,325 316 253 -1344
2022-08-15 20:08:48 GMT 55.496201 -4.227822 9,350 316 253 -1344
2022-08-15 20:08:46 GMT 55.491943 -4.220381 9,475 316 255 -1344
2022-08-15 20:08:43 GMT 55.491943 -4.220381 9,450 316 255 -1344
2022-08-15 20:08:41 GMT 55.487869 -4.213174 9,525 316 255 -1280
2022-08-15 20:08:38 GMT 55.487869 -4.213174 9,550 316 255 -1280
2022-08-15 20:08:35 GMT 55.485352 -4.208762 9,625 316 255 -1280
2022-08-15 20:08:33 GMT 55.481049 -4.201326 9,700 316 256 -1344
2022-08-15 20:08:30 GMT 55.481049 -4.201326 9,750 316 256 -1344
2022-08-15 20:08:27 GMT 55.478489 -4.196949 9,800 316 256 -1280
2022-08-15 20:08:25 GMT 55.477325 -4.194889 9,825 316 256 -1280
2022-08-15 20:08:23 GMT 55.474953 -4.190769 9,875 316 258 -1344
2022-08-15 20:08:21 GMT 55.473557 -4.188452 9,900 316 258 -1344
2022-08-15 20:08:18 GMT 55.468807 -4.180212 10,025 316 258 -1344
2022-08-15 20:08:15 GMT 55.468807 -4.180212 10,050 316 258 -1344
2022-08-15 20:08:13 GMT 55.466248 -4.175749 10,100 316 259 -1344
2022-08-15 20:08:11 GMT 55.464798 -4.173223 10,175 316 260 -1344
2022-08-15 20:08:08 GMT 55.462151 -4.168711 10,225 316 260 -1344
2022-08-15 20:08:05 GMT 55.459488 -4.164068 10,225 316 260 -1344
2022-08-15 20:08:02 GMT 55.456982 -4.159784 10,350 316 260 -1344
2022-08-15 20:08:00 GMT 55.455631 -4.157381 10,400 316 261 -1344
2022-08-15 20:07:57 GMT 55.453213 -4.153261 10,450 316 262 -1344
2022-08-15 20:07:55 GMT 55.450516 -4.148587 10,500 316 263 -1280
2022-08-15 20:07:52 GMT 55.448509 -4.145193 10,600 316 265 -1344
2022-08-15 20:07:50 GMT 55.446121 -4.141097 10,625 316 266 -1344
2022-08-15 20:07:47 GMT 55.444382 -4.138100 10,675 316 268 -1344
2022-08-15 20:07:45 GMT 55.442596 -4.135060 10,700 316 269 -1344
2022-08-15 20:07:43 GMT 55.438477 -4.127951 10,775 316 273 -1344
2022-08-15 20:07:41 GMT 55.438477 -4.127951 10,800 316 272 -1408
2022-08-15 20:07:38 GMT 55.436035 -4.123785 11,125 316 277 -1344
2022-08-15 20:07:35 GMT 55.433258 -4.118984 11,025 316 279 -1344
2022-08-15 20:07:32 GMT 55.430145 -4.113572 11,000 316 277 -1344
2022-08-15 20:07:29 GMT 55.427654 -4.109303 11,075 316 279 -1344
2022-08-15 20:07:27 GMT 55.425934 -4.106302 11,125 316 277 -1344
2022-08-15 20:07:25 GMT 55.424103 -4.103070 11,150 316 278 -1344
2022-08-15 20:07:22 GMT 55.417465 -4.091680 11,250 316 277 -1344
2022-08-15 20:07:18 GMT 55.417465 -4.091680 11,325 316 277 -1344
2022-08-15 20:07:16 GMT 55.415180 -4.087746 11,400 316 277 -1344
2022-08-15 20:07:13 GMT 55.412933 -4.083764 11,400 316 277 -1344
2022-08-15 20:07:11 GMT 55.411175 -4.080755 11,475 316 277 -1344
2022-08-15 20:07:08 GMT 55.408356 -4.075847 11,525 316 277 -1344
2022-08-15 20:07:05 GMT 55.404007 -4.068253 11,650 316 275 -1344
2022-08-15 20:07:03 GMT 55.404007 -4.068253 11,650 316 276 -1280
2022-08-15 20:06:58 GMT 55.399349 -4.060197 11,750 316 275 -1344
2022-08-15 20:06:55 GMT 55.396652 -4.055453 11,825 316 275 -1344
2022-08-15 20:06:53 GMT 55.394321 -4.051375 11,875 316 275 -1280
2022-08-15 20:06:50 GMT 55.392509 -4.048212 11,925 316 273 -1216
2022-08-15 20:06:47 GMT 55.389297 -4.042636 11,975 316 272 -1536
2022-08-15 20:06:43 GMT 55.386520 -4.037718 12,050 316 272 -1536
2022-08-15 20:06:41 GMT 55.380981 -4.028105 12,150 316 271 -1600
2022-08-15 20:06:38 GMT 55.380981 -4.028105 12,225 316 270 -1600
2022-08-15 20:06:33 GMT 55.376400 -4.020247 12,300 316 270 -1536
2022-08-15 20:06:30 GMT 55.374634 -4.017251 12,375 316 270 -1472
2022-08-15 20:06:27 GMT 55.370674 -4.010509 12,575 317 273 -1664
2022-08-15 20:06:23 GMT 55.367844 -4.005728 12,575 316 275 -1600
2022-08-15 20:06:21 GMT 55.364182 -3.999508 12,675 316 278 -1600
2022-08-15 20:06:19 GMT 55.364182 -3.999508 12,675 316 280 -1472
2022-08-15 20:06:16 GMT 55.361504 -3.994862 12,750 316 282 -1408
2022-08-15 20:06:14 GMT 55.359329 -3.991268 12,775 316 282 -1472
2022-08-15 20:06:11 GMT 55.356903 -3.987068 12,900 316 284 -1536
2022-08-15 20:06:09 GMT 55.354568 -3.983043 12,975 316 285 -1600
2022-08-15 20:06:06 GMT 55.352100 -3.978799 13,050 316 287 -1536
2022-08-15 20:06:03 GMT 55.349262 -3.973971 13,075 316 287 -1536
2022-08-15 20:06:01 GMT 55.347290 -3.970507 13,125 316 288 -1536
2022-08-15 20:05:59 GMT 55.345257 -3.967063 13,175 316 288 -1472
2022-08-15 20:05:56 GMT 55.342045 -3.961487 13,300 316 289 -1216
2022-08-15 20:05:53 GMT 55.339207 -3.956493 13,300 316 289 -1216
2022-08-15 20:05:51 GMT 55.337814 -3.954028 13,375 316 289 -1216
2022-08-15 20:05:49 GMT 55.335621 -3.950251 13,400 316 289 -1216
2022-08-15 20:05:46 GMT 55.332687 -3.945142 13,475 316 289 -1216
2022-08-15 20:05:43 GMT 55.329941 -3.940346 13,525 316 289 -1152
2022-08-15 20:05:41 GMT 55.328220 -3.937350 13,575 316 288 -1216
2022-08-15 20:05:39 GMT 55.326359 -3.934104 13,600 316 288 -1216
2022-08-15 20:05:36 GMT 55.322540 -3.927446 13,675 316 287 -1216
2022-08-15 20:05:33 GMT 55.320602 -3.923977 13,725 316 287 -1216
2022-08-15 20:05:31 GMT 55.318680 -3.920746 13,750 316 287 -1280
2022-08-15 20:05:29 GMT 55.316803 -3.917434 13,800 316 287 -1280
2022-08-15 20:05:26 GMT 55.313965 -3.912506 13,850 316 287 -1216
2022-08-15 20:05:23 GMT 55.311043 -3.907471 13,925 316 287 -1216
2022-08-15 20:05:21 GMT 55.309662 -3.904993 13,950 316 287 -1216
2022-08-15 20:05:19 GMT 55.306824 -3.900066 14,000 316 287 -1216
2022-08-15 20:05:16 GMT 55.305313 -3.897400 14,025 316 288 -1280
2022-08-15 20:05:13 GMT 55.301640 -3.891074 14,125 316 287 -1280
2022-08-15 20:05:10 GMT 55.298721 -3.885929 14,200 316 287 -1216
2022-08-15 20:05:07 GMT 55.296799 -3.882617 14,250 316 287 -1280
2022-08-15 20:05:05 GMT 55.294006 -3.877770 14,275 316 287 -1280
2022-08-15 20:05:02 GMT 55.291168 -3.872842 14,350 316 286 -1152
2022-08-15 20:04:59 GMT 55.288837 -3.868769 14,400 316 285 -1216
2022-08-15 20:04:56 GMT 55.286453 -3.864683 14,475 316 284 -1280
2022-08-15 20:04:53 GMT 55.283295 -3.859190 14,525 316 284 -1280
2022-08-15 20:04:51 GMT 55.280968 -3.855119 14,550 316 284 -1216
2022-08-15 20:04:49 GMT 55.279850 -3.853205 14,600 316 284 -1216
2022-08-15 20:04:47 GMT 55.277847 -3.849819 14,625 316 282 -1280
2022-08-15 20:04:45 GMT 55.276199 -3.846911 14,675 316 282 -1216
2022-08-15 20:04:43 GMT 55.270866 -3.837807 14,750 316 282 -1216
2022-08-15 20:04:40 GMT 55.270866 -3.837807 14,775 316 282 -1216
2022-08-15 20:04:37 GMT 55.266537 -3.830483 14,850 317 282 -1216
2022-08-15 20:04:35 GMT 55.264675 -3.827320 14,900 317 282 -1216
2022-08-15 20:04:33 GMT 55.264675 -3.827320 14,900 317 282 -1216
2022-08-15 20:04:31 GMT 55.261089 -3.821328 14,975 317 282 -1216
2022-08-15 20:04:29 GMT 55.261089 -3.821328 14,975 317 282 -1216
2022-08-15 20:04:27 GMT 55.258896 -3.817668 15,075 317 284 -1280
2022-08-15 20:04:25 GMT 55.257133 -3.814670 15,075 317 285 -1280
2022-08-15 20:04:23 GMT 55.254730 -3.810721 15,125 317 287 -1216
2022-08-15 20:04:21 GMT 55.253876 -3.809343 15,150 317 287 -1216
2022-08-15 20:04:19 GMT 55.251919 -3.806097 15,175 317 288 -1216
2022-08-15 20:04:17 GMT 55.249512 -3.802158 15,225 317 289 -1216
2022-08-15 20:04:15 GMT 55.245590 -3.795443 15,300 317 292 -1216
2022-08-15 20:04:13 GMT 55.244007 -3.792863 15,325 317 292 -1216
2022-08-15 20:04:09 GMT 55.241959 -3.789395 15,400 317 294 -1344
2022-08-15 20:04:07 GMT 55.237766 -3.782376 15,450 317 295 -1280
2022-08-15 20:04:05 GMT 55.237766 -3.782376 15,500 317 297 -1280
2022-08-15 20:04:03 GMT 55.235580 -3.778714 15,525 317 297 -1280
2022-08-15 20:04:01 GMT 55.233997 -3.776051 15,550 317 298 -1216
2022-08-15 20:03:59 GMT 55.229809 -3.768976 15,600 317 299 -1216
2022-08-15 20:03:57 GMT 55.229809 -3.768976 15,650 317 299 -1216
2022-08-15 20:03:55 GMT 55.224407 -3.759904 15,725 316 301 -1216
2022-08-15 20:03:52 GMT 55.224407 -3.759904 15,750 317 302 -1280
2022-08-15 20:03:49 GMT 55.219986 -3.752414 15,875 316 304 -1280
2022-08-15 20:03:47 GMT 55.217468 -3.748115 15,875 316 304 -1280
2022-08-15 20:03:45 GMT 55.217468 -3.748115 15,900 316 305 -1280
2022-08-15 20:03:42 GMT 55.214771 -3.743425 16,000 316 305 -1216
2022-08-15 20:03:39 GMT 55.212021 -3.738744 16,025 316 306 -1280
2022-08-15 20:03:37 GMT 55.209511 -3.734436 16,050 316 306 -1280
2022-08-15 20:03:34 GMT 55.206673 -3.729525 16,125 316 306 -1216
2022-08-15 20:03:32 GMT 55.205044 -3.726779 16,150 316 307 -1216
2022-08-15 20:03:30 GMT 55.202545 -3.722426 16,225 316 307 -1280
2022-08-15 20:03:27 GMT 55.198700 -3.715802 16,275 316 307 -1280
2022-08-15 20:03:24 GMT 55.195778 -3.710799 16,350 316 307 -1216
2022-08-15 20:03:21 GMT 55.193436 -3.706755 16,375 316 307 -1216
2022-08-15 20:03:19 GMT 55.192017 -3.704331 16,400 316 307 -1216
2022-08-15 20:03:17 GMT 55.189407 -3.699808 16,450 316 308 -1216
2022-08-15 20:03:14 GMT 55.186886 -3.695401 16,650 315 306 -1216
2022-08-15 20:03:11 GMT 55.183960 -3.690356 16,725 315 308 -1152
2022-08-15 20:03:09 GMT 55.181351 -3.685752 16,625 315 307 -1152
2022-08-15 20:03:06 GMT 55.178226 -3.680337 16,650 315 306 -1216
2022-08-15 20:03:03 GMT 55.173340 -3.671776 16,750 315 305 -1216
2022-08-15 20:02:59 GMT 55.171059 -3.667769 16,825 316 304 -1152
2022-08-15 20:02:56 GMT 55.168762 -3.663779 16,850 315 304 -1216
2022-08-15 20:02:54 GMT 55.166077 -3.659113 16,925 316 301 -1216
2022-08-15 20:02:52 GMT 55.161209 -3.650611 16,975 316 301 -1216
2022-08-15 20:02:50 GMT 55.161209 -3.650611 17,000 316 301 -1216
2022-08-15 20:02:47 GMT 55.158955 -3.646712 17,050 316 300 -1216
2022-08-15 20:02:43 GMT 55.155602 -3.640886 17,125 316 299 -1216
2022-08-15 20:02:41 GMT 55.153931 -3.638009 17,150 316 298 -1088
2022-08-15 20:02:39 GMT 55.151413 -3.633566 17,175 316 297 -960
2022-08-15 20:02:36 GMT 55.145454 -3.623324 17,300 316 294 -960
2022-08-15 20:02:33 GMT 55.145454 -3.623324 17,300 316 295 -960
2022-08-15 20:02:29 GMT 55.141777 -3.616916 17,375 316 294 -960
2022-08-15 20:02:26 GMT 55.138287 -3.610923 17,425 316 292 -960
2022-08-15 20:02:23 GMT 55.136078 -3.607151 17,450 316 292 -960
2022-08-15 20:02:21 GMT 55.134521 -3.604485 17,475 316 291 -960
2022-08-15 20:02:19 GMT 55.131683 -3.599557 17,525 316 290 -960
2022-08-15 20:02:16 GMT 55.129761 -3.596245 17,550 316 289 -960
2022-08-15 20:02:14 GMT 55.127106 -3.591641 17,600 316 287 -960
2022-08-15 20:02:11 GMT 55.124741 -3.587619 17,650 316 285 -1024
2022-08-15 20:02:09 GMT 55.122528 -3.583886 17,675 316 286 -1024
2022-08-15 20:02:06 GMT 55.119370 -3.578392 17,750 316 284 -1088
2022-08-15 20:02:03 GMT 55.117676 -3.575484 17,800 316 282 -960
2022-08-15 20:02:01 GMT 55.115616 -3.572011 17,825 316 281 -704
2022-08-15 20:01:59 GMT 55.113289 -3.567977 17,850 316 280 -704
2022-08-15 20:01:57 GMT 55.109562 -3.561734 17,875 316 280 -704
2022-08-15 20:01:55 GMT 55.109562 -3.561734 17,875 316 278 -704
2022-08-15 20:01:51 GMT 55.103699 -3.551663 17,950 316 275 -704
2022-08-15 20:01:46 GMT 55.100510 -3.546161 18,000 316 275 -256
2022-08-15 20:01:43 GMT 55.098907 -3.543414 18,000 316 275 0
2022-08-15 20:01:41 GMT 55.096809 -3.539845 18,000 316 274 -64
2022-08-15 20:01:39 GMT 55.095108 -3.536871 18,000 316 274 -64
2022-08-15 20:01:37 GMT 55.092850 -3.533020 18,000 316 274 0
2022-08-15 20:01:34 GMT 55.091084 -3.529857 18,000 316 273 0
2022-08-15 20:01:31 GMT 55.087921 -3.524430 18,000 315 274 0
2022-08-15 20:01:29 GMT 55.086136 -3.521280 18,000 315 273 0
2022-08-15 20:01:27 GMT 55.083542 -3.516790 18,000 314 273 -64
2022-08-15 20:01:24 GMT 55.081696 -3.513444 18,000 315 273 0
2022-08-15 20:01:21 GMT 55.078491 -3.507789 18,000 315 273 -64
2022-08-15 20:01:19 GMT 55.077164 -3.505471 18,000 315 273 -64
2022-08-15 20:01:17 GMT 55.072678 -3.497368 18,000 314 273 -64
2022-08-15 20:01:11 GMT 55.069885 -3.492279 18,000 314 273 0
2022-08-15 20:01:08 GMT 55.067715 -3.488242 18,000 314 273 0
2022-08-15 20:01:05 GMT 55.064594 -3.482500 18,000 313 273 0
2022-08-15 20:01:01 GMT 55.061337 -3.476341 18,000 313 273 0
2022-08-15 20:00:59 GMT 55.059586 -3.472972 18,000 312 272 0
2022-08-15 20:00:56 GMT 55.056122 -3.466270 18,000 312 273 0
2022-08-15 20:00:54 GMT 55.056122 -3.466270 18,000 311 272 0
2022-08-15 20:00:51 GMT 55.051529 -3.457139 18,000 311 273 0
2022-08-15 20:00:49 GMT 55.051529 -3.457139 18,000 311 273 0
2022-08-15 20:00:46 GMT 55.049511 -3.453036 18,000 311 273 0
2022-08-15 20:00:44 GMT 55.044708 -3.443164 18,000 310 272 -64
2022-08-15 20:00:41 GMT 55.044708 -3.443164 18,000 310 272 -64
2022-08-15 20:00:39 GMT 55.042995 -3.439553 18,000 310 272 0
2022-08-15 20:00:36 GMT 55.041321 -3.436055 18,000 310 272 0
2022-08-15 20:00:34 GMT 55.036880 -3.426523 18,000 310 272 0
2022-08-15 20:00:31 GMT 55.036880 -3.426523 18,000 310 271 64
2022-08-15 20:00:29 GMT 55.035278 -3.423130 18,000 310 271 64
2022-08-15 20:00:27 GMT 55.031403 -3.414834 18,000 310 271 64
2022-08-15 20:00:24 GMT 55.031403 -3.414834 18,000 310 272 0
2022-08-15 20:00:21 GMT 55.028915 -3.409558 18,000 310 272 -64
2022-08-15 20:00:19 GMT 55.027313 -3.406246 18,000 311 272 -64
2022-08-15 20:00:17 GMT 55.026096 -3.403681 18,000 311 272 -64
2022-08-15 20:00:15 GMT 55.024246 -3.399865 18,000 311 272 -64
2022-08-15 20:00:12 GMT 55.021347 -3.394110 18,025 313 272 -64
2022-08-15 20:00:10 GMT 55.020584 -3.392675 18,025 313 273 -64
2022-08-15 20:00:07 GMT 55.017654 -3.387182 18,025 318 273 64
2022-08-15 20:00:04 GMT 55.014999 -3.382497 18,000 318 274 128
2022-08-15 20:00:01 GMT 55.011757 -3.377297 18,000 321 275 128
2022-08-15 19:59:59 GMT 55.009987 -3.374717 18,000 323 276 128
2022-08-15 19:59:56 GMT 55.003563 -3.366561 18,000 328 277 -64
2022-08-15 19:59:53 GMT 55.003563 -3.366561 18,000 331 278 0
2022-08-15 19:59:50 GMT 55.000912 -3.363897 18,000 331 279 64
2022-08-15 19:59:48 GMT 54.998566 -3.361574 18,000 332 279 128
2022-08-15 19:59:46 GMT 54.996395 -3.359569 18,000 331 279 -64
2022-08-15 19:59:44 GMT 54.993416 -3.356739 18,000 329 279 -192
2022-08-15 19:59:41 GMT 54.990234 -3.353415 18,000 327 278 -192
2022-08-15 19:59:39 GMT 54.986572 -3.349214 18,025 326 277 0
2022-08-15 19:59:35 GMT 54.983734 -3.345836 18,025 327 278 64
2022-08-15 19:59:32 GMT 54.980850 -3.342510 18,000 327 279 192
2022-08-15 19:59:30 GMT 54.978565 -3.339844 18,000 323 278 0
2022-08-15 19:59:27 GMT 54.975445 -3.336015 18,000 321 278 -128
2022-08-15 19:59:25 GMT 54.973026 -3.332686 18,000 317 277 -320
2022-08-15 19:59:22 GMT 54.970604 -3.328691 18,000 314 275 -256
2022-08-15 19:59:20 GMT 54.967533 -3.322782 18,025 311 274 64
2022-08-15 19:59:18 GMT 54.967533 -3.322782 18,025 311 274 64
2022-08-15 19:59:16 GMT 54.965469 -3.318598 18,000 311 274 64
2022-08-15 19:59:13 GMT 54.963112 -3.313710 18,000 310 274 0
2022-08-15 19:59:10 GMT 54.961212 -3.309793 18,000 310 274 -64
2022-08-15 19:59:08 GMT 54.959290 -3.305754 18,000 310 274 -64
2022-08-15 19:59:06 GMT 54.955986 -3.298728 18,000 309 274 64
2022-08-15 19:59:04 GMT 54.955986 -3.298728 18,000 309 274 64
2022-08-15 19:59:01 GMT 54.953384 -3.293071 18,000 309 274 0
2022-08-15 19:58:59 GMT 54.951893 -3.289823 18,000 308 273 0
2022-08-15 19:58:57 GMT 54.950272 -3.286205 18,000 308 273 64
2022-08-15 19:58:55 GMT 54.948715 -3.282731 18,000 308 273 64
2022-08-15 19:58:52 GMT 54.946770 -3.278337 18,000 308 273 0
2022-08-15 19:58:50 GMT 54.945007 -3.274410 18,000 308 273 -64
2022-08-15 19:58:48 GMT 54.943417 -3.270763 18,000 308 273 0
2022-08-15 19:58:45 GMT 54.941231 -3.265852 18,000 309 273 0
2022-08-15 19:58:42 GMT 54.937408 -3.257446 18,000 309 273 0
2022-08-15 19:58:40 GMT 54.934994 -3.252120 18,000 309 273 64
2022-08-15 19:58:37 GMT 54.934994 -3.252120 18,000 309 273 0
2022-08-15 19:58:34 GMT 54.932190 -3.246137 18,000 310 273 -64
2022-08-15 19:58:31 GMT 54.929810 -3.241048 18,000 310 273 -64
2022-08-15 19:58:28 GMT 54.927704 -3.236685 18,000 311 273 0
2022-08-15 19:58:26 GMT 54.926006 -3.233143 18,000 311 273 0
2022-08-15 19:58:23 GMT 54.923767 -3.228607 18,000 311 273 0
2022-08-15 19:58:20 GMT 54.920746 -3.222490 18,000 311 272 -64
2022-08-15 19:58:18 GMT 54.917583 -3.216248 18,000 310 272 -64
2022-08-15 19:58:16 GMT 54.917583 -3.216248 18,000 311 272 0
2022-08-15 19:58:14 GMT 54.916031 -3.213097 18,000 311 272 64
2022-08-15 19:58:11 GMT 54.913559 -3.208089 18,000 311 273 64
2022-08-15 19:58:08 GMT 54.911343 -3.203597 18,000 311 272 0
2022-08-15 19:58:06 GMT 54.909389 -3.199685 18,000 311 273 0
2022-08-15 19:58:04 GMT 54.908409 -3.197687 18,000 311 272 0
2022-08-15 19:58:01 GMT 54.904503 -3.189614 18,000 310 272 -64
2022-08-15 19:57:58 GMT 54.900497 -3.181208 18,000 310 272 0
2022-08-15 19:57:55 GMT 54.900497 -3.181208 18,000 310 272 0
2022-08-15 19:57:51 GMT 54.897263 -3.174322 18,000 309 271 0
2022-08-15 19:57:47 GMT 54.894352 -3.167974 18,000 308 271 0
2022-08-15 19:57:44 GMT 54.892212 -3.163147 18,000 308 271 64
2022-08-15 19:57:41 GMT 54.887787 -3.153159 18,000 308 272 64
2022-08-15 19:57:38 GMT 54.887787 -3.153159 18,000 308 272 64
2022-08-15 19:57:36 GMT 54.885834 -3.148665 18,000 308 272 64
2022-08-15 19:57:31 GMT 54.881828 -3.139676 18,000 309 272 0
2022-08-15 19:57:28 GMT 54.879593 -3.134658 18,000 309 273 0
2022-08-15 19:57:25 GMT 54.875610 -3.126095 18,000 310 274 -64
2022-08-15 19:57:23 GMT 54.875610 -3.126095 18,000 311 273 -192
2022-08-15 19:57:20 GMT 54.873184 -3.121087 18,000 311 273 -192
2022-08-15 19:57:18 GMT 54.872040 -3.118744 18,025 311 273 -128
2022-08-15 19:57:16 GMT 54.868328 -3.111295 18,025 312 273 0
2022-08-15 19:57:14 GMT 54.865814 -3.106384 18,025 316 275 256
2022-08-15 19:57:11 GMT 54.865814 -3.106384 18,000 316 275 256
2022-08-15 19:57:08 GMT 54.860882 -3.098644 18,000 322 277 -64
2022-08-15 19:57:06 GMT 54.860882 -3.098644 18,000 331 278 0
2022-08-15 19:57:03 GMT 54.857574 -3.094832 18,000 330 278 0
2022-08-15 19:57:00 GMT 54.854408 -3.091569 18,000 331 278 -64
2022-08-15 19:56:58 GMT 54.852596 -3.089738 18,000 331 278 -64
2022-08-15 19:56:56 GMT 54.850021 -3.087239 18,000 331 278 0
2022-08-15 19:56:53 GMT 54.847092 -3.084412 18,000 331 277 0
2022-08-15 19:56:50 GMT 54.843292 -3.080696 18,000 331 277 0
2022-08-15 19:56:48 GMT 54.841049 -3.078595 18,000 331 277 0
2022-08-15 19:56:45 GMT 54.837605 -3.075173 18,000 331 277 0
2022-08-15 19:56:43 GMT 54.834824 -3.072456 18,000 331 277 0
2022-08-15 19:56:40 GMT 54.831894 -3.069629 18,000 331 277 0
2022-08-15 19:56:38 GMT 54.829784 -3.067599 18,000 331 277 0
2022-08-15 19:56:35 GMT 54.826950 -3.064862 18,000 331 277 -64
2022-08-15 19:56:32 GMT 54.823963 -3.061856 18,000 331 277 -64
2022-08-15 19:56:30 GMT 54.820614 -3.058610 18,000 331 277 -64
2022-08-15 19:56:27 GMT 54.818253 -3.056300 18,000 331 277 -64
2022-08-15 19:56:25 GMT 54.816238 -3.054361 18,000 331 277 0
2022-08-15 19:56:22 GMT 54.812897 -3.051130 18,000 331 277 0
2022-08-15 19:56:20 GMT 54.809326 -3.047656 18,000 331 277 0
2022-08-15 19:56:17 GMT 54.803055 -3.041516 18,000 331 277 0
2022-08-15 19:56:14 GMT 54.803055 -3.041516 18,000 331 277 64
2022-08-15 19:56:11 GMT 54.799942 -3.038528 18,000 331 276 0
2022-08-15 19:56:08 GMT 54.796497 -3.035140 18,000 331 276 0
2022-08-15 19:56:05 GMT 54.793800 -3.032476 18,000 331 276 0
2022-08-15 19:56:03 GMT 54.791702 -3.030449 18,000 331 276 0
2022-08-15 19:56:00 GMT 54.787792 -3.026650 18,000 331 276 0
2022-08-15 19:55:57 GMT 54.785019 -3.023906 18,000 331 276 0
2022-08-15 19:55:54 GMT 54.780991 -3.019948 18,000 331 276 0
2022-08-15 19:55:51 GMT 54.777786 -3.016829 18,000 331 276 0
2022-08-15 19:55:48 GMT 54.771652 -3.010819 18,000 331 276 0
2022-08-15 19:55:45 GMT 54.771652 -3.010819 18,000 331 276 0
2022-08-15 19:55:43 GMT 54.765541 -3.004844 18,000 331 276 0
2022-08-15 19:55:40 GMT 54.765541 -3.004844 18,000 331 276 0
2022-08-15 19:55:37 GMT 54.759956 -2.999434 18,000 331 276 0
2022-08-15 19:55:35 GMT 54.759956 -2.999434 18,000 331 276 0
2022-08-15 19:55:32 GMT 54.755859 -2.995390 18,000 331 276 0
2022-08-15 19:55:29 GMT 54.753845 -2.993451 18,000 331 276 0
2022-08-15 19:55:27 GMT 54.751190 -2.990785 18,000 331 275 0
2022-08-15 19:55:24 GMT 54.747528 -2.987282 18,000 331 275 0
2022-08-15 19:55:21 GMT 54.740871 -2.980791 18,000 331 275 0
2022-08-15 19:55:18 GMT 54.740871 -2.980791 18,000 331 276 0
2022-08-15 19:55:13 GMT 54.735329 -2.975297 18,000 331 275 0
2022-08-15 19:55:09 GMT 54.730862 -2.970969 18,000 331 275 -64
2022-08-15 19:55:06 GMT 54.727432 -2.967682 18,000 331 275 -64
2022-08-15 19:55:03 GMT 54.720108 -2.960492 18,000 331 275 0
2022-08-15 19:54:59 GMT 54.720108 -2.960492 18,000 331 275 0
2022-08-15 19:54:57 GMT 54.717453 -2.957907 18,000 331 275 0
2022-08-15 19:54:54 GMT 54.713470 -2.954030 18,000 331 275 0
2022-08-15 19:54:51 GMT 54.711590 -2.952160 18,000 331 275 -64
2022-08-15 19:54:49 GMT 54.709259 -2.949910 18,000 331 275 0
2022-08-15 19:54:47 GMT 54.706833 -2.947567 18,000 331 275 0
2022-08-15 19:54:45 GMT 54.704094 -2.944835 18,000 331 274 0
2022-08-15 19:54:42 GMT 54.700424 -2.941347 18,000 331 274 64
2022-08-15 19:54:39 GMT 54.695435 -2.936512 18,000 331 274 0
2022-08-15 19:54:37 GMT 54.695435 -2.936512 18,000 331 274 0
2022-08-15 19:54:34 GMT 54.693199 -2.934348 18,000 332 275 0
2022-08-15 19:54:32 GMT 54.690548 -2.931768 18,000 331 274 0
2022-08-15 19:54:29 GMT 54.686691 -2.928099 18,000 331 274 0
2022-08-15 19:54:27 GMT 54.684448 -2.925918 18,000 331 274 0
2022-08-15 19:54:24 GMT 54.681107 -2.922767 18,000 331 274 64
2022-08-15 19:54:21 GMT 54.677353 -2.919132 18,000 331 274 0
2022-08-15 19:54:18 GMT 54.675232 -2.917120 18,000 332 275 0
2022-08-15 19:54:16 GMT 54.672455 -2.914447 18,000 332 275 -64
2022-08-15 19:54:14 GMT 54.669342 -2.911458 18,000 332 275 -64
2022-08-15 19:54:11 GMT 54.664032 -2.906368 18,000 332 275 -64
2022-08-15 19:54:08 GMT 54.664032 -2.906368 18,000 332 274 -64
2022-08-15 19:54:06 GMT 54.661377 -2.903783 18,000 332 274 0
2022-08-15 19:54:04 GMT 54.659264 -2.901806 18,000 332 274 0
2022-08-15 19:54:01 GMT 54.655258 -2.897977 18,000 332 274 64
2022-08-15 19:53:58 GMT 54.651955 -2.894814 18,000 332 274 0
2022-08-15 19:53:55 GMT 54.649487 -2.892484 18,000 332 274 0
2022-08-15 19:53:52 GMT 54.645950 -2.889071 18,000 331 273 0
2022-08-15 19:53:49 GMT 54.641647 -2.884881 18,000 331 273 0
2022-08-15 19:53:46 GMT 54.638763 -2.882134 18,000 331 273 0
2022-08-15 19:53:44 GMT 54.637104 -2.880582 18,000 331 273 0
2022-08-15 19:53:42 GMT 54.631145 -2.874839 18,000 331 274 0
2022-08-15 19:53:39 GMT 54.631145 -2.874839 18,000 331 274 0
2022-08-15 19:53:36 GMT 54.628075 -2.871843 18,000 331 274 0
2022-08-15 19:53:34 GMT 54.624767 -2.868680 18,000 331 274 0
2022-08-15 19:53:31 GMT 54.622650 -2.866624 18,000 331 274 0
2022-08-15 19:53:28 GMT 54.619354 -2.863473 18,000 331 274 0
2022-08-15 19:53:25 GMT 54.615040 -2.859275 18,000 331 274 0
2022-08-15 19:53:22 GMT 54.612385 -2.856778 18,000 331 274 0
2022-08-15 19:53:19 GMT 54.608505 -2.853052 18,000 331 274 0
2022-08-15 19:53:16 GMT 54.605774 -2.850370 18,000 331 274 0
2022-08-15 19:53:14 GMT 54.603012 -2.847721 18,000 331 274 0
2022-08-15 19:53:11 GMT 54.599899 -2.844732 18,000 331 274 0
2022-08-15 19:53:08 GMT 54.597702 -2.842632 18,000 331 274 0
2022-08-15 19:53:06 GMT 54.594509 -2.839550 18,000 331 274 0
2022-08-15 19:53:03 GMT 54.589203 -2.834389 18,000 331 274 64
2022-08-15 19:53:01 GMT 54.589203 -2.834389 18,000 331 275 0
2022-08-15 19:52:58 GMT 54.586365 -2.831643 18,000 331 274 0
2022-08-15 19:52:55 GMT 54.582916 -2.828333 18,000 331 274 0
2022-08-15 19:52:53 GMT 54.581287 -2.826732 18,000 331 274 0
2022-08-15 19:52:51 GMT 54.578636 -2.824235 18,000 332 274 0
2022-08-15 19:52:48 GMT 54.574722 -2.820497 18,000 331 274 -64
2022-08-15 19:52:45 GMT 54.572296 -2.818155 18,000 332 274 0
2022-08-15 19:52:42 GMT 54.568085 -2.814116 18,000 332 274 0
2022-08-15 19:52:39 GMT 54.564903 -2.811085 18,000 332 274 0
2022-08-15 19:52:37 GMT 54.563232 -2.809430 18,000 331 274 0
2022-08-15 19:52:35 GMT 54.557236 -2.803695 18,000 331 274 0
2022-08-15 19:52:32 GMT 54.557236 -2.803695 18,000 331 274 0
2022-08-15 19:52:29 GMT 54.553436 -2.800140 18,000 331 275 0
2022-08-15 19:52:27 GMT 54.551697 -2.798444 18,000 331 275 0
2022-08-15 19:52:25 GMT 54.549911 -2.796667 18,000 331 275 0
2022-08-15 19:52:23 GMT 54.546341 -2.793274 18,000 331 275 0
2022-08-15 19:52:20 GMT 54.540573 -2.787781 18,000 331 275 0
2022-08-15 19:52:17 GMT 54.540573 -2.787781 18,000 331 275 0
2022-08-15 19:52:15 GMT 54.535675 -2.783095 18,000 331 275 0
2022-08-15 19:52:13 GMT 54.535675 -2.783095 18,000 331 275 0
2022-08-15 19:52:10 GMT 54.529335 -2.777044 18,000 331 275 0
2022-08-15 19:52:07 GMT 54.529335 -2.777044 18,000 331 275 0
2022-08-15 19:52:05 GMT 54.527206 -2.775017 18,000 331 275 0
2022-08-15 19:52:03 GMT 54.524963 -2.772917 18,000 331 274 0
2022-08-15 19:52:00 GMT 54.521328 -2.769387 18,000 331 274 0
2022-08-15 19:51:57 GMT 54.516209 -2.764476 18,000 331 274 0
2022-08-15 19:51:55 GMT 54.516209 -2.764476 18,000 331 274 0
2022-08-15 19:51:53 GMT 54.513885 -2.762254 18,000 331 274 0
2022-08-15 19:51:50 GMT 54.510544 -2.759103 18,000 331 274 0
2022-08-15 19:51:47 GMT 54.507549 -2.756153 18,000 331 274 0
2022-08-15 19:51:45 GMT 54.505463 -2.754176 18,000 331 274 0
2022-08-15 19:51:43 GMT 54.503128 -2.751909 18,000 331 275 0
2022-08-15 19:51:40 GMT 54.499695 -2.748602 18,000 331 275 0
2022-08-15 19:51:37 GMT 54.496353 -2.745451 18,000 331 275 0
2022-08-15 19:51:35 GMT 54.490932 -2.740173 18,000 331 275 0
2022-08-15 19:51:33 GMT 54.490932 -2.740173 18,000 331 275 0
2022-08-15 19:51:30 GMT 54.487930 -2.737292 18,000 331 275 -64
2022-08-15 19:51:27 GMT 54.485504 -2.734949 18,000 331 275 0
2022-08-15 19:51:25 GMT 54.483261 -2.732768 18,000 331 275 -64
2022-08-15 19:51:23 GMT 54.480503 -2.730103 18,000 331 275 0
2022-08-15 19:51:20 GMT 54.473846 -2.723694 18,000 331 275 0
2022-08-15 19:51:17 GMT 54.473846 -2.723694 18,000 331 275 0
2022-08-15 19:51:15 GMT 54.471657 -2.721530 18,000 331 275 64
2022-08-15 19:51:13 GMT 54.469193 -2.719199 18,000 331 275 0
2022-08-15 19:51:10 GMT 54.462536 -2.712791 18,000 331 276 0
2022-08-15 19:51:07 GMT 54.462536 -2.712791 18,000 331 276 0
2022-08-15 19:51:04 GMT 54.460190 -2.710553 18,000 331 276 -64
2022-08-15 19:51:01 GMT 54.455643 -2.706132 18,000 331 276 0
2022-08-15 19:50:58 GMT 54.452759 -2.703386 18,000 331 276 0
2022-08-15 19:50:55 GMT 54.446640 -2.697467 18,000 331 276 0
2022-08-15 19:50:53 GMT 54.446640 -2.697467 18,000 331 276 0
2022-08-15 19:50:50 GMT 54.443115 -2.694074 18,000 331 275 0
2022-08-15 19:50:47 GMT 54.440872 -2.691974 18,000 331 276 0
2022-08-15 19:50:44 GMT 54.438095 -2.689320 18,000 331 275 0
2022-08-15 19:50:42 GMT 54.435207 -2.686490 18,000 331 275 0
2022-08-15 19:50:39 GMT 54.431671 -2.683078 18,000 331 274 0
2022-08-15 19:50:37 GMT 54.429520 -2.681068 18,000 331 274 0
2022-08-15 19:50:35 GMT 54.427433 -2.679083 18,000 331 275 0
2022-08-15 19:50:33 GMT 54.421555 -2.673394 18,000 331 275 0
2022-08-15 19:50:30 GMT 54.417984 -2.670001 18,000 331 275 0
2022-08-15 19:50:27 GMT 54.417984 -2.670001 18,000 331 275 0
2022-08-15 19:50:25 GMT 54.416199 -2.668304 18,000 331 275 0
2022-08-15 19:50:23 GMT 54.410114 -2.662437 18,000 331 275 0
2022-08-15 19:50:20 GMT 54.410114 -2.662437 18,000 331 275 0
2022-08-15 19:50:17 GMT 54.407185 -2.659690 18,000 331 275 0
2022-08-15 19:50:14 GMT 54.403225 -2.655862 18,000 331 275 0
2022-08-15 19:50:10 GMT 54.399307 -2.652148 18,000 331 274 64
2022-08-15 19:50:08 GMT 54.395325 -2.648351 18,000 331 275 64
2022-08-15 19:50:06 GMT 54.395325 -2.648351 18,000 331 275 0
2022-08-15 19:50:03 GMT 54.391636 -2.644875 18,000 331 275 0
2022-08-15 19:50:00 GMT 54.387772 -2.641162 18,000 331 275 -64
2022-08-15 19:49:57 GMT 54.384979 -2.638467 18,000 331 275 0
2022-08-15 19:49:54 GMT 54.381546 -2.635184 18,000 331 275 0
2022-08-15 19:49:51 GMT 54.378433 -2.632276 18,000 332 275 0
2022-08-15 19:49:48 GMT 54.375320 -2.629287 18,000 332 275 0
2022-08-15 19:49:46 GMT 54.373619 -2.627730 18,000 332 275 0
2022-08-15 19:49:44 GMT 54.370731 -2.624983 18,000 332 275 0
2022-08-15 19:49:42 GMT 54.368866 -2.623147 18,000 332 275 0
2022-08-15 19:49:39 GMT 54.364609 -2.619189 18,000 332 275 0
2022-08-15 19:49:36 GMT 54.362309 -2.616993 18,000 332 275 0
2022-08-15 19:49:34 GMT 54.359188 -2.613997 18,000 332 275 0
2022-08-15 19:49:31 GMT 54.354954 -2.610002 18,000 331 275 0
2022-08-15 19:49:28 GMT 54.352844 -2.607960 18,000 331 275 0
2022-08-15 19:49:26 GMT 54.349503 -2.604810 18,000 331 275 0
2022-08-15 19:49:23 GMT 54.348061 -2.603427 18,000 331 275 0
2022-08-15 19:49:20 GMT 54.344242 -2.599848 18,000 331 275 0
2022-08-15 19:49:17 GMT 54.341034 -2.596813 18,000 331 275 0
2022-08-15 19:49:14 GMT 54.334122 -2.590188 18,000 331 275 0
2022-08-15 19:49:11 GMT 54.334122 -2.590188 18,000 331 275 0
2022-08-15 19:49:08 GMT 54.330463 -2.586698 18,000 331 275 0
2022-08-15 19:49:06 GMT 54.328812 -2.585099 18,000 331 275 0
2022-08-15 19:49:04 GMT 54.326340 -2.582756 18,000 331 275 0
2022-08-15 19:49:02 GMT 54.324226 -2.580788 18,000 331 276 0
2022-08-15 19:48:59 GMT 54.320343 -2.577021 18,000 331 276 0
2022-08-15 19:48:56 GMT 54.316917 -2.573797 18,000 331 276 0
2022-08-15 19:48:53 GMT 54.312916 -2.569968 18,000 331 276 0
2022-08-15 19:48:50 GMT 54.310822 -2.567893 18,000 331 276 0
2022-08-15 19:48:47 GMT 54.307709 -2.564904 18,000 331 276 0
2022-08-15 19:48:45 GMT 54.305237 -2.562561 18,000 331 276 0
2022-08-15 19:48:42 GMT 54.301369 -2.558816 18,000 331 276 0
2022-08-15 19:48:39 GMT 54.297367 -2.554987 18,000 331 276 0
2022-08-15 19:48:36 GMT 54.295597 -2.553323 18,000 331 276 0
2022-08-15 19:48:34 GMT 54.292896 -2.550742 18,000 331 276 0
2022-08-15 19:48:31 GMT 54.286789 -2.544870 18,000 331 276 -64
2022-08-15 19:48:29 GMT 54.286789 -2.544870 18,000 331 276 -64
2022-08-15 19:48:26 GMT 54.283905 -2.542123 18,000 331 276 0
2022-08-15 19:48:23 GMT 54.280888 -2.539257 18,000 331 277 0
2022-08-15 19:48:21 GMT 54.279190 -2.537680 18,000 331 277 -64
2022-08-15 19:48:19 GMT 54.275532 -2.534126 18,000 331 277 0
2022-08-15 19:48:16 GMT 54.273067 -2.531783 18,000 331 277 0
2022-08-15 19:48:13 GMT 54.268597 -2.527583 18,000 331 277 0
2022-08-15 19:48:10 GMT 54.266464 -2.525521 18,000 331 277 0
2022-08-15 19:48:07 GMT 54.262592 -2.521847 18,000 331 277 0
2022-08-15 19:48:05 GMT 54.260777 -2.520151 18,000 331 277 0
2022-08-15 19:48:02 GMT 54.257309 -2.516811 18,000 331 277 0
2022-08-15 19:47:59 GMT 54.254726 -2.514415 18,000 331 277 0
2022-08-15 19:47:56 GMT 54.247009 -2.507080 18,000 331 277 0
2022-08-15 19:47:53 GMT 54.247009 -2.507080 18,000 331 277 0
2022-08-15 19:47:50 GMT 54.243320 -2.503510 18,000 331 277 0
2022-08-15 19:47:46 GMT 54.238953 -2.499390 18,000 331 277 0
2022-08-15 19:47:43 GMT 54.235729 -2.496320 18,000 331 277 0
2022-08-15 19:47:40 GMT 54.229111 -2.490051 18,000 331 277 0
2022-08-15 19:47:37 GMT 54.229111 -2.490051 18,000 332 277 0
2022-08-15 19:47:35 GMT 54.227863 -2.488888 18,000 332 277 0
2022-08-15 19:47:33 GMT 54.224396 -2.485578 18,000 332 277 0
2022-08-15 19:47:30 GMT 54.221466 -2.482832 18,000 332 277 0
2022-08-15 19:47:27 GMT 54.217667 -2.479222 18,000 332 277 0
2022-08-15 19:47:25 GMT 54.214554 -2.476240 18,000 332 277 0
2022-08-15 19:47:22 GMT 54.212177 -2.474024 18,000 332 277 0
2022-08-15 19:47:19 GMT 54.208694 -2.470747 18,000 332 277 0
2022-08-15 19:47:16 GMT 54.204895 -2.467137 18,000 332 277 0
2022-08-15 19:47:13 GMT 54.202072 -2.464492 18,000 332 277 0
2022-08-15 19:47:11 GMT 54.197708 -2.460388 18,000 332 277 0
2022-08-15 19:47:09 GMT 54.197708 -2.460388 18,000 332 277 0
2022-08-15 19:47:06 GMT 54.193222 -2.456151 18,000 332 277 0
2022-08-15 19:47:03 GMT 54.190750 -2.453875 18,000 332 277 0
2022-08-15 19:47:00 GMT 54.187923 -2.451163 18,000 332 277 0
2022-08-15 19:46:57 GMT 54.183872 -2.447366 18,000 332 277 0
2022-08-15 19:46:55 GMT 54.179169 -2.442923 18,000 331 277 0
2022-08-15 19:46:53 GMT 54.179169 -2.442923 18,000 331 277 0
2022-08-15 19:46:50 GMT 54.175819 -2.439773 18,000 331 277 0
2022-08-15 19:46:47 GMT 54.169952 -2.434279 18,000 331 277 0
2022-08-15 19:46:45 GMT 54.169952 -2.434279 18,000 331 277 0
2022-08-15 19:46:42 GMT 54.168274 -2.432687 18,000 331 277 0
2022-08-15 19:46:40 GMT 54.162689 -2.427351 18,000 331 277 0
2022-08-15 19:46:38 GMT 54.162689 -2.427351 18,000 331 277 0
2022-08-15 19:46:35 GMT 54.156963 -2.421920 18,000 331 277 0
2022-08-15 19:46:32 GMT 54.156963 -2.421920 18,000 331 277 0
2022-08-15 19:46:30 GMT 54.154266 -2.419335 18,000 331 277 0
2022-08-15 19:46:27 GMT 54.150833 -2.416051 18,000 331 277 0
2022-08-15 19:46:25 GMT 54.145660 -2.411107 18,000 331 278 0
2022-08-15 19:46:22 GMT 54.145660 -2.411107 18,000 331 278 0
2022-08-15 19:46:19 GMT 54.141449 -2.407026 18,000 331 277 0
2022-08-15 19:46:16 GMT 54.138977 -2.404593 18,000 331 278 0
2022-08-15 19:46:14 GMT 54.135551 -2.401240 18,000 331 278 0
2022-08-15 19:46:11 GMT 54.132980 -2.398708 18,000 330 277 0
2022-08-15 19:46:09 GMT 54.131081 -2.396878 18,000 330 277 0
2022-08-15 19:46:06 GMT 54.127441 -2.393215 18,000 330 278 0
2022-08-15 19:46:04 GMT 54.123871 -2.389683 18,000 330 278 64
2022-08-15 19:46:01 GMT 54.121120 -2.386861 18,000 330 278 0
2022-08-15 19:45:58 GMT 54.117691 -2.383405 18,000 329 278 0
2022-08-15 19:45:55 GMT 54.115265 -2.380894 18,000 329 278 0
2022-08-15 19:45:52 GMT 54.111969 -2.377520 18,000 329 278 0
2022-08-15 19:45:49 GMT 54.108597 -2.374016 18,000 329 278 0
2022-08-15 19:45:46 GMT 54.104736 -2.369986 18,000 329 278 0
2022-08-15 19:45:44 GMT 54.101669 -2.366690 18,000 328 278 0
2022-08-15 19:45:41 GMT 54.099613 -2.364484 18,000 328 278 0
2022-08-15 19:45:39 GMT 54.097889 -2.362626 18,000 328 278 0
2022-08-15 19:45:36 GMT 54.093979 -2.358425 18,000 328 278 0
2022-08-15 19:45:32 GMT 54.089722 -2.353899 18,000 328 278 0
2022-08-15 19:45:30 GMT 54.088116 -2.352124 18,000 328 278 0
2022-08-15 19:45:28 GMT 54.084435 -2.348085 18,000 328 278 0
2022-08-15 19:45:25 GMT 54.082481 -2.345985 18,000 328 278 0
2022-08-15 19:45:22 GMT 54.078690 -2.341893 18,000 328 278 0
2022-08-15 19:45:19 GMT 54.075314 -2.338230 18,000 329 278 0
2022-08-15 19:45:16 GMT 54.072239 -2.334999 18,000 329 278 0
2022-08-15 19:45:14 GMT 54.069588 -2.332252 18,000 329 279 0
2022-08-15 19:45:11 GMT 54.067631 -2.330233 18,000 330 278 0
2022-08-15 19:45:09 GMT 54.065277 -2.327846 18,000 331 279 -64
2022-08-15 19:45:06 GMT 54.061478 -2.324158 18,000 332 279 0
2022-08-15 19:45:04 GMT 54.059113 -2.321912 18,000 333 279 0
2022-08-15 19:45:01 GMT 54.055801 -2.318978 18,000 335 279 64
2022-08-15 19:44:58 GMT 54.052456 -2.316176 18,000 337 280 0
2022-08-15 19:44:55 GMT 54.049149 -2.313591 18,000 338 279 0
2022-08-15 19:44:53 GMT 54.045914 -2.311366 18,000 339 280 64
2022-08-15 19:44:50 GMT 54.042068 -2.308777 18,000 339 280 64
2022-08-15 19:44:47 GMT 54.039280 -2.306887 18,000 339 280 0
2022-08-15 19:44:44 GMT 54.034950 -2.303978 18,000 339 280 0
2022-08-15 19:44:41 GMT 54.030903 -2.301151 18,000 339 280 0
2022-08-15 19:44:38 GMT 54.027374 -2.298811 18,000 338 280 0
2022-08-15 19:44:35 GMT 54.025726 -2.297634 18,000 338 280 0
2022-08-15 19:44:33 GMT 54.022339 -2.295279 18,000 338 280 0
2022-08-15 19:44:30 GMT 54.018265 -2.292454 18,000 338 281 0
2022-08-15 19:44:27 GMT 54.013119 -2.288872 18,000 338 281 0
2022-08-15 19:44:25 GMT 54.009384 -2.286255 18,000 338 281 0
2022-08-15 19:44:22 GMT 54.009384 -2.286255 18,000 338 281 0
2022-08-15 19:44:19 GMT 54.005035 -2.283273 18,000 338 280 0
2022-08-15 19:44:17 GMT 54.002655 -2.281625 18,000 339 280 -64
2022-08-15 19:44:15 GMT 54.000732 -2.280291 18,000 339 280 0
2022-08-15 19:44:13 GMT 53.997574 -2.278172 18,000 339 281 0
2022-08-15 19:44:10 GMT 53.995056 -2.276432 18,000 339 281 0
2022-08-15 19:44:08 GMT 53.992401 -2.274655 18,000 339 281 -64
2022-08-15 19:44:05 GMT 53.987560 -2.271343 18,000 339 281 0
2022-08-15 19:44:02 GMT 53.979767 -2.266009 18,000 338 281 0
2022-08-15 19:43:58 GMT 53.979767 -2.266009 18,000 338 281 0
2022-08-15 19:43:55 GMT 53.977459 -2.264476 18,000 339 281 0
2022-08-15 19:43:53 GMT 53.973827 -2.262053 18,000 339 281 0
2022-08-15 19:43:50 GMT 53.970711 -2.259872 18,000 339 281 0
2022-08-15 19:43:47 GMT 53.966614 -2.257044 18,000 339 281 0
2022-08-15 19:43:44 GMT 53.962982 -2.254621 18,000 338 281 0
2022-08-15 19:43:41 GMT 53.959583 -2.252278 18,000 339 281 0
2022-08-15 19:43:38 GMT 53.953217 -2.247881 18,000 338 282 0
2022-08-15 19:43:35 GMT 53.953217 -2.247881 18,000 338 281 0
2022-08-15 19:43:33 GMT 53.949715 -2.245492 18,000 338 281 64
2022-08-15 19:43:30 GMT 53.947174 -2.243801 18,000 338 281 64
2022-08-15 19:43:28 GMT 53.943893 -2.241534 18,000 338 281 0
2022-08-15 19:43:25 GMT 53.939713 -2.238621 18,000 338 281 0
2022-08-15 19:43:22 GMT 53.936214 -2.236202 18,000 338 281 0
2022-08-15 19:43:19 GMT 53.933514 -2.234425 18,000 338 281 0
2022-08-15 19:43:17 GMT 53.930630 -2.232406 18,000 338 281 0
2022-08-15 19:43:14 GMT 53.927277 -2.230063 18,000 338 281 64
2022-08-15 19:43:11 GMT 53.922821 -2.227007 18,000 338 282 -64
2022-08-15 19:43:08 GMT 53.919315 -2.224570 18,000 338 282 0
2022-08-15 19:43:05 GMT 53.917007 -2.223005 18,000 338 282 -64
2022-08-15 19:43:03 GMT 53.914009 -2.220935 18,000 338 282 0
2022-08-15 19:43:00 GMT 53.909634 -2.217865 18,000 338 282 0
2022-08-15 19:42:57 GMT 53.902927 -2.213180 18,000 338 282 0
2022-08-15 19:42:54 GMT 53.902927 -2.213180 18,000 338 282 0
2022-08-15 19:42:51 GMT 53.895309 -2.207938 18,000 338 282 -64
2022-08-15 19:42:48 GMT 53.895309 -2.207938 18,000 338 282 0
2022-08-15 19:42:45 GMT 53.891106 -2.204940 18,000 338 282 0
2022-08-15 19:42:42 GMT 53.885284 -2.200982 18,000 338 282 -64
2022-08-15 19:42:39 GMT 53.885284 -2.200982 18,000 338 282 -64
2022-08-15 19:42:37 GMT 53.882912 -2.199285 18,000 338 282 -64
2022-08-15 19:42:34 GMT 53.878304 -2.196135 18,025 338 282 -64
2022-08-15 19:42:31 GMT 53.875416 -2.194115 18,000 338 281 0
2022-08-15 19:42:28 GMT 53.871086 -2.191126 18,000 338 281 0
2022-08-15 19:42:25 GMT 53.865372 -2.187221 18,000 338 282 0
2022-08-15 19:42:23 GMT 53.865372 -2.187221 18,000 338 282 0
2022-08-15 19:42:20 GMT 53.862381 -2.185148 18,000 338 282 0
2022-08-15 19:42:17 GMT 53.859497 -2.183129 18,000 338 281 0
2022-08-15 19:42:15 GMT 53.856098 -2.180786 18,000 338 281 0
2022-08-15 19:42:13 GMT 53.852745 -2.178443 18,000 338 282 0
2022-08-15 19:42:10 GMT 53.848755 -2.175685 18,000 338 281 64
2022-08-15 19:42:07 GMT 53.844406 -2.172703 18,000 338 282 0
2022-08-15 19:42:05 GMT 53.844406 -2.172703 18,000 338 282 64
2022-08-15 19:42:03 GMT 53.841522 -2.170741 18,000 338 282 0
2022-08-15 19:42:00 GMT 53.838501 -2.168588 18,000 338 282 -64
2022-08-15 19:41:57 GMT 53.834171 -2.165599 18,000 338 282 -64
2022-08-15 19:41:55 GMT 53.831753 -2.163903 18,000 338 282 0
2022-08-15 19:41:52 GMT 53.827656 -2.161075 18,000 338 282 0
2022-08-15 19:41:49 GMT 53.824490 -2.158894 18,000 338 282 0
2022-08-15 19:41:47 GMT 53.821976 -2.157166 18,000 338 282 0
2022-08-15 19:41:45 GMT 53.820053 -2.155753 18,000 338 281 0
2022-08-15 19:41:43 GMT 53.816807 -2.153482 18,000 338 281 -64
2022-08-15 19:41:40 GMT 53.813782 -2.151358 18,000 338 281 0
2022-08-15 19:41:37 GMT 53.810059 -2.148716 18,000 338 281 64
2022-08-15 19:41:35 GMT 53.807556 -2.146964 18,000 338 281 0
2022-08-15 19:41:33 GMT 53.804565 -2.144838 18,000 338 281 0
2022-08-15 19:41:30 GMT 53.801678 -2.142819 18,000 338 281 0
2022-08-15 19:41:27 GMT 53.794697 -2.137891 18,000 338 281 0
2022-08-15 19:41:25 GMT 53.794697 -2.137891 18,000 338 281 0
2022-08-15 19:41:22 GMT 53.792786 -2.136518 18,000 339 280 0
2022-08-15 19:41:19 GMT 53.788559 -2.133545 18,000 338 281 -64
2022-08-15 19:41:16 GMT 53.785217 -2.131191 18,000 338 281 -64
2022-08-15 19:41:14 GMT 53.782310 -2.129247 18,000 338 281 0
2022-08-15 19:41:10 GMT 53.777657 -2.125935 18,000 339 281 64
2022-08-15 19:41:07 GMT 53.773911 -2.123422 18,000 339 281 0
2022-08-15 19:41:05 GMT 53.768829 -2.120047 18,000 339 281 0
2022-08-15 19:41:03 GMT 53.765213 -2.117615 18,000 339 281 0
2022-08-15 19:41:00 GMT 53.765213 -2.117615 18,000 340 281 0
2022-08-15 19:40:57 GMT 53.759037 -2.113656 18,000 341 280 0
2022-08-15 19:40:55 GMT 53.759037 -2.113656 18,000 341 281 0
2022-08-15 19:40:52 GMT 53.755871 -2.111718 18,000 348 274 0
2022-08-15 19:40:49 GMT 53.748871 -2.107727 18,000 342 281 0
2022-08-15 19:40:46 GMT 53.748871 -2.107727 18,000 343 280 0
2022-08-15 19:40:44 GMT 53.741684 -2.104039 18,000 345 280 0
2022-08-15 19:40:41 GMT 53.741684 -2.104039 18,000 346 280 0
2022-08-15 19:40:38 GMT 53.739063 -2.102832 18,000 346 280 0
2022-08-15 19:40:36 GMT 53.735760 -2.101458 18,000 347 280 0
2022-08-15 19:40:33 GMT 53.728546 -2.098703 18,000 348 281 0
2022-08-15 19:40:30 GMT 53.728546 -2.098703 18,000 349 281 0
2022-08-15 19:40:27 GMT 53.723740 -2.096976 18,000 349 280 0
2022-08-15 19:40:24 GMT 53.720585 -2.095884 18,000 349 279 0
2022-08-15 19:40:21 GMT 53.716919 -2.094622 18,000 349 279 0
2022-08-15 19:40:18 GMT 53.710556 -2.092346 18,000 349 279 -64
2022-08-15 19:40:16 GMT 53.710556 -2.092346 18,000 349 279 0
2022-08-15 19:40:13 GMT 53.706665 -2.090957 18,000 349 279 64
2022-08-15 19:40:10 GMT 53.703003 -2.089678 18,000 349 279 0
2022-08-15 19:40:07 GMT 53.696053 -2.087241 18,000 349 278 0
2022-08-15 19:40:04 GMT 53.696053 -2.087241 18,000 349 279 0
2022-08-15 19:40:02 GMT 53.688583 -2.084577 18,000 349 279 0
2022-08-15 19:39:59 GMT 53.686569 -2.083871 18,000 349 278 0
2022-08-15 19:39:56 GMT 53.686569 -2.083871 18,000 349 278 0
2022-08-15 19:39:54 GMT 53.680252 -2.081674 18,000 349 278 0
2022-08-15 19:39:52 GMT 53.675995 -2.080104 18,000 349 278 0
2022-08-15 19:39:49 GMT 53.675995 -2.080104 18,000 349 277 64
2022-08-15 19:39:46 GMT 53.673615 -2.079324 18,000 349 277 64
2022-08-15 19:39:44 GMT 53.670456 -2.078221 18,000 349 277 64
2022-08-15 19:39:42 GMT 53.668587 -2.077547 18,000 349 277 -64
2022-08-15 19:39:40 GMT 53.665791 -2.076578 18,000 349 277 -64
2022-08-15 19:39:38 GMT 53.661163 -2.074925 18,000 349 277 -64
2022-08-15 19:39:36 GMT 53.661163 -2.074925 18,000 349 277 -64
2022-08-15 19:39:34 GMT 53.657913 -2.073748 18,000 349 276 0
2022-08-15 19:39:31 GMT 53.654247 -2.072458 18,000 348 274 -64
2022-08-15 19:39:28 GMT 53.646008 -2.069550 18,000 349 276 64
2022-08-15 19:39:25 GMT 53.646008 -2.069550 18,000 349 275 64
2022-08-15 19:39:22 GMT 53.641769 -2.068015 18,000 349 275 64
2022-08-15 19:39:19 GMT 53.639420 -2.067156 18,000 349 275 0
2022-08-15 19:39:16 GMT 53.636276 -2.066076 18,000 349 275 -64
2022-08-15 19:39:14 GMT 53.633148 -2.064959 18,000 349 274 -64
2022-08-15 19:39:12 GMT 53.630676 -2.064017 18,000 349 274 -64
2022-08-15 19:39:09 GMT 53.626083 -2.062441 18,000 348 273 64
2022-08-15 19:39:06 GMT 53.620743 -2.060486 18,000 348 274 64
2022-08-15 19:39:04 GMT 53.620743 -2.060486 18,000 348 274 0
2022-08-15 19:39:02 GMT 53.617264 -2.059230 18,000 348 274 0
2022-08-15 19:38:59 GMT 53.610722 -2.056867 18,000 348 273 -64
2022-08-15 19:38:56 GMT 53.610722 -2.056867 18,000 348 273 -64
2022-08-15 19:38:53 GMT 53.607044 -2.055494 18,000 348 272 0
2022-08-15 19:38:50 GMT 53.603485 -2.054208 18,000 348 272 0
2022-08-15 19:38:48 GMT 53.599922 -2.052909 18,000 348 271 64
2022-08-15 19:38:45 GMT 53.596478 -2.051697 18,000 348 271 0
2022-08-15 19:38:42 GMT 53.592911 -2.050363 18,000 348 271 0
2022-08-15 19:38:39 GMT 53.589706 -2.049264 18,000 348 270 -64
2022-08-15 19:38:36 GMT 53.583389 -2.046910 18,000 348 270 -64
2022-08-15 19:38:34 GMT 53.583389 -2.046910 18,000 348 269 -64
2022-08-15 19:38:32 GMT 53.577301 -2.044634 18,000 348 269 0
2022-08-15 19:38:29 GMT 53.577301 -2.044634 18,000 348 269 0
2022-08-15 19:38:26 GMT 53.574646 -2.043692 18,000 348 268 0
2022-08-15 19:38:24 GMT 53.570251 -2.042045 18,000 348 268 0
2022-08-15 19:38:21 GMT 53.566776 -2.040791 18,000 348 267 64
2022-08-15 19:38:18 GMT 53.565102 -2.040145 18,000 348 267 64
2022-08-15 19:38:16 GMT 53.558815 -2.037802 18,000 348 267 64
2022-08-15 19:38:14 GMT 53.558815 -2.037802 18,000 348 267 0
2022-08-15 19:38:11 GMT 53.555099 -2.036473 18,000 348 266 -64
2022-08-15 19:38:08 GMT 53.552673 -2.035610 18,000 348 266 -64
2022-08-15 19:38:06 GMT 53.549458 -2.034409 18,000 348 265 0
2022-08-15 19:38:03 GMT 53.545990 -2.033098 18,000 348 263 -128
2022-08-15 19:38:00 GMT 53.542290 -2.031744 18,000 348 263 -64
2022-08-15 19:37:57 GMT 53.534935 -2.028997 18,025 348 261 64
2022-08-15 19:37:54 GMT 53.534935 -2.028997 18,025 348 261 64
2022-08-15 19:37:51 GMT 53.531162 -2.027624 18,025 348 260 0
2022-08-15 19:37:48 GMT 53.528961 -2.026821 18,025 348 260 0
2022-08-15 19:37:46 GMT 53.522415 -2.024388 18,025 348 259 64
2022-08-15 19:37:44 GMT 53.522415 -2.024388 18,000 348 258 0
2022-08-15 19:37:41 GMT 53.520081 -2.023525 18,000 348 257 0
2022-08-15 19:37:38 GMT 53.517059 -2.022348 18,000 348 256 64
2022-08-15 19:37:36 GMT 53.514725 -2.021563 18,000 348 256 0
2022-08-15 19:37:34 GMT 53.511845 -2.020434 18,000 348 255 0
2022-08-15 19:37:32 GMT 53.509052 -2.019465 18,000 348 255 64
2022-08-15 19:37:29 GMT 53.506256 -2.018415 18,000 348 254 64
2022-08-15 19:37:26 GMT 53.503510 -2.017445 18,000 348 254 0
2022-08-15 19:37:24 GMT 53.499985 -2.016070 18,000 348 252 -64
2022-08-15 19:37:21 GMT 53.497833 -2.015264 18,000 348 251 -64
2022-08-15 19:37:19 GMT 53.490570 -2.012598 18,000 348 250 0
2022-08-15 19:37:16 GMT 53.490570 -2.012598 18,000 348 249 0
2022-08-15 19:37:13 GMT 53.488987 -2.012033 18,000 348 248 64
2022-08-15 19:37:11 GMT 53.486053 -2.010983 18,000 348 247 64
2022-08-15 19:37:08 GMT 53.479935 -2.008772 18,000 348 242 0
2022-08-15 19:37:06 GMT 53.479935 -2.008772 18,000 348 245 0
2022-08-15 19:37:03 GMT 53.476593 -2.007516 18,000 348 243 0
2022-08-15 19:37:00 GMT 53.473392 -2.006378 18,000 348 242 0
2022-08-15 19:36:58 GMT 53.471512 -2.005711 18,000 348 242 0
2022-08-15 19:36:56 GMT 53.466934 -2.004063 18,000 349 241 192
2022-08-15 19:36:53 GMT 53.466934 -2.004063 18,000 348 240 320
2022-08-15 19:36:51 GMT 53.463043 -2.002651 17,975 348 239 512
2022-08-15 19:36:48 GMT 53.460079 -2.001612 17,950 348 239 576
2022-08-15 19:36:45 GMT 53.454491 -1.999593 17,900 348 239 640
2022-08-15 19:36:42 GMT 53.454491 -1.999593 17,825 348 239 576
2022-08-15 19:36:39 GMT 53.450813 -1.998300 17,850 348 239 576
2022-08-15 19:36:36 GMT 53.446564 -1.996844 17,825 348 239 576
2022-08-15 19:36:33 GMT 53.441803 -1.995117 17,825 348 239 576
2022-08-15 19:36:31 GMT 53.441803 -1.995117 17,775 349 241 448
2022-08-15 19:36:28 GMT 53.439316 -1.994261 17,775 348 240 640
2022-08-15 19:36:26 GMT 53.437176 -1.993453 17,750 348 240 640
2022-08-15 19:36:24 GMT 53.434204 -1.992371 17,725 348 240 640
2022-08-15 19:36:21 GMT 53.431076 -1.991272 17,675 348 240 640
2022-08-15 19:36:19 GMT 53.425964 -1.989467 17,650 348 240 640
2022-08-15 19:36:16 GMT 53.425964 -1.989467 17,625 349 241 640
2022-08-15 19:36:13 GMT 53.421844 -1.987976 17,600 349 241 640
2022-08-15 19:36:10 GMT 53.417038 -1.986328 17,575 349 241 704
2022-08-15 19:36:08 GMT 53.417038 -1.986328 17,550 349 241 704
2022-08-15 19:36:06 GMT 53.415199 -1.985617 17,525 349 241 704
2022-08-15 19:36:03 GMT 53.408871 -1.983436 17,475 349 242 640
2022-08-15 19:36:00 GMT 53.408871 -1.983436 17,475 349 242 576
2022-08-15 19:35:58 GMT 53.406326 -1.982483 17,450 349 242 576
2022-08-15 19:35:56 GMT 53.403488 -1.981541 17,425 349 242 640
2022-08-15 19:35:53 GMT 53.398117 -1.979639 17,375 349 242 576
2022-08-15 19:35:50 GMT 53.394394 -1.978266 16,275 348 240 448
2022-08-15 19:35:48 GMT 53.394394 -1.978266 17,350 349 242 448
2022-08-15 19:35:45 GMT 53.392090 -1.977461 17,325 349 242 448
2022-08-15 19:35:42 GMT 53.388840 -1.976362 17,300 349 241 448
2022-08-15 19:35:39 GMT 53.384903 -1.974949 17,300 349 241 448
2022-08-15 19:35:36 GMT 53.378052 -1.972531 17,250 348 240 448
2022-08-15 19:35:33 GMT 53.378052 -1.972531 17,225 349 239 448
2022-08-15 19:35:30 GMT 53.374695 -1.971340 17,200 349 240 448
2022-08-15 19:35:27 GMT 53.373138 -1.970790 17,200 349 240 448
2022-08-15 19:35:25 GMT 53.370575 -1.969927 17,175 349 239 576
2022-08-15 19:35:22 GMT 53.366367 -1.968411 17,125 349 239 704
2022-08-15 19:35:19 GMT 53.364597 -1.967845 17,100 349 239 704
2022-08-15 19:35:17 GMT 53.362038 -1.966876 17,050 349 239 640
2022-08-15 19:35:15 GMT 53.358360 -1.965583 17,075 349 239 576
2022-08-15 19:35:12 GMT 53.355568 -1.964614 17,025 349 239 512
2022-08-15 19:35:09 GMT 53.352730 -1.963645 17,025 349 239 512
2022-08-15 19:35:06 GMT 53.349380 -1.962472 17,000 349 239 960
2022-08-15 19:35:03 GMT 53.346176 -1.961373 16,950 349 239 960
2022-08-15 19:35:00 GMT 53.342697 -1.960118 16,900 349 239 960
2022-08-15 19:34:57 GMT 53.340439 -1.959363 16,900 349 239 960
2022-08-15 19:34:55 GMT 53.337414 -1.958313 16,850 348 240 640
2022-08-15 19:34:52 GMT 53.334457 -1.957214 16,800 348 240 576
2022-08-15 19:34:49 GMT 53.331314 -1.956132 16,800 348 240 576
2022-08-15 19:34:47 GMT 53.327450 -1.954759 16,750 348 239 384
2022-08-15 19:34:45 GMT 53.327450 -1.954759 16,750 348 239 384
2022-08-15 19:34:42 GMT 53.323307 -1.953305 16,725 348 238 448
2022-08-15 19:34:39 GMT 53.320747 -1.952335 16,700 348 238 448
2022-08-15 19:34:37 GMT 53.318710 -1.951643 16,700 348 237 384
2022-08-15 19:34:35 GMT 53.316559 -1.950858 16,700 348 237 512
2022-08-15 19:34:33 GMT 53.314178 -1.949995 16,675 348 237 576
2022-08-15 19:34:31 GMT 53.312485 -1.949367 16,650 348 237 640
2022-08-15 19:34:28 GMT 53.306488 -1.947248 16,600 348 237 640
2022-08-15 19:34:26 GMT 53.306488 -1.947248 16,600 348 237 576
2022-08-15 19:34:23 GMT 53.303150 -1.946034 16,575 348 236 192
2022-08-15 19:34:20 GMT 53.299438 -1.944659 16,550 348 235 128
2022-08-15 19:34:17 GMT 53.297611 -1.944015 16,550 348 235 320
2022-08-15 19:34:15 GMT 53.295517 -1.943207 16,550 348 234 512
2022-08-15 19:34:13 GMT 53.292770 -1.942237 16,525 348 235 896
2022-08-15 19:34:11 GMT 53.290627 -1.941430 16,475 348 235 640
2022-08-15 19:34:08 GMT 53.285614 -1.939636 16,450 348 235 192
2022-08-15 19:34:06 GMT 53.285614 -1.939636 16,450 348 235 64
2022-08-15 19:34:04 GMT 53.283600 -1.938845 16,450 348 234 -64
2022-08-15 19:34:01 GMT 53.279175 -1.937310 16,425 348 231 704
2022-08-15 19:33:58 GMT 53.277500 -1.936663 16,425 348 231 704
2022-08-15 19:33:56 GMT 53.274902 -1.935713 16,400 348 232 1088
2022-08-15 19:33:54 GMT 53.273026 -1.935006 16,375 348 232 1216
2022-08-15 19:33:51 GMT 53.268703 -1.933432 16,300 348 233 448
2022-08-15 19:33:48 GMT 53.266479 -1.932652 16,275 348 233 128
2022-08-15 19:33:45 GMT 53.263321 -1.931475 16,275 348 231 256
2022-08-15 19:33:42 GMT 53.257576 -1.929393 16,250 348 231 320
2022-08-15 19:33:40 GMT 53.257576 -1.929393 16,225 348 230 640
2022-08-15 19:33:37 GMT 53.254990 -1.928414 16,175 348 230 896
2022-08-15 19:33:34 GMT 53.251053 -1.927002 16,175 348 230 960
2022-08-15 19:33:31 GMT 53.248352 -1.926060 16,125 349 231 768
2022-08-15 19:33:28 GMT 53.245193 -1.924962 16,075 348 230 576
2022-08-15 19:33:25 GMT 53.242493 -1.923941 16,075 348 230 576
2022-08-15 19:33:22 GMT 53.239887 -1.923092 16,050 348 230 512
2022-08-15 19:33:20 GMT 53.237732 -1.922294 16,000 348 229 384
2022-08-15 19:33:17 GMT 53.234207 -1.921038 16,000 348 229 384
2022-08-15 19:33:15 GMT 53.231598 -1.920103 16,000 348 228 512
2022-08-15 19:33:12 GMT 53.229549 -1.919376 15,950 349 227 704
2022-08-15 19:33:10 GMT 53.227386 -1.918605 15,950 348 227 896
2022-08-15 19:33:07 GMT 53.223778 -1.917357 15,900 349 227 1088
2022-08-15 19:33:04 GMT 53.220795 -1.916251 15,850 348 229 960
2022-08-15 19:33:01 GMT 53.214283 -1.913964 15,800 348 229 576
2022-08-15 19:32:58 GMT 53.214283 -1.913964 15,750 349 228 256
2022-08-15 19:32:55 GMT 53.211090 -1.912798 15,750 349 226 448
2022-08-15 19:32:52 GMT 53.208511 -1.911944 15,700 349 226 960
2022-08-15 19:32:50 GMT 53.205856 -1.910975 15,700 349 226 960
2022-08-15 19:32:47 GMT 53.203674 -1.910209 15,675 348 227 896
2022-08-15 19:32:45 GMT 53.200920 -1.909198 15,625 348 227 768
2022-08-15 19:32:42 GMT 53.198456 -1.908309 15,575 349 226 512
2022-08-15 19:32:40 GMT 53.195480 -1.907305 15,575 349 226 512
2022-08-15 19:32:37 GMT 53.192917 -1.906370 15,575 349 226 576
2022-08-15 19:32:35 GMT 53.188213 -1.904674 15,525 348 225 512
2022-08-15 19:32:32 GMT 53.188213 -1.904674 15,525 349 226 640
2022-08-15 19:32:29 GMT 53.184956 -1.903543 15,475 348 225 512
2022-08-15 19:32:26 GMT 53.179321 -1.901576 15,450 348 225 768
2022-08-15 19:32:24 GMT 53.179321 -1.901576 15,425 348 225 896
2022-08-15 19:32:21 GMT 53.176895 -1.900713 15,400 348 225 896
2022-08-15 19:32:18 GMT 53.173187 -1.899379 15,350 348 225 640
2022-08-15 19:32:15 GMT 53.166565 -1.897000 15,325 348 225 384
2022-08-15 19:32:12 GMT 53.166565 -1.897000 15,250 348 224 576
2022-08-15 19:32:09 GMT 53.164516 -1.896273 14,925 348 223 576
2022-08-15 19:32:06 GMT 53.159363 -1.894514 15,200 348 223 576
2022-08-15 19:32:04 GMT 53.159363 -1.894514 15,175 348 223 640
2022-08-15 19:32:01 GMT 53.152786 -1.892153 15,175 348 224 576
2022-08-15 19:31:58 GMT 53.149612 -1.891061 15,125 348 223 576
2022-08-15 19:31:55 GMT 53.146820 -1.890041 15,125 349 222 640
2022-08-15 19:31:52 GMT 53.144268 -1.889164 15,075 349 222 960
2022-08-15 19:31:49 GMT 53.144268 -1.889164 15,025 348 223 1280
2022-08-15 19:31:46 GMT 53.141144 -1.888000 15,000 348 223 1216
2022-08-15 19:31:44 GMT 53.138123 -1.886980 14,900 348 224 832
2022-08-15 19:31:41 GMT 53.135376 -1.886013 14,875 348 224 768
2022-08-15 19:31:38 GMT 53.133224 -1.885254 14,825 348 224 576
2022-08-15 19:31:35 GMT 53.130302 -1.884155 14,825 348 224 640
2022-08-15 19:31:33 GMT 53.125134 -1.882378 14,825 348 224 704
2022-08-15 19:31:31 GMT 53.125134 -1.882378 14,775 348 223 640
2022-08-15 19:31:28 GMT 53.119923 -1.880520 14,750 348 223 704
2022-08-15 19:31:25 GMT 53.119923 -1.880520 14,700 348 223 384
2022-08-15 19:31:22 GMT 53.116608 -1.879368 14,700 348 223 384
2022-08-15 19:31:19 GMT 53.113174 -1.878113 14,625 348 222 704
2022-08-15 19:31:16 GMT 53.110977 -1.877328 14,650 349 221 640
2022-08-15 19:31:14 GMT 53.107956 -1.876229 14,525 349 221 960
2022-08-15 19:31:11 GMT 53.105347 -1.875366 14,575 349 221 896
2022-08-15 19:31:08 GMT 53.103149 -1.874581 14,550 349 221 960
2022-08-15 19:31:05 GMT 53.100174 -1.873483 14,500 349 222 1024
2022-08-15 19:31:03 GMT 53.098160 -1.872777 14,475 349 221 1024
2022-08-15 19:31:01 GMT 53.095432 -1.871876 14,400 349 222 384
2022-08-15 19:30:58 GMT 53.092037 -1.870658 14,350 348 219 960
2022-08-15 19:30:55 GMT 53.089802 -1.869873 14,250 349 222 704
2022-08-15 19:30:53 GMT 53.085148 -1.868225 14,300 349 222 704
2022-08-15 19:30:51 GMT 53.085148 -1.868225 14,275 349 219 1024
2022-08-15 19:30:48 GMT 53.079620 -1.866302 14,250 348 220 576
2022-08-15 19:30:45 GMT 53.079620 -1.866302 14,125 348 220 1088
2022-08-15 19:30:42 GMT 53.076874 -1.865311 14,200 348 219 832
2022-08-15 19:30:39 GMT 53.073257 -1.864090 14,150 349 220 1152
2022-08-15 19:30:36 GMT 53.070576 -1.863124 14,125 348 220 1088
2022-08-15 19:30:34 GMT 53.066071 -1.861572 14,075 348 220 704
2022-08-15 19:30:31 GMT 53.066071 -1.861572 14,050 348 220 640
2022-08-15 19:30:29 GMT 53.062500 -1.860275 14,025 348 219 448
2022-08-15 19:30:26 GMT 53.060898 -1.859741 14,025 348 219 448
2022-08-15 19:30:24 GMT 53.058426 -1.858808 13,975 348 217 896
2022-08-15 19:30:21 GMT 53.056049 -1.858024 13,950 348 217 896
2022-08-15 19:30:19 GMT 53.053619 -1.857147 13,875 348 217 768
2022-08-15 19:30:16 GMT 53.050976 -1.856140 13,875 348 218 768
2022-08-15 19:30:14 GMT 53.046341 -1.854477 13,850 348 217 704
2022-08-15 19:30:11 GMT 53.046341 -1.854477 13,825 348 217 640
2022-08-15 19:30:09 GMT 53.044373 -1.853790 13,800 348 215 512
2022-08-15 19:30:06 GMT 53.040970 -1.852530 13,775 348 215 576
2022-08-15 19:30:04 GMT 53.039013 -1.851824 13,750 348 214 704
2022-08-15 19:30:01 GMT 53.036453 -1.850882 13,725 348 214 704
2022-08-15 19:29:59 GMT 53.034027 -1.850052 13,700 348 214 704
2022-08-15 19:29:56 GMT 53.031239 -1.848999 13,675 348 214 960
2022-08-15 19:29:54 GMT 53.028900 -1.848221 13,625 349 214 1024
2022-08-15 19:29:51 GMT 53.026398 -1.847351 13,350 349 214 1152
2022-08-15 19:29:48 GMT 53.023464 -1.846331 13,550 349 215 1152
2022-08-15 19:29:45 GMT 53.020660 -1.845322 13,500 349 215 1152
2022-08-15 19:29:43 GMT 53.018993 -1.844761 13,425 349 216 1216
2022-08-15 19:29:41 GMT 53.013130 -1.842721 13,325 349 217 1152
2022-08-15 19:29:38 GMT 53.011047 -1.842041 13,300 349 218 960
2022-08-15 19:29:35 GMT 53.011047 -1.842041 13,275 349 218 896
2022-08-15 19:29:32 GMT 53.007477 -1.840744 13,150 349 218 704
2022-08-15 19:29:29 GMT 53.004913 -1.839905 13,200 349 217 896
2022-08-15 19:29:26 GMT 53.001446 -1.838719 13,150 349 217 960
2022-08-15 19:29:23 GMT 52.999191 -1.837921 13,125 349 217 960
2022-08-15 19:29:21 GMT 52.996811 -1.837082 13,100 349 218 960
2022-08-15 19:29:18 GMT 52.993763 -1.836051 13,025 349 218 1024
2022-08-15 19:29:15 GMT 52.988342 -1.834183 12,925 349 217 640
2022-08-15 19:29:12 GMT 52.984589 -1.832886 12,925 349 217 640
2022-08-15 19:29:09 GMT 52.984589 -1.832886 12,900 349 217 576
2022-08-15 19:29:06 GMT 52.981842 -1.831894 12,875 349 216 640
2022-08-15 19:29:03 GMT 52.979507 -1.831055 12,775 349 217 832
2022-08-15 19:29:01 GMT 52.977051 -1.830165 12,825 349 216 1152
2022-08-15 19:28:58 GMT 52.974678 -1.829381 12,725 349 217 1216
2022-08-15 19:28:55 GMT 52.969070 -1.827393 12,675 349 217 1152
2022-08-15 19:28:53 GMT 52.969070 -1.827393 12,650 349 217 832
2022-08-15 19:28:50 GMT 52.964344 -1.825771 12,600 349 217 576
2022-08-15 19:28:47 GMT 52.963394 -1.825409 12,600 349 216 576
2022-08-15 19:28:44 GMT 52.960945 -1.824515 12,550 348 215 1024
2022-08-15 19:28:41 GMT 52.954376 -1.822205 12,475 349 216 1280
2022-08-15 19:28:38 GMT 52.954376 -1.822205 12,025 349 210 448
2022-08-15 19:28:35 GMT 52.951447 -1.821213 12,400 348 216 640
2022-08-15 19:28:32 GMT 52.949402 -1.820435 12,375 348 216 576
2022-08-15 19:28:30 GMT 52.946365 -1.819382 12,325 348 214 448
2022-08-15 19:28:27 GMT 52.943665 -1.818390 12,300 348 213 768
2022-08-15 19:28:24 GMT 52.940186 -1.817169 12,275 349 212 960
2022-08-15 19:28:21 GMT 52.937763 -1.816354 12,225 349 212 960
2022-08-15 19:28:18 GMT 52.935745 -1.815643 12,175 348 211 832
2022-08-15 19:28:15 GMT 52.932594 -1.814471 12,125 349 212 960
2022-08-15 19:28:12 GMT 52.929611 -1.813431 12,100 349 212 1088
2022-08-15 19:28:10 GMT 52.927612 -1.812744 12,050 349 212 832
2022-08-15 19:28:07 GMT 52.922028 -1.810782 12,000 349 212 704
2022-08-15 19:28:04 GMT 52.922028 -1.810782 11,950 349 209 512
2022-08-15 19:28:01 GMT 52.918583 -1.809527 11,950 349 209 448
2022-08-15 19:27:58 GMT 52.915928 -1.808585 11,875 349 207 768
2022-08-15 19:27:55 GMT 52.912445 -1.807404 11,900 349 207 704
2022-08-15 19:27:52 GMT 52.907959 -1.805878 11,775 349 206 960
2022-08-15 19:27:49 GMT 52.907959 -1.805878 11,825 349 206 960
2022-08-15 19:27:46 GMT 52.904663 -1.804740 11,750 349 206 960
2022-08-15 19:27:43 GMT 52.902241 -1.803955 11,675 349 206 960
2022-08-15 19:27:40 GMT 52.900009 -1.803170 11,675 349 206 960
2022-08-15 19:27:38 GMT 52.897110 -1.802216 11,575 349 205 960
2022-08-15 19:27:35 GMT 52.894794 -1.801365 11,600 349 205 896
2022-08-15 19:27:33 GMT 52.890610 -1.800003 11,550 349 205 896
2022-08-15 19:27:30 GMT 52.890610 -1.800003 11,525 349 205 896
2022-08-15 19:27:28 GMT 52.885715 -1.798305 11,500 349 205 896
2022-08-15 19:27:25 GMT 52.883110 -1.797442 11,425 349 204 832
2022-08-15 19:27:23 GMT 52.883110 -1.797442 11,400 349 204 896
2022-08-15 19:27:20 GMT 52.881062 -1.796735 11,350 349 203 1024
2022-08-15 19:27:18 GMT 52.876499 -1.795166 11,325 349 203 1024
2022-08-15 19:27:15 GMT 52.876499 -1.795166 11,300 349 203 1024
2022-08-15 19:27:13 GMT 52.871891 -1.793597 11,150 349 202 896
2022-08-15 19:27:10 GMT 52.871891 -1.793597 11,200 349 202 1024
2022-08-15 19:27:08 GMT 52.867142 -1.792027 11,175 349 202 896
2022-08-15 19:27:05 GMT 52.865093 -1.791321 11,150 349 201 832
2022-08-15 19:27:03 GMT 52.865093 -1.791321 11,100 349 201 832
2022-08-15 19:27:00 GMT 52.862640 -1.790466 11,075 349 201 832
2022-08-15 19:26:58 GMT 52.858017 -1.788888 11,025 349 200 896
2022-08-15 19:26:55 GMT 52.858017 -1.788888 11,000 349 199 1216
2022-08-15 19:26:53 GMT 52.855774 -1.788101 10,975 349 199 1344
2022-08-15 19:26:50 GMT 52.853622 -1.787415 10,875 349 200 1536
2022-08-15 19:26:48 GMT 52.851242 -1.786575 10,825 349 201 1536
2022-08-15 19:26:45 GMT 52.848988 -1.785828 10,750 349 202 1472
2022-08-15 19:26:43 GMT 52.846710 -1.785049 10,725 349 202 1344
2022-08-15 19:26:40 GMT 52.841949 -1.783371 10,625 349 202 1088
2022-08-15 19:26:37 GMT 52.841949 -1.783371 10,600 349 202 1024
2022-08-15 19:26:34 GMT 52.835999 -1.781276 10,550 348 199 1024
2022-08-15 19:26:31 GMT 52.835999 -1.781276 10,500 348 201 960
2022-08-15 19:26:28 GMT 52.833065 -1.780256 10,425 348 200 896
2022-08-15 19:26:25 GMT 52.830643 -1.779327 10,425 348 200 896
2022-08-15 19:26:22 GMT 52.827347 -1.778183 10,375 348 199 1024
2022-08-15 19:26:19 GMT 52.825104 -1.777352 10,300 348 199 1280
2022-08-15 19:26:16 GMT 52.821579 -1.776123 10,225 348 199 1344
2022-08-15 19:26:13 GMT 52.817093 -1.774445 10,175 348 201 1344
2022-08-15 19:26:10 GMT 52.817093 -1.774445 10,075 347 201 1216
2022-08-15 19:26:07 GMT 52.814445 -1.773429 10,025 347 201 1216
2022-08-15 19:26:04 GMT 52.811279 -1.772156 9,975 347 201 1088
2022-08-15 19:26:01 GMT 52.809231 -1.771310 9,925 346 201 1024
2022-08-15 19:25:58 GMT 52.806244 -1.770096 9,850 346 200 1088
2022-08-15 19:25:55 GMT 52.803085 -1.768799 9,825 346 199 1216
2022-08-15 19:25:52 GMT 52.800201 -1.767622 9,775 346 199 1216
2022-08-15 19:25:49 GMT 52.797958 -1.766586 9,725 345 199 1280
2022-08-15 19:25:47 GMT 52.792969 -1.764374 9,675 345 200 1216
2022-08-15 19:25:44 GMT 52.792969 -1.764374 9,600 345 199 1216
2022-08-15 19:25:41 GMT 52.790565 -1.763227 9,225 343 200 896
2022-08-15 19:25:38 GMT 52.786057 -1.761093 9,500 344 200 1344
2022-08-15 19:25:36 GMT 52.786057 -1.761093 9,375 343 199 832
2022-08-15 19:25:33 GMT 52.783951 -1.760025 9,375 343 200 1408
2022-08-15 19:25:30 GMT 52.778961 -1.757507 9,300 343 201 1152
2022-08-15 19:25:27 GMT 52.778961 -1.757507 9,225 343 200 896
2022-08-15 19:25:24 GMT 52.776226 -1.756086 9,050 343 198 768
2022-08-15 19:25:22 GMT 52.773945 -1.754830 9,200 343 198 768
2022-08-15 19:25:19 GMT 52.771729 -1.753693 9,150 343 198 768
2022-08-15 19:25:17 GMT 52.769806 -1.752701 9,075 343 197 1280
2022-08-15 19:25:14 GMT 52.767426 -1.751404 9,075 343 197 1280
2022-08-15 19:25:12 GMT 52.765053 -1.750201 9,025 343 196 1280
2022-08-15 19:25:09 GMT 52.763145 -1.749259 8,975 344 197 1280
2022-08-15 19:25:07 GMT 52.758865 -1.747131 8,925 345 196 1152
2022-08-15 19:25:04 GMT 52.758865 -1.747131 8,850 346 196 1088
2022-08-15 19:25:02 GMT 52.756535 -1.746120 8,825 348 195 1088
2022-08-15 19:24:59 GMT 52.754288 -1.745148 8,800 347 196 1088
2022-08-15 19:24:57 GMT 52.752365 -1.744461 8,700 351 195 1152
2022-08-15 19:24:54 GMT 52.749969 -1.743687 8,700 352 196 1216
2022-08-15 19:24:52 GMT 52.747643 -1.743059 8,625 356 196 1344
2022-08-15 19:24:49 GMT 52.745911 -1.742706 8,600 356 196 1344
2022-08-15 19:24:47 GMT 52.742661 -1.742401 8,500 1 198 1088
2022-08-15 19:24:44 GMT 52.740753 -1.742432 8,475 4 198 1024
2022-08-15 19:24:42 GMT 52.738892 -1.742589 8,425 6 198 960
2022-08-15 19:24:39 GMT 52.736004 -1.743059 8,400 7 197 960
2022-08-15 19:24:36 GMT 52.732819 -1.743774 8,350 7 196 1024
2022-08-15 19:24:33 GMT 52.730743 -1.744237 8,325 7 195 1024
2022-08-15 19:24:30 GMT 52.728416 -1.744707 8,225 7 194 1216
2022-08-15 19:24:27 GMT 52.725815 -1.745300 8,200 7 194 1344
2022-08-15 19:24:25 GMT 52.723709 -1.745758 8,125 7 194 1408
2022-08-15 19:24:22 GMT 52.720825 -1.746368 8,025 7 195 1344
2022-08-15 19:24:19 GMT 52.718674 -1.746902 8,000 7 195 1280
2022-08-15 19:24:17 GMT 52.716705 -1.747284 7,975 7 195 1280
2022-08-15 19:24:15 GMT 52.714920 -1.747665 7,900 7 194 1280
2022-08-15 19:24:12 GMT 52.711796 -1.748317 7,800 7 194 1344
2022-08-15 19:24:09 GMT 52.709469 -1.748710 7,800 7 194 1344
2022-08-15 19:24:07 GMT 52.707596 -1.749115 7,725 7 194 1280
2022-08-15 19:24:04 GMT 52.704941 -1.749649 7,550 7 193 1280
2022-08-15 19:24:02 GMT 52.702240 -1.750183 7,625 7 194 1216
2022-08-15 19:23:59 GMT 52.700638 -1.750565 7,600 7 194 1280
2022-08-15 19:23:57 GMT 52.698391 -1.750985 7,525 7 193 1280
2022-08-15 19:23:55 GMT 52.696564 -1.751404 7,500 7 193 1344
2022-08-15 19:23:52 GMT 52.691391 -1.752396 7,400 7 193 1280
2022-08-15 19:23:49 GMT 52.691391 -1.752396 7,375 7 193 1216
2022-08-15 19:23:46 GMT 52.688919 -1.752930 7,325 7 193 1280
2022-08-15 19:23:42 GMT 52.685532 -1.753616 7,225 7 191 1216
2022-08-15 19:23:39 GMT 52.682468 -1.754281 7,150 7 191 1216
2022-08-15 19:23:35 GMT 52.676743 -1.755447 7,025 6 190 1408
2022-08-15 19:23:32 GMT 52.676743 -1.755447 7,000 6 190 1408
2022-08-15 19:23:29 GMT 52.673859 -1.756008 6,925 6 190 1472
2022-08-15 19:23:26 GMT 52.671249 -1.756557 6,900 6 190 1536
2022-08-15 19:23:24 GMT 52.669418 -1.756897 6,850 6 190 1536
2022-08-15 19:23:22 GMT 52.667862 -1.757202 6,775 7 190 1472
2022-08-15 19:23:19 GMT 52.662231 -1.758347 6,700 7 191 1344
2022-08-15 19:23:16 GMT 52.662231 -1.758347 6,625 7 190 1216
2022-08-15 19:23:14 GMT 52.660404 -1.758754 6,625 7 190 1216
2022-08-15 19:23:12 GMT 52.659008 -1.759068 6,550 7 190 1280
2022-08-15 19:23:09 GMT 52.656326 -1.759567 6,525 7 189 1344
2022-08-15 19:23:07 GMT 52.654491 -1.760010 6,150 7 192 1344
2022-08-15 19:23:04 GMT 52.651978 -1.760483 6,400 7 189 1408
2022-08-15 19:23:01 GMT 52.649506 -1.761017 6,275 7 189 1600
2022-08-15 19:22:58 GMT 52.646996 -1.761579 6,225 7 190 1664
2022-08-15 19:22:55 GMT 52.644836 -1.762009 6,225 7 190 1664
2022-08-15 19:22:53 GMT 52.642181 -1.762619 6,150 7 190 1664
2022-08-15 19:22:50 GMT 52.640202 -1.762992 6,050 7 192 1472
2022-08-15 19:22:47 GMT 52.637035 -1.763698 5,975 7 192 1472
2022-08-15 19:22:44 GMT 52.634193 -1.764326 5,900 7 192 1344
2022-08-15 19:22:41 GMT 52.631725 -1.764797 5,825 7 191 1344
2022-08-15 19:22:38 GMT 52.626980 -1.765817 5,725 6 191 1536
2022-08-15 19:22:35 GMT 52.626980 -1.765817 5,700 6 191 1536
2022-08-15 19:22:33 GMT 52.625473 -1.766129 5,625 6 191 1536
2022-08-15 19:22:31 GMT 52.622929 -1.766602 5,575 6 192 1536
2022-08-15 19:22:28 GMT 52.617992 -1.767622 5,475 6 192 1472
2022-08-15 19:22:25 GMT 52.617992 -1.767622 5,425 6 192 1472
2022-08-15 19:22:23 GMT 52.616684 -1.767883 5,425 6 192 1472
2022-08-15 19:22:21 GMT 52.613663 -1.768494 5,275 6 192 1408
2022-08-15 19:22:18 GMT 52.609634 -1.769257 5,250 6 192 1600
2022-08-15 19:22:15 GMT 52.608765 -1.769485 5,200 7 192 1536
2022-08-15 19:22:13 GMT 52.607941 -1.769584 5,125 6 192 1472
2022-08-15 19:22:11 GMT 52.605057 -1.770172 5,075 6 192 1472
2022-08-15 19:22:08 GMT 52.602768 -1.770630 5,025 6 192 1536
2022-08-15 19:22:05 GMT 52.599514 -1.771310 4,950 6 192 1472
2022-08-15 19:22:02 GMT 52.597557 -1.771702 4,850 6 191 1344
2022-08-15 19:21:59 GMT 52.594666 -1.772232 4,825 6 191 1344
2022-08-15 19:21:56 GMT 52.592251 -1.772723 4,750 6 190 1216
2022-08-15 19:21:53 GMT 52.589539 -1.773224 4,650 6 190 1344
2022-08-15 19:21:50 GMT 52.587364 -1.773664 4,625 6 190 1536
2022-08-15 19:21:47 GMT 52.583771 -1.774368 4,525 6 190 1664
2022-08-15 19:21:44 GMT 52.581963 -1.774684 4,450 6 191 1408
2022-08-15 19:21:41 GMT 52.579239 -1.775208 4,375 6 190 1152
2022-08-15 19:21:38 GMT 52.576401 -1.775742 4,275 6 189 1280
2022-08-15 19:21:35 GMT 52.574051 -1.776175 4,250 6 189 1344
2022-08-15 19:21:32 GMT 52.570744 -1.776725 4,200 6 189 1472
2022-08-15 19:21:29 GMT 52.568138 -1.777196 4,100 6 189 1408
2022-08-15 19:21:26 GMT 52.565903 -1.777588 4,025 6 189 1472
2022-08-15 19:21:23 GMT 52.563480 -1.778059 4,025 6 188 1472
2022-08-15 19:21:19 GMT 52.559921 -1.778641 3,875 6 188 1536
2022-08-15 19:21:16 GMT 52.554565 -1.779556 3,825 5 187 1408
2022-08-15 19:21:13 GMT 52.554565 -1.779556 3,750 5 186 1344
2022-08-15 19:21:10 GMT 52.552216 -1.779942 3,700 5 186 1536
2022-08-15 19:21:06 GMT 52.548634 -1.780570 3,550 5 186 1792
2022-08-15 19:21:03 GMT 52.546398 -1.780962 3,500 6 187 1664
2022-08-15 19:21:01 GMT 52.544350 -1.781276 3,425 6 187 1536
2022-08-15 19:20:58 GMT 52.541473 -1.781769 3,350 6 187 1536
2022-08-15 19:20:55 GMT 52.535797 -1.782913 3,250 6 187 1664
2022-08-15 19:20:51 GMT 52.533688 -1.783316 3,175 7 187 1216
2022-08-15 19:20:48 GMT 52.533688 -1.783316 3,100 7 186 1280
2022-08-15 19:20:45 GMT 52.527969 -1.784592 3,025 8 185 1344
2022-08-15 19:20:42 GMT 52.527969 -1.784592 3,000 8 184 1408
2022-08-15 19:20:39 GMT 52.526093 -1.785049 2,950 8 184 1280
2022-08-15 19:20:36 GMT 52.522610 -1.785828 2,850 9 183 1280
2022-08-15 19:20:33 GMT 52.520554 -1.786423 2,825 9 182 1408
2022-08-15 19:20:31 GMT 52.518280 -1.787005 2,750 9 181 1472
2022-08-15 19:20:28 GMT 52.516651 -1.787476 2,675 9 181 1792
2022-08-15 19:20:25 GMT 52.513809 -1.788260 2,625 9 181 1728
2022-08-15 19:20:21 GMT 52.508148 -1.789856 2,475 10 180 1536
2022-08-15 19:20:18 GMT 52.508148 -1.789856 2,425 10 180 1792
2022-08-15 19:20:15 GMT 52.505814 -1.790543 2,350 9 180 1856
2022-08-15 19:20:12 GMT 52.503387 -1.791306 2,225 5 180 1664
2022-08-15 19:20:10 GMT 52.502125 -1.791635 2,200 3 180 1408
2022-08-15 19:20:07 GMT 52.499146 -1.791949 2,150 359 180 1280
2022-08-15 19:20:04 GMT 52.497070 -1.791687 2,100 350 177 1536
2022-08-15 19:20:01 GMT 52.494259 -1.790693 2,000 340 177 1600
2022-08-15 19:20:00 GMT 52.493408 -1.790237 1,975 338 177 1472
2022-08-15 19:19:59 GMT 52.492584 -1.789751 1,950 335 177 1280
2022-08-15 19:19:57 GMT 52.491440 -1.788864 1,925 332 175 1152
2022-08-15 19:19:56 GMT 52.490707 -1.788254 1,900 330 174 1088
2022-08-15 19:19:55 GMT 52.489700 -1.787338 1,875 329 174 1088
2022-08-15 19:19:52 GMT 52.488052 -1.785736 1,825 328 173 640
2022-08-15 19:19:50 GMT 52.486530 -1.784101 1,800 328 167 192
2022-08-15 19:19:49 GMT 52.484249 -1.781747 1,800 328 162 64
2022-08-15 19:19:47 GMT 52.484249 -1.781747 1,800 328 162 64
2022-08-15 19:19:45 GMT 52.482994 -1.780413 1,800 328 162 64
2022-08-15 19:19:44 GMT 52.482422 -1.779785 1,775 328 159 192
2022-08-15 19:19:42 GMT 52.479858 -1.777115 1,750 328 154 640
2022-08-15 19:19:40 GMT 52.479858 -1.777115 1,750 328 153 640
2022-08-15 19:19:37 GMT 52.478710 -1.775861 1,725 328 151 640
2022-08-15 19:19:36 GMT 52.478073 -1.775208 1,725 328 148 576
2022-08-15 19:19:34 GMT 52.476849 -1.773900 1,700 328 147 640
2022-08-15 19:19:33 GMT 52.476288 -1.773272 1,700 328 146 704
2022-08-15 19:19:31 GMT 52.474892 -1.771859 1,650 328 143 768
2022-08-15 19:19:30 GMT 52.474411 -1.771317 1,650 327 143 768
2022-08-15 19:19:29 GMT 52.473862 -1.770706 1,625 327 142 768
2022-08-15 19:19:28 GMT 52.472855 -1.769638 1,600 327 138 896
2022-08-15 19:19:26 GMT 52.472305 -1.769104 1,600 327 137 960
2022-08-15 19:19:25 GMT 52.471252 -1.767960 1,575 327 135 1088
2022-08-15 19:19:23 GMT 52.470200 -1.766815 1,525 327 132 1344
2022-08-15 19:19:21 GMT 52.469604 -1.766129 1,500 326 131 1600
2022-08-15 19:19:20 GMT 52.468597 -1.764984 1,450 326 130 2048
2022-08-15 19:19:18 GMT 52.468094 -1.764450 1,400 326 130 2048
2022-08-15 19:19:17 GMT 52.466980 -1.763149 1,325 325 129 2176
2022-08-15 19:19:15 GMT 52.466515 -1.762599 1,300 325 129 2112
2022-08-15 19:19:14 GMT 52.465534 -1.761422 1,225 325 130 2176
2022-08-15 19:19:12 GMT 52.464558 -1.760324 1,150 325 130 2112
2022-08-15 19:19:10 GMT 52.464046 -1.759696 1,125 325 130 2048
2022-08-15 19:19:09 GMT 52.463535 -1.759147 1,100 325 130 2176
2022-08-15 19:19:07 GMT 52.462601 -1.758041 1,025 325 131 2112
2022-08-15 19:19:05 GMT 52.461857 -1.757185 975 325 131 2048
2022-08-15 19:19:03 GMT 52.460815 -1.755981 900 325 131 2048
2022-08-15 19:19:02 GMT 52.459854 -1.754837 850 325 132 2112
2022-08-15 19:19:00 GMT 52.459393 -1.754360 825 325 133 2048
2022-08-15 19:18:59 GMT 52.458412 -1.753183 750 325 133 1920
2022-08-15 19:18:57 GMT 52.457901 -1.752633 725 326 133 1728
2022-08-15 19:18:54 GMT 52.456604 -1.751175 650 326 134 1216
2022-08-15 19:18:53 GMT 52.456100 -1.750565 625 326 133 704
2022-08-15 19:18:52 GMT 52.455276 -1.749649 575 326 131 256
2022-08-15 19:18:49 GMT 52.453758 -1.747925 600 326 120 0
2022-08-15 19:18:45 GMT 52.451851 -1.745806 575 326 105 -128
2022-08-15 19:18:39 GMT 52.449532 -1.743183 0 329 86
2022-08-15 19:18:37 GMT 52.448975 -1.742589 0 329 76
2022-08-15 19:18:36 GMT 52.448536 -1.742096 0 326 66
2022-08-15 19:18:32 GMT 52.447697 -1.741156 0 329 49
2022-08-15 19:18:31 GMT 52.447483 -1.740932 0 329 44
2022-08-15 19:18:29 GMT 52.447163 -1.740570 0 329 32
2022-08-15 19:18:28 GMT 52.447029 -1.740411 0 329 26
2022-08-15 19:18:19 GMT 52.446705 -1.740038 0 326 0
2022-08-15 19:18:14 GMT 52.446705 -1.740055 0 326 0
2022-08-15 19:17:52 GMT 52.446705 -1.740038 0 326 0
2022-08-15 19:17:44 GMT 52.446705 -1.740036 0 326 0
2022-08-15 19:17:40 GMT 52.446705 -1.740038 0 326 0
2022-08-15 19:17:38 GMT 52.446705 -1.740036 0 326 0
2022-08-15 19:17:27 GMT 52.446705 -1.740038 0 326 2
2022-08-15 19:17:22 GMT 52.446625 -1.739940 0 317 8
2022-08-15 19:17:18 GMT 52.446518 -1.739783 0 281 10
2022-08-15 19:17:17 GMT 52.446495 -1.739665 0 261 12
2022-08-15 19:17:16 GMT 52.446518 -1.739489 0 244 14
2022-08-15 19:17:13 GMT 52.446613 -1.739216 0 239 15
2022-08-15 19:17:11 GMT 52.446648 -1.739140 0 239 15
2022-08-15 19:17:09 GMT 52.446728 -1.738949 0 239 16
2022-08-15 19:17:08 GMT 52.446766 -1.738841 0 239 16
2022-08-15 19:17:07 GMT 52.446812 -1.738743 0 239 15
2022-08-15 19:17:03 GMT 52.446960 -1.738371 0 236 13
2022-08-15 19:16:59 GMT 52.447105 -1.738014 0 239 0
2022-08-15 19:16:53 GMT 52.447170 -1.737861 0 236 0
2022-08-15 19:16:48 GMT 52.447174 -1.737843 0 236 0
2022-08-15 19:16:43 GMT 52.447186 -1.737862 0 236 0
2022-08-15 19:16:28 GMT 52.447182 -1.737861 0 236 0
2022-08-15 19:16:27 GMT 52.447182 -1.737861 0 236 0
2022-08-15 19:16:23 GMT 52.447186 -1.737862 0 236 0
2022-08-15 19:16:21 GMT 52.447182 -1.737861 0 236 0
2022-08-15 19:16:16 GMT 52.447186 -1.737862 0 236 0
2022-08-15 19:16:13 GMT 52.447193 -1.737861 0 236 0
2022-08-15 19:16:12 GMT 52.447186 -1.737862 0 236 0
2022-08-15 19:16:09 GMT 52.447186 -1.737862 0 236 0
2022-08-15 19:16:07 GMT 52.447193 -1.737861 0 236 0
2022-08-15 19:16:06 GMT 52.447193 -1.737861 0 236 0
2022-08-15 19:16:04 GMT 52.447193 -1.737861 0 236 0
2022-08-15 19:16:03 GMT 52.447193 -1.737861 0 236 2
2022-08-15 19:16:01 GMT 52.447193 -1.737841 0 236 4
2022-08-15 19:16:00 GMT 52.447208 -1.737823 0 236 6
2022-08-15 19:15:58 GMT 52.447243 -1.737743 0 236 8
2022-08-15 19:15:55 GMT 52.447277 -1.737645 0 236 10
2022-08-15 19:15:53 GMT 52.447323 -1.737527 0 233 11
2022-08-15 19:15:52 GMT 52.447357 -1.737468 0 227 12
2022-08-15 19:15:51 GMT 52.447449 -1.737328 0 210 13
2022-08-15 19:15:46 GMT 52.447834 -1.737076 0 199 17
2022-08-15 19:15:43 GMT 52.447903 -1.737037 0 199 17
2022-08-15 19:15:40 GMT 52.448078 -1.736965 0 199 17
2022-08-15 19:15:38 GMT 52.448242 -1.736880 0 199 17
We lost coverage of the aircraft here for a total of 63 minutes
2022-08-15 18:13:00 GMT 52.451248 -1.734829 0 149 0 0
2022-08-15 18:12:53 GMT 52.451256 -1.734839 0 151 2 0
2022-08-15 18:12:42 GMT 52.451420 -1.735039 0 149 8 0
2022-08-15 18:12:27 GMT 52.451569 -1.735918 0 59 15 0
2022-08-15 18:12:22 GMT 52.451385 -1.736374 0 59 15 0
2022-08-15 18:12:12 GMT 52.451042 -1.737251 0 84 13 0
2022-08-15 18:12:02 GMT 52.451324 -1.738135 0 149 18 0
2022-08-15 18:11:53 GMT 52.451988 -1.738861 0 149 23 0
2022-08-15 18:11:52 GMT 52.452152 -1.739057 0 149 23 0
2022-08-15 18:11:39 GMT 52.453106 -1.740313 0 118 23 0
2022-08-15 18:11:36 GMT 52.453259 -1.740862 0 118 25 0
2022-08-15 18:11:30 GMT 52.453594 -1.741941 0 118 26 0
2022-08-15 18:11:23 GMT 52.453926 -1.743050 0 118 25 0
2022-08-15 18:11:20 GMT 52.454132 -1.743726 0 118 24 0
2022-08-15 18:10:50 GMT 52.453949 -1.747608 0 28 16 0
2022-08-15 18:10:47 GMT 52.453949 -1.747608 0 28 16 0
2022-08-15 18:10:46 GMT 52.453835 -1.747704 0 11 16 0
2022-08-15 18:10:44 GMT 52.453743 -1.747723 0 354 16 0
2022-08-15 18:10:43 GMT 52.453583 -1.747670 0 337 18 0
2022-08-15 18:10:39 GMT 52.453320 -1.747417 0 326 31 0
2022-08-15 18:10:35 GMT 52.452885 -1.746924 0 326 45 0
2022-08-15 18:10:33 GMT 52.452538 -1.746532 0 326 54 0
2022-08-15 18:10:32 GMT 52.452312 -1.746292 0 326 60 0
2022-08-15 18:10:31 GMT 52.452023 -1.745963 0 326 65 0
2022-08-15 18:10:28 GMT 52.451466 -1.745355 550 326 82 0
2022-08-15 18:10:25 GMT 52.450607 -1.744385 550 327 110 -704
2022-08-15 18:10:24 GMT 52.450035 -1.743766 550 327 110 -704
2022-08-15 18:10:22 GMT 52.448872 -1.742510 575 327 110 -704
2022-08-15 18:10:18 GMT 52.447800 -1.741255 600 327 110 -704
2022-08-15 18:10:17 GMT 52.447220 -1.740646 600 327 110 -704
2022-08-15 18:10:15 GMT 52.446262 -1.739607 625 326 112 -704
2022-08-15 18:10:14 GMT 52.444122 -1.737174 700 327 113 -512
2022-08-15 18:10:10 GMT 52.444122 -1.737174 700 327 111 -512
2022-08-15 18:10:09 GMT 52.443657 -1.736703 700 326 112 -448
2022-08-15 18:10:07 GMT 52.442818 -1.735761 700 326 112 -256
2022-08-15 18:10:05 GMT 52.440628 -1.733322 725 326 112 -512
2022-08-15 18:10:01 GMT 52.439941 -1.732559 750 327 110 -640
2022-08-15 18:10:00 GMT 52.439529 -1.732101 775 326 110 -640
2022-08-15 18:09:59 GMT 52.438721 -1.731210 800 326 109 -448
2022-08-15 18:09:57 GMT 52.438248 -1.730652 800 326 109 -448
2022-08-15 18:09:55 GMT 52.437561 -1.729965 800 325 109 -640
2022-08-15 18:09:53 GMT 52.436600 -1.728745 825 325 111 -704
2022-08-15 18:09:51 GMT 52.435730 -1.727829 850 326 113 -704
2022-08-15 18:09:50 GMT 52.435318 -1.727295 875 326 115 -576
2022-08-15 18:09:48 GMT 52.434578 -1.726501 900 327 116 -512
2022-08-15 18:09:47 GMT 52.433716 -1.725540 925 327 118 -832
2022-08-15 18:09:44 GMT 52.432251 -1.723938 950 326 120 -704
2022-08-15 18:09:42 GMT 52.431831 -1.723519 975 327 121 -704
2022-08-15 18:09:41 GMT 52.430809 -1.722342 1,000 326 122 -832
2022-08-15 18:09:39 GMT 52.430283 -1.721802 1,000 326 123 -832
2022-08-15 18:09:37 GMT 52.429413 -1.720851 1,025 326 124 -832
2022-08-15 18:09:36 GMT 52.428246 -1.719517 1,075 326 128 -576
2022-08-15 18:09:33 GMT 52.427780 -1.718968 1,075 326 130 -448
2022-08-15 18:09:32 GMT 52.427353 -1.718521 1,075 326 131 -448
2022-08-15 18:09:30 GMT 52.426346 -1.717377 1,100 326 135 -512
2022-08-15 18:09:29 GMT 52.425842 -1.716766 1,100 326 137 -448
2022-08-15 18:09:27 GMT 52.424805 -1.715672 1,125 327 141 -576
2022-08-15 18:09:24 GMT 52.423172 -1.713946 1,150 327 145 -960
2022-08-15 18:09:23 GMT 52.421963 -1.712612 1,200 327 145 -960
2022-08-15 18:09:21 GMT 52.420940 -1.711513 1,225 327 148 -1024
2022-08-15 18:09:19 GMT 52.419682 -1.710179 1,275 327 150 -1216
2022-08-15 18:09:17 GMT 52.419125 -1.709551 1,275 327 151 -1088
2022-08-15 18:09:15 GMT 52.418015 -1.708298 1,325 326 154 -640
2022-08-15 18:09:13 GMT 52.417099 -1.707306 1,350 326 155 -448
2022-08-15 18:09:12 GMT 52.416138 -1.706238 1,350 326 158 0
2022-08-15 18:09:11 GMT 52.415493 -1.705470 1,350 325 159 -384
2022-08-15 18:09:09 GMT 52.414284 -1.704136 1,350 325 160 -768
2022-08-15 18:09:08 GMT 52.413071 -1.702724 1,400 325 161 -896
2022-08-15 18:09:06 GMT 52.412464 -1.702018 1,400 325 162 -896
2022-08-15 18:09:05 GMT 52.411194 -1.700516 1,450 325 162 -960
2022-08-15 18:09:03 GMT 52.410603 -1.699899 1,450 325 164 -960
2022-08-15 18:09:01 GMT 52.409115 -1.698172 1,500 325 165 -1024
2022-08-15 18:09:00 GMT 52.408585 -1.697540 1,500 325 165 -1024
2022-08-15 18:08:59 GMT 52.407440 -1.696243 1,525 326 166 -1024
2022-08-15 18:08:57 GMT 52.406738 -1.695426 1,550 326 166 -960
2022-08-15 18:08:55 GMT 52.405426 -1.693954 1,575 326 167 -768
2022-08-15 18:08:53 GMT 52.404282 -1.692657 1,600 326 169 -768
2022-08-15 18:08:52 GMT 52.403576 -1.691895 1,625 326 171 -704
2022-08-15 18:08:50 GMT 52.402084 -1.690216 1,650 326 172 -640
2022-08-15 18:08:48 GMT 52.400967 -1.688913 1,650 326 174 -512
2022-08-15 18:08:47 GMT 52.400253 -1.688080 1,675 326 175 -384
2022-08-15 18:08:46 GMT 52.398731 -1.686401 1,675 326 178 -512
2022-08-15 18:08:44 GMT 52.398033 -1.685617 1,700 325 178 -512
2022-08-15 18:08:42 GMT 52.396637 -1.683960 1,700 326 180 -448
2022-08-15 18:08:40 GMT 52.395538 -1.682739 1,725 326 180 -512
2022-08-15 18:08:38 GMT 52.394497 -1.681536 1,750 326 180 -576
2022-08-15 18:08:37 GMT 52.393753 -1.680679 1,750 326 179 -512
2022-08-15 18:08:36 GMT 52.392448 -1.679260 1,775 326 180 -448
2022-08-15 18:08:34 GMT 52.391750 -1.678476 1,775 327 178 -384
2022-08-15 18:08:32 GMT 52.390457 -1.677017 1,775 328 178 -320
2022-08-15 18:08:31 GMT 52.389771 -1.676331 1,800 329 177 -256
2022-08-15 18:08:29 GMT 52.388306 -1.674787 1,800 329 177 -64
2022-08-15 18:08:28 GMT 52.387608 -1.674081 1,800 329 177 -128
2022-08-15 18:08:26 GMT 52.386024 -1.672590 1,800 329 176 -64
2022-08-15 18:08:23 GMT 52.384068 -1.670628 1,800 329 175 128
2022-08-15 18:08:21 GMT 52.382629 -1.669235 1,800 329 175 384
2022-08-15 18:08:20 GMT 52.381256 -1.667786 1,775 328 175 512
2022-08-15 18:08:18 GMT 52.380569 -1.667099 1,775 327 176 512
2022-08-15 18:08:17 GMT 52.379196 -1.665649 1,750 327 176 320
2022-08-15 18:08:14 GMT 52.377644 -1.663958 1,750 327 177 -256
2022-08-15 18:08:13 GMT 52.376999 -1.663284 1,750 327 177 -256
2022-08-15 18:08:11 GMT 52.375626 -1.661835 1,750 327 177 -768
2022-08-15 18:08:10 GMT 52.374199 -1.660270 1,800 327 178 -1216
2022-08-15 18:08:07 GMT 52.372055 -1.658020 1,850 327 179 -1216
2022-08-15 18:08:05 GMT 52.371368 -1.657257 1,875 327 179 -1152
2022-08-15 18:08:03 GMT 52.370056 -1.655797 1,900 327 180 -1152
2022-08-15 18:08:02 GMT 52.369308 -1.655045 1,925 327 180 -1152
2022-08-15 18:08:00 GMT 52.367889 -1.653519 1,975 327 181 -1216
2022-08-15 18:07:59 GMT 52.367203 -1.652756 2,000 327 182 -1216
2022-08-15 18:07:57 GMT 52.365646 -1.651077 2,025 327 183 -1216
2022-08-15 18:07:56 GMT 52.365028 -1.650460 2,050 327 183 -1216
2022-08-15 18:07:54 GMT 52.363586 -1.648891 2,100 327 185 -1152
2022-08-15 18:07:53 GMT 52.361526 -1.646652 2,150 327 186 -1088
2022-08-15 18:07:51 GMT 52.361526 -1.646652 2,150 327 186 -1088
2022-08-15 18:07:49 GMT 52.360001 -1.645046 2,175 327 188 -1024
2022-08-15 18:07:48 GMT 52.359303 -1.644261 2,200 327 188 -1024
2022-08-15 18:07:46 GMT 52.357861 -1.642691 2,225 328 189 -960
2022-08-15 18:07:45 GMT 52.357117 -1.641907 2,250 328 190 -1024
2022-08-15 18:07:44 GMT 52.356308 -1.641083 2,250 327 190 -1344
2022-08-15 18:07:42 GMT 52.354660 -1.639328 2,300 327 190 -1408
2022-08-15 18:07:40 GMT 52.353390 -1.638062 2,350 328 191 -1536
2022-08-15 18:07:39 GMT 52.352600 -1.637192 2,375 328 191 -1600
2022-08-15 18:07:38 GMT 52.350952 -1.635437 2,425 328 191 -1600
2022-08-15 18:07:35 GMT 52.350128 -1.634598 2,450 328 192 -1472
2022-08-15 18:07:33 GMT 52.348572 -1.632919 2,500 328 192 -1472
2022-08-15 18:07:32 GMT 52.347061 -1.631393 2,550 329 192 -1536
2022-08-15 18:07:29 GMT 52.345432 -1.629822 2,600 329 192 -1408
2022-08-15 18:07:27 GMT 52.343994 -1.628418 2,650 330 192 -1344
2022-08-15 18:07:26 GMT 52.343151 -1.627546 2,675 330 192 -1344
2022-08-15 18:07:24 GMT 52.341705 -1.626205 2,700 331 193 -1280
2022-08-15 18:07:23 GMT 52.340218 -1.624799 2,750 332 192 -1216
2022-08-15 18:07:21 GMT 52.339371 -1.624069 2,775 333 193 -1152
2022-08-15 18:07:20 GMT 52.338593 -1.623383 2,800 333 193 -1024
2022-08-15 18:07:18 GMT 52.337097 -1.622053 2,825 336 194 -960
2022-08-15 18:07:16 GMT 52.335003 -1.620405 2,850 336 194 -960
2022-08-15 18:07:14 GMT 52.334106 -1.619720 2,875 339 195 -1024
2022-08-15 18:07:13 GMT 52.332733 -1.618881 2,900 341 196 -1024
2022-08-15 18:07:12 GMT 52.331726 -1.618271 2,925 345 197 -1024
2022-08-15 18:07:11 GMT 52.330952 -1.617894 2,950 347 198 -1024
2022-08-15 18:07:08 GMT 52.328156 -1.616821 3,000 352 198 -1152
2022-08-15 18:07:06 GMT 52.326691 -1.616592 3,025 359 201 -960
2022-08-15 18:07:05 GMT 52.325775 -1.616440 3,050 359 201 -960
2022-08-15 18:07:03 GMT 52.324203 -1.616403 3,975 69 218 -960
2022-08-15 18:06:59 GMT 52.320969 -1.616821 3,125 9 202 -1088
2022-08-15 18:06:58 GMT 52.319504 -1.617279 3,150 11 202 -1216
2022-08-15 18:06:56 GMT 52.316757 -1.618347 3,200 14 202 -1024
2022-08-15 18:06:52 GMT 52.313873 -1.619492 3,275 14 201 -1088
2022-08-15 18:06:51 GMT 52.313030 -1.619856 3,275 14 201 -960
2022-08-15 18:06:49 GMT 52.311172 -1.620636 3,325 15 202 -1024
2022-08-15 18:06:48 GMT 52.310257 -1.621017 3,325 15 202 -1024
2022-08-15 18:06:46 GMT 52.308376 -1.621896 3,375 15 203 -1024
2022-08-15 18:06:45 GMT 52.307373 -1.622314 3,375 15 204 -1152
2022-08-15 18:06:44 GMT 52.305676 -1.623152 3,425 15 205 -1152
2022-08-15 18:06:41 GMT 52.304234 -1.623779 3,450 16 206 -1088
2022-08-15 18:06:39 GMT 52.302044 -1.624878 3,500 16 206 -960
2022-08-15 18:06:37 GMT 52.300095 -1.625748 3,525 16 206 -1024
2022-08-15 18:06:36 GMT 52.299179 -1.626205 3,550 16 206 -960
2022-08-15 18:06:35 GMT 52.296982 -1.627274 3,575 17 207 -960
2022-08-15 18:06:32 GMT 52.294098 -1.628799 3,625 18 208 -1152
2022-08-15 18:06:30 GMT 52.293247 -1.629272 3,650 18 209 -1216
2022-08-15 18:06:26 GMT 52.291168 -1.630402 3,700 19 209 -1088
2022-08-15 18:06:25 GMT 52.289337 -1.631470 3,700 20 210 -1024
2022-08-15 18:06:23 GMT 52.286915 -1.633039 3,775 27 212 -896
2022-08-15 18:06:21 GMT 52.286030 -1.633667 3,775 29 212 -960
2022-08-15 18:06:19 GMT 52.283096 -1.636335 3,825 37 214 -960
2022-08-15 18:06:17 GMT 52.282196 -1.637344 3,850 39 215 -960
2022-08-15 18:06:16 GMT 52.281376 -1.638454 3,875 42 215 -960
2022-08-15 18:06:14 GMT 52.280117 -1.640102 3,900 47 217 -1024
2022-08-15 18:06:12 GMT 52.278534 -1.642761 3,925 51 217 -1024
2022-08-15 18:06:11 GMT 52.277836 -1.644182 3,950 56 218 -960
2022-08-15 18:06:10 GMT 52.276627 -1.646772 3,975 59 218 -896
2022-08-15 18:06:06 GMT 52.275101 -1.650848 4,025 66 219 -960
2022-08-15 18:06:05 GMT 52.274254 -1.653992 4,075 73 216 -1152
2022-08-15 18:06:01 GMT 52.273407 -1.657867 4,100 75 215 -1088
2022-08-15 18:06:00 GMT 52.273136 -1.659642 4,125 77 212 -1088
2022-08-15 18:05:58 GMT 52.272629 -1.662903 4,175 78 208 -1152
2022-08-15 18:05:57 GMT 52.272308 -1.665726 4,200 79 207 -1088
2022-08-15 18:05:55 GMT 52.272125 -1.667252 4,225 80 204 -768
2022-08-15 18:05:53 GMT 52.271740 -1.670707 4,225 81 203 -512
2022-08-15 18:05:52 GMT 52.271599 -1.672276 4,250 83 201 -128
2022-08-15 18:05:50 GMT 52.271347 -1.675110 4,250 86 199 128
2022-08-15 18:05:49 GMT 52.271210 -1.678391 4,250 91 198 128
2022-08-15 18:05:47 GMT 52.271164 -1.679611 4,250 94 197 128
2022-08-15 18:05:46 GMT 52.271179 -1.680987 4,250 97 197 64
2022-08-15 18:05:45 GMT 52.271461 -1.685381 4,250 102 196 -192
2022-08-15 18:05:43 GMT 52.271786 -1.687422 4,250 105 194 -256
2022-08-15 18:05:41 GMT 52.271988 -1.688690 4,250 108 193 -128
2022-08-15 18:05:40 GMT 52.272491 -1.691132 4,250 113 192 128
2022-08-15 18:05:37 GMT 52.273087 -1.693344 4,250 119 191 192
2022-08-15 18:05:36 GMT 52.274231 -1.696548 4,250 125 189 192
2022-08-15 18:05:35 GMT 52.274231 -1.696548 4,250 128 189 256
2022-08-15 18:05:32 GMT 52.275417 -1.699193 4,225 134 188 192
2022-08-15 18:05:31 GMT 52.276485 -1.701076 4,225 139 186 192
2022-08-15 18:05:29 GMT 52.277710 -1.702881 4,225 142 186 256
2022-08-15 18:05:28 GMT 52.278301 -1.703666 4,225 143 186 192
2022-08-15 18:05:26 GMT 52.279312 -1.704941 4,200 143 188 128
2022-08-15 18:05:25 GMT 52.280457 -1.706314 4,200 143 191 -192
2022-08-15 18:05:24 GMT 52.282631 -1.708923 4,225 143 193 -576
2022-08-15 18:05:22 GMT 52.282631 -1.708923 4,225 143 194 -704
2022-08-15 18:05:20 GMT 52.284214 -1.710885 4,250 143 196 -448
2022-08-15 18:05:19 GMT 52.284962 -1.711748 4,250 144 197 -256
2022-08-15 18:05:16 GMT 52.286819 -1.713943 4,275 144 199 -256
2022-08-15 18:05:15 GMT 52.287277 -1.714478 4,275 145 201 -192
2022-08-15 18:05:13 GMT 52.288872 -1.716300 4,275 145 204 64
2022-08-15 18:05:12 GMT 52.290405 -1.718026 4,275 145 207 0
2022-08-15 18:05:09 GMT 52.292221 -1.720047 4,275 145 212 0
2022-08-15 18:05:07 GMT 52.293758 -1.721793 4,275 145 216 0
2022-08-15 18:05:06 GMT 52.294647 -1.722794 4,275 145 218 0
2022-08-15 18:05:03 GMT 52.297485 -1.725922 4,275 145 222 0
2022-08-15 18:05:01 GMT 52.299297 -1.727914 4,275 145 228 0
2022-08-15 18:04:59 GMT 52.300690 -1.729507 4,275 146 231 0
2022-08-15 18:04:58 GMT 52.302788 -1.731838 4,275 146 233 0
2022-08-15 18:04:54 GMT 52.305534 -1.734741 4,275 146 241 0
2022-08-15 18:04:51 GMT 52.308014 -1.737442 4,275 146 243 -64
2022-08-15 18:04:50 GMT 52.309074 -1.738586 4,275 146 246 0
2022-08-15 18:04:49 GMT 52.312180 -1.741943 4,275 146 246 0
2022-08-15 18:04:47 GMT 52.312180 -1.741943 4,275 146 246 0
2022-08-15 18:04:45 GMT 52.313690 -1.743622 4,275 146 246 0
2022-08-15 18:04:43 GMT 52.316662 -1.746826 4,275 146 245 64
2022-08-15 18:04:41 GMT 52.317593 -1.747846 4,275 146 245 64
2022-08-15 18:04:39 GMT 52.319778 -1.750183 4,275 145 244 0
2022-08-15 18:04:37 GMT 52.322205 -1.752853 4,275 146 244 64
2022-08-15 18:04:36 GMT 52.322205 -1.752853 4,275 146 244 0
2022-08-15 18:04:35 GMT 52.323166 -1.753922 4,275 146 244 0
2022-08-15 18:04:33 GMT 52.325134 -1.756086 4,275 146 243 -64
2022-08-15 18:04:31 GMT 52.326996 -1.758126 4,275 145 242 -64
2022-08-15 18:04:30 GMT 52.327835 -1.759033 4,275 146 242 0
2022-08-15 18:04:28 GMT 52.329788 -1.761187 4,275 145 241 0
2022-08-15 18:04:27 GMT 52.330723 -1.762207 4,275 145 241 0
2022-08-15 18:04:25 GMT 52.332722 -1.764483 4,275 145 240 0
2022-08-15 18:04:24 GMT 52.333652 -1.765503 4,275 145 239 0
2022-08-15 18:04:23 GMT 52.335388 -1.767426 4,275 145 238 -64
2022-08-15 18:04:21 GMT 52.336304 -1.768417 4,275 145 237 -64
2022-08-15 18:04:19 GMT 52.338135 -1.770477 4,275 145 237 -64
2022-08-15 18:04:18 GMT 52.340286 -1.772919 4,275 145 237 0
2022-08-15 18:04:16 GMT 52.341290 -1.774057 4,275 145 237 0
2022-08-15 18:04:15 GMT 52.342918 -1.775861 4,275 145 235 64
2022-08-15 18:04:12 GMT 52.343803 -1.776882 4,275 145 235 128
2022-08-15 18:04:11 GMT 52.344772 -1.777954 4,275 145 235 128
2022-08-15 18:04:10 GMT 52.348022 -1.781616 4,275 145 236 -64
2022-08-15 18:04:08 GMT 52.348022 -1.781616 4,275 145 236 -64
2022-08-15 18:04:05 GMT 52.350643 -1.784572 4,275 145 236 0
2022-08-15 18:04:04 GMT 52.351639 -1.785660 4,275 145 238 -64
2022-08-15 18:04:03 GMT 52.352646 -1.786769 4,275 145 239 -64
2022-08-15 18:04:01 GMT 52.354523 -1.788864 4,275 146 239 -256
2022-08-15 18:04:00 GMT 52.355438 -1.789932 4,300 145 240 -256
2022-08-15 18:03:59 GMT 52.357208 -1.791870 4,300 146 242 -512
2022-08-15 18:03:57 GMT 52.358139 -1.792890 4,300 146 242 -512
2022-08-15 18:03:55 GMT 52.359879 -1.794815 4,325 146 242 -768
2022-08-15 18:03:54 GMT 52.362236 -1.797363 4,350 146 243 -960
2022-08-15 18:03:51 GMT 52.363083 -1.798248 4,375 146 243 -1024
2022-08-15 18:03:50 GMT 52.364841 -1.800188 4,400 146 244 -1152
2022-08-15 18:03:48 GMT 52.367569 -1.803207 4,450 146 244 -1280
2022-08-15 18:03:47 GMT 52.367569 -1.803207 4,450 146 244 -1344
2022-08-15 18:03:46 GMT 52.368484 -1.804199 4,475 146 244 -1344
2022-08-15 18:03:44 GMT 52.370361 -1.806259 4,525 146 243 -1344
2022-08-15 18:03:43 GMT 52.371220 -1.807173 4,525 146 243 -1344
2022-08-15 18:03:42 GMT 52.372150 -1.808193 4,550 145 242 -1280
2022-08-15 18:03:40 GMT 52.374016 -1.810311 4,600 145 241 -1216
2022-08-15 18:03:39 GMT 52.375877 -1.812352 4,650 145 241 -1280
2022-08-15 18:03:37 GMT 52.376808 -1.813372 4,675 145 240 -1280
2022-08-15 18:03:35 GMT 52.378624 -1.815412 4,700 144 238 -1344
2022-08-15 18:03:34 GMT 52.379555 -1.816511 4,725 144 238 -1344
2022-08-15 18:03:33 GMT 52.382393 -1.819807 4,775 144 237 -1280
2022-08-15 18:03:31 GMT 52.382393 -1.819807 4,800 144 235 -1344
2022-08-15 18:03:29 GMT 52.384209 -1.821926 4,825 144 234 -1344
2022-08-15 18:03:27 GMT 52.385513 -1.823425 4,875 144 234 -1344
2022-08-15 18:03:26 GMT 52.386932 -1.825104 4,900 144 233 -1344
2022-08-15 18:03:25 GMT 52.387699 -1.826006 4,925 143 232 -1344
2022-08-15 18:03:24 GMT 52.389359 -1.828003 4,975 143 232 -1408
2022-08-15 18:03:21 GMT 52.391193 -1.830165 5,000 143 231 -1408
2022-08-15 18:03:19 GMT 52.392727 -1.832049 5,050 143 231 -1344
2022-08-15 18:03:18 GMT 52.393661 -1.833191 5,075 143 231 -1280
2022-08-15 18:03:17 GMT 52.395401 -1.835251 5,125 144 232 -1088
2022-08-15 18:03:15 GMT 52.396271 -1.836243 5,125 143 232 -1024
2022-08-15 18:03:13 GMT 52.398083 -1.838405 5,175 144 233 -1024
2022-08-15 18:03:12 GMT 52.398514 -1.838989 5,175 144 234 -1024
2022-08-15 18:03:10 GMT 52.400551 -1.841309 5,200 144 234 -1024
2022-08-15 18:03:08 GMT 52.402222 -1.843338 5,225 144 235 -768
2022-08-15 18:03:07 GMT 52.403091 -1.844330 5,275 144 237 -448
2022-08-15 18:03:06 GMT 52.403900 -1.845311 5,275 144 239 -320
2022-08-15 18:03:04 GMT 52.405792 -1.847534 5,275 144 243 -128
2022-08-15 18:03:02 GMT 52.407578 -1.849670 5,275 144 244 -128
2022-08-15 18:03:01 GMT 52.408493 -1.850739 5,300 144 245 -64
2022-08-15 18:02:58 GMT 52.410835 -1.853394 5,300 144 248 0
2022-08-15 18:02:56 GMT 52.412796 -1.855698 5,300 144 251 -64
2022-08-15 18:02:55 GMT 52.413712 -1.856842 5,300 144 253 -128
2022-08-15 18:02:53 GMT 52.415539 -1.858965 5,300 144 256 -512
2022-08-15 18:02:52 GMT 52.416595 -1.860123 5,300 144 256 -512
2022-08-15 18:02:50 GMT 52.418427 -1.862261 5,325 144 256 -704
2022-08-15 18:02:49 GMT 52.419296 -1.863327 5,325 144 257 -960
2022-08-15 18:02:48 GMT 52.420193 -1.864301 5,375 144 258 -1024
2022-08-15 18:02:46 GMT 52.422523 -1.866970 5,400 144 258 -1280
2022-08-15 18:02:45 GMT 52.425453 -1.870422 5,475 144 256 -1408
2022-08-15 18:02:43 GMT 52.425453 -1.870422 5,475 144 255 -1344
2022-08-15 18:02:42 GMT 52.427673 -1.873016 5,500 144 255 -1408
2022-08-15 18:02:40 GMT 52.428528 -1.874032 5,550 144 254 -1472
2022-08-15 18:02:38 GMT 52.430328 -1.876144 5,600 144 252 -1472
2022-08-15 18:02:37 GMT 52.431179 -1.877171 5,625 144 250 -1472
2022-08-15 18:02:36 GMT 52.433533 -1.879959 5,650 143 249 -1472
2022-08-15 18:02:33 GMT 52.434902 -1.881566 5,700 144 247 -1408
2022-08-15 18:02:31 GMT 52.436768 -1.883763 5,750 144 245 -1472
2022-08-15 18:02:29 GMT 52.438705 -1.886063 5,775 144 244 -1472
2022-08-15 18:02:28 GMT 52.440536 -1.888199 5,825 144 245 -1472
2022-08-15 18:02:26 GMT 52.441498 -1.889267 5,850 144 245 -1472
2022-08-15 18:02:25 GMT 52.442307 -1.890276 5,900 144 244 -1472
2022-08-15 18:02:23 GMT 52.444492 -1.892866 5,925 143 244 -1408
2022-08-15 18:02:21 GMT 52.446358 -1.895063 5,975 143 244 -1408
2022-08-15 18:02:20 GMT 52.447357 -1.896210 6,000 143 244 -1408
2022-08-15 18:02:19 GMT 52.448273 -1.897354 6,025 143 244 -1408
2022-08-15 18:02:17 GMT 52.450058 -1.899490 6,075 143 244 -1408
2022-08-15 18:02:15 GMT 52.451935 -1.901703 6,125 144 245 -1408
2022-08-15 18:02:13 GMT 52.453766 -1.903839 6,175 144 245 -1408
2022-08-15 18:02:11 GMT 52.455780 -1.906204 6,225 144 247 -1408
2022-08-15 18:02:09 GMT 52.458462 -1.909424 6,275 144 249 -1408
2022-08-15 18:02:07 GMT 52.459488 -1.910629 6,300 144 249 -1408
2022-08-15 18:02:05 GMT 52.460449 -1.911697 6,350 144 251 -1408
2022-08-15 18:02:02 GMT 52.464138 -1.915937 6,425 145 252 -1408
2022-08-15 18:01:59 GMT 52.467632 -1.919861 6,500 145 254 -1408
2022-08-15 18:01:56 GMT 52.470062 -1.922607 6,575 145 256 -1408
2022-08-15 18:01:54 GMT 52.471123 -1.923785 6,600 145 257 -1408
2022-08-15 18:01:52 GMT 52.472992 -1.925888 6,625 145 257 -1408
2022-08-15 18:01:50 GMT 52.476105 -1.929398 6,700 145 255 -1408
2022-08-15 18:01:48 GMT 52.477173 -1.930612 6,725 145 255 -1472
2022-08-15 18:01:47 GMT 52.479218 -1.932983 6,775 145 253 -1472
2022-08-15 18:01:44 GMT 52.481323 -1.935349 6,825 145 251 -1536
2022-08-15 18:01:41 GMT 52.484856 -1.939401 6,925 145 248 -1536
2022-08-15 18:01:39 GMT 52.487045 -1.941833 7,000 147 245 -1280
2022-08-15 18:01:36 GMT 52.488670 -1.943481 7,025 150 244 -1152
2022-08-15 18:01:35 GMT 52.490707 -1.945496 7,075 154 241 -1344
2022-08-15 18:01:32 GMT 52.492397 -1.946934 7,100 159 240 -1472
2022-08-15 18:01:31 GMT 52.493420 -1.947719 7,125 159 240 -1472
2022-08-15 18:01:29 GMT 52.495605 -1.949005 7,175 165 239 -1600
2022-08-15 18:01:28 GMT 52.497757 -1.949997 7,225 167 238 -1536
2022-08-15 18:01:26 GMT 52.498913 -1.950466 7,275 168 238 -1536
2022-08-15 18:01:25 GMT 52.501102 -1.951172 7,300 169 239 -1408
2022-08-15 18:01:23 GMT 52.503159 -1.951752 7,325 170 240 -1408
2022-08-15 18:01:21 GMT 52.504257 -1.952057 7,375 170 241 -1408
2022-08-15 18:01:18 GMT 52.508968 -1.953369 7,475 170 242 -1408
2022-08-15 18:01:15 GMT 52.511307 -1.954041 7,525 170 242 -1408
2022-08-15 18:01:14 GMT 52.512276 -1.954311 7,525 170 242 -1408
2022-08-15 18:01:12 GMT 52.514603 -1.954956 7,600 170 243 -1408
2022-08-15 18:01:10 GMT 52.516800 -1.955643 7,625 170 244 -1408
2022-08-15 18:01:08 GMT 52.520046 -1.956508 7,700 170 245 -1344
2022-08-15 18:01:06 GMT 52.521286 -1.956863 7,725 170 246 -1344
2022-08-15 18:01:04 GMT 52.523529 -1.957474 7,775 171 246 -1344
2022-08-15 18:01:02 GMT 52.528149 -1.958705 7,850 171 249 -1408
2022-08-15 18:01:00 GMT 52.528149 -1.958705 7,875 171 249 -1408
2022-08-15 18:00:59 GMT 52.531265 -1.959457 7,900 171 250 -1408
2022-08-15 18:00:57 GMT 52.531265 -1.959457 7,925 171 250 -1408
2022-08-15 18:00:56 GMT 52.533642 -1.960039 7,975 171 250 -1408
2022-08-15 18:00:54 GMT 52.534698 -1.960297 8,000 170 249 -1408
2022-08-15 18:00:53 GMT 52.536942 -1.960907 8,050 170 247 -1408
2022-08-15 18:00:51 GMT 52.538315 -1.961212 8,075 170 246 -1472
2022-08-15 18:00:50 GMT 52.539459 -1.961517 8,100 170 244 -1472
2022-08-15 18:00:48 GMT 52.541786 -1.962158 8,150 170 241 -1472
2022-08-15 18:00:46 GMT 52.543976 -1.962708 8,200 170 238 -1408
2022-08-15 18:00:45 GMT 52.545094 -1.963021 8,200 170 237 -1408
2022-08-15 18:00:44 GMT 52.548351 -1.963885 8,250 170 232 -1472
2022-08-15 18:00:42 GMT 52.550537 -1.964493 8,325 170 227 -1344
2022-08-15 18:00:40 GMT 52.550537 -1.964493 8,325 170 227 -1344
2022-08-15 18:00:38 GMT 52.552307 -1.964983 8,375 170 226 -1280
2022-08-15 18:00:37 GMT 52.554932 -1.965714 8,425 169 224 -1024
2022-08-15 18:00:34 GMT 52.556763 -1.966324 8,450 169 223 -896
2022-08-15 18:00:32 GMT 52.558777 -1.966934 8,475 169 220 -768
2022-08-15 18:00:30 GMT 52.560875 -1.967573 8,500 169 219 -768
2022-08-15 18:00:28 GMT 52.562878 -1.968122 8,525 169 220 -832
2022-08-15 18:00:27 GMT 52.563854 -1.968436 8,550 169 220 -832
2022-08-15 18:00:25 GMT 52.565670 -1.968985 8,575 169 221 -832
2022-08-15 18:00:24 GMT 52.566692 -1.969221 8,575 169 222 -832
2022-08-15 18:00:21 GMT 52.569721 -1.970163 8,625 170 225 -832
2022-08-15 18:00:18 GMT 52.574051 -1.971418 8,675 170 231 -832
2022-08-15 18:00:16 GMT 52.575165 -1.971741 8,700 170 231 -832
2022-08-15 18:00:14 GMT 52.576981 -1.972203 8,725 170 232 -832
2022-08-15 18:00:12 GMT 52.579193 -1.972885 8,750 170 233 -832
2022-08-15 18:00:10 GMT 52.581406 -1.973537 8,775 170 234 -832
2022-08-15 18:00:09 GMT 52.583546 -1.974086 8,800 170 236 -832
2022-08-15 18:00:06 GMT 52.584850 -1.974479 8,825 170 237 -832
2022-08-15 18:00:05 GMT 52.586472 -1.974945 8,825 170 238 -832
2022-08-15 18:00:04 GMT 52.587643 -1.975263 8,850 170 238 -832
2022-08-15 18:00:02 GMT 52.589905 -1.975937 8,875 170 240 -832
2022-08-15 18:00:01 GMT 52.591232 -1.976318 8,900 170 240 -832
2022-08-15 17:59:58 GMT 52.594299 -1.977158 8,925 170 242 -832
2022-08-15 17:59:57 GMT 52.595322 -1.977382 8,950 170 243 -768
2022-08-15 17:59:54 GMT 52.598740 -1.978302 9,000 170 245 -768
2022-08-15 17:59:52 GMT 52.600983 -1.978912 9,025 170 245 -768
2022-08-15 17:59:50 GMT 52.602631 -1.979344 9,025 171 245 -832
2022-08-15 17:59:49 GMT 52.603683 -1.979599 9,075 171 246 -832
2022-08-15 17:59:47 GMT 52.606567 -1.980362 9,075 171 246 -832
2022-08-15 17:59:46 GMT 52.607845 -1.980678 9,100 171 247 -832
2022-08-15 17:59:45 GMT 52.610001 -1.981201 9,125 171 247 -832
2022-08-15 17:59:42 GMT 52.612129 -1.981698 9,150 171 247 -832
2022-08-15 17:59:41 GMT 52.613159 -1.981964 9,150 171 245 -768
2022-08-15 17:59:40 GMT 52.614410 -1.982247 9,175 171 245 -768
2022-08-15 17:59:38 GMT 52.616547 -1.982803 9,200 170 245 -768
2022-08-15 17:59:36 GMT 52.618412 -1.983346 9,225 170 244 -768
2022-08-15 17:59:34 GMT 52.623116 -1.984523 9,275 171 242 -832
2022-08-15 17:59:32 GMT 52.623116 -1.984523 9,275 171 242 -832
2022-08-15 17:59:30 GMT 52.625771 -1.985229 9,300 171 242 -832
2022-08-15 17:59:28 GMT 52.628082 -1.985855 9,325 171 242 -832
2022-08-15 17:59:27 GMT 52.629074 -1.986093 9,350 171 242 -832
2022-08-15 17:59:24 GMT 52.632427 -1.986956 9,400 170 243 -832
2022-08-15 17:59:23 GMT 52.633621 -1.987305 9,400 170 243 -832
2022-08-15 17:59:21 GMT 52.635731 -1.987819 9,425 171 243 -768
2022-08-15 17:59:19 GMT 52.637833 -1.988373 9,450 171 244 -768
2022-08-15 17:59:18 GMT 52.638851 -1.988682 9,475 171 245 -768
2022-08-15 17:59:16 GMT 52.641220 -1.989288 9,500 171 247 -832
2022-08-15 17:59:15 GMT 52.643692 -1.989899 9,525 171 248 -832
2022-08-15 17:59:13 GMT 52.644836 -1.990204 9,525 171 249 -832
2022-08-15 17:59:12 GMT 52.647812 -1.990891 9,550 171 251 -832
2022-08-15 17:59:10 GMT 52.650490 -1.991586 9,600 171 253 -832
2022-08-15 17:59:08 GMT 52.650490 -1.991586 9,600 171 254 -832
2022-08-15 17:59:06 GMT 52.653004 -1.992214 9,625 171 255 -832
2022-08-15 17:59:05 GMT 52.653625 -1.992416 9,650 171 255 -832
2022-08-15 17:59:03 GMT 52.656075 -1.992998 9,675 171 257 -832
2022-08-15 17:59:01 GMT 52.660675 -1.994171 9,700 171 259 -768
2022-08-15 17:58:59 GMT 52.661709 -1.994411 9,725 171 259 -768
2022-08-15 17:58:57 GMT 52.663971 -1.994934 9,750 171 260 -768
2022-08-15 17:58:55 GMT 52.665436 -1.995239 9,775 171 260 -768
2022-08-15 17:58:54 GMT 52.667946 -1.995823 9,800 171 260 -768
2022-08-15 17:58:52 GMT 52.668877 -1.996059 9,800 171 260 -768
2022-08-15 17:58:51 GMT 52.671249 -1.996608 9,825 171 260 -832
2022-08-15 17:58:49 GMT 52.672577 -1.996918 9,850 171 259 -832
2022-08-15 17:58:48 GMT 52.676044 -1.997785 9,875 171 258 -896
2022-08-15 17:58:45 GMT 52.678253 -1.998367 9,900 171 257 -896
2022-08-15 17:58:43 GMT 52.679585 -1.998649 9,925 171 256 -960
2022-08-15 17:58:42 GMT 52.682144 -1.999276 9,975 172 255 -768
2022-08-15 17:58:39 GMT 52.684517 -1.999826 10,000 172 254 -448
2022-08-15 17:58:37 GMT 52.686722 -2.000275 10,000 173 253 -128
2022-08-15 17:58:36 GMT 52.688892 -2.000689 10,000 175 252 0
2022-08-15 17:58:33 GMT 52.691574 -2.001114 10,000 176 252 0
2022-08-15 17:58:32 GMT 52.692764 -2.001190 10,000 179 251 0
2022-08-15 17:58:30 GMT 52.694946 -2.001238 10,000 182 250 0
2022-08-15 17:58:28 GMT 52.697041 -2.001160 10,000 183 250 -64
2022-08-15 17:58:27 GMT 52.699322 -2.001081 10,000 183 249 -64
2022-08-15 17:58:25 GMT 52.700592 -2.000961 10,000 183 249 0
2022-08-15 17:58:24 GMT 52.702927 -2.000732 10,000 183 249 0
2022-08-15 17:58:20 GMT 52.707504 -2.000351 10,000 184 248 0
2022-08-15 17:58:18 GMT 52.708649 -2.000275 10,000 184 248 0
2022-08-15 17:58:16 GMT 52.711166 -2.000046 10,000 184 248 0
2022-08-15 17:58:15 GMT 52.712311 -1.999969 10,000 184 248 0
2022-08-15 17:58:13 GMT 52.714729 -1.999747 10,000 184 247 0
2022-08-15 17:58:12 GMT 52.715660 -1.999669 10,000 184 247 0
2022-08-15 17:58:11 GMT 52.716778 -1.999590 10,000 184 247 0
2022-08-15 17:58:09 GMT 52.718948 -1.999359 10,000 184 247 64
2022-08-15 17:58:07 GMT 52.722382 -1.999054 10,000 184 246 0
2022-08-15 17:58:04 GMT 52.724625 -1.998901 10,000 184 246 0
2022-08-15 17:58:03 GMT 52.725903 -1.998727 10,000 184 246 0
2022-08-15 17:58:02 GMT 52.728058 -1.998520 10,000 184 246 -64
2022-08-15 17:57:59 GMT 52.730232 -1.998335 10,000 184 246 -64
2022-08-15 17:57:57 GMT 52.734051 -1.998021 10,000 184 246 64
2022-08-15 17:57:55 GMT 52.735214 -1.997864 10,025 184 246 64
2022-08-15 17:57:53 GMT 52.737495 -1.997707 10,000 184 246 64
2022-08-15 17:57:52 GMT 52.738403 -1.997604 10,000 184 246 64
2022-08-15 17:57:50 GMT 52.740891 -1.997393 10,000 184 246 0
2022-08-15 17:57:49 GMT 52.742157 -1.997223 10,000 184 246 0
2022-08-15 17:57:47 GMT 52.744522 -1.997001 10,000 184 247 0
2022-08-15 17:57:45 GMT 52.746803 -1.996765 10,000 184 247 64
2022-08-15 17:57:43 GMT 52.748619 -1.996608 10,000 184 247 64
2022-08-15 17:57:41 GMT 52.751038 -1.996384 10,000 184 248 0
2022-08-15 17:57:39 GMT 52.753414 -1.996216 10,000 184 248 -64
2022-08-15 17:57:38 GMT 52.754810 -1.996059 10,000 184 248 -64
2022-08-15 17:57:36 GMT 52.756859 -1.995823 10,000 184 248 -64
2022-08-15 17:57:35 GMT 52.758022 -1.995745 10,000 184 248 0
2022-08-15 17:57:33 GMT 52.760422 -1.995468 10,000 184 248 0
2022-08-15 17:57:31 GMT 52.762939 -1.995239 10,000 184 248 0
2022-08-15 17:57:30 GMT 52.763515 -1.995117 10,000 184 248 0
2022-08-15 17:57:28 GMT 52.766144 -1.994858 10,000 184 248 0
2022-08-15 17:57:26 GMT 52.768124 -1.994646 10,000 184 248 -64
2022-08-15 17:57:25 GMT 52.769241 -1.994489 10,000 184 248 0
2022-08-15 17:57:22 GMT 52.772686 -1.994176 10,000 184 248 0
2022-08-15 17:57:21 GMT 52.775757 -1.993790 10,000 184 247 0
2022-08-15 17:57:19 GMT 52.775757 -1.993790 10,025 184 247 0
2022-08-15 17:57:16 GMT 52.778412 -1.993469 10,025 184 247 0
2022-08-15 17:57:15 GMT 52.780563 -1.993256 10,025 184 247 0
2022-08-15 17:57:13 GMT 52.782166 -1.993027 10,025 184 247 0
2022-08-15 17:57:12 GMT 52.783207 -1.992920 10,025 184 247 0
2022-08-15 17:57:10 GMT 52.785721 -1.992685 10,000 184 247 -64
2022-08-15 17:57:09 GMT 52.786743 -1.992493 10,000 184 247 -64
2022-08-15 17:57:08 GMT 52.789032 -1.992264 10,025 184 247 -64
2022-08-15 17:57:06 GMT 52.790283 -1.992135 10,025 184 247 -64
2022-08-15 17:57:04 GMT 52.793106 -1.991806 10,025 184 246 -64
2022-08-15 17:57:03 GMT 52.793793 -1.991730 10,025 184 246 -128
2022-08-15 17:57:02 GMT 52.794937 -1.991577 10,025 184 246 -128
2022-08-15 17:57:01 GMT 52.797226 -1.991348 10,025 185 246 -256
2022-08-15 17:56:58 GMT 52.800713 -1.990880 10,025 185 244 -512
2022-08-15 17:56:55 GMT 52.804344 -1.990487 10,075 185 242 -896
2022-08-15 17:56:52 GMT 52.806808 -1.990173 10,100 185 241 -896
2022-08-15 17:56:50 GMT 52.808578 -1.989938 10,125 185 238 -896
2022-08-15 17:56:48 GMT 52.811234 -1.989546 10,175 185 237 -896
2022-08-15 17:56:47 GMT 52.812351 -1.989389 10,175 185 237 -896
2022-08-15 17:56:46 GMT 52.813293 -1.989288 10,200 185 236 -896
2022-08-15 17:56:44 GMT 52.815491 -1.988983 10,225 185 235 -960
2022-08-15 17:56:41 GMT 52.818558 -1.988602 10,275 185 234 -960
2022-08-15 17:56:40 GMT 52.821239 -1.988211 10,300 185 233 -896
2022-08-15 17:56:37 GMT 52.823090 -1.987915 10,325 186 232 -896
2022-08-15 17:56:35 GMT 52.825195 -1.987610 10,350 186 233 -832
2022-08-15 17:56:34 GMT 52.826294 -1.987457 10,375 187 233 -832
2022-08-15 17:56:33 GMT 52.828316 -1.987034 10,375 188 234 -896
2022-08-15 17:56:31 GMT 52.829269 -1.986847 10,425 191 233 -960
2022-08-15 17:56:30 GMT 52.830368 -1.986542 10,450 192 234 -1024
2022-08-15 17:56:29 GMT 52.832474 -1.985931 10,450 193 234 -960
2022-08-15 17:56:27 GMT 52.833527 -1.985550 10,475 194 234 -896
2022-08-15 17:56:26 GMT 52.834694 -1.985073 10,500 195 235 -896
2022-08-15 17:56:25 GMT 52.836788 -1.984209 10,525 195 235 -896
2022-08-15 17:56:23 GMT 52.837860 -1.983817 10,525 195 236 -832
2022-08-15 17:56:21 GMT 52.840073 -1.982880 10,575 195 236 -832
2022-08-15 17:56:19 GMT 52.842178 -1.981964 10,575 195 237 -896
2022-08-15 17:56:18 GMT 52.843277 -1.981583 10,625 195 237 -896
2022-08-15 17:56:17 GMT 52.844330 -1.981125 10,625 195 238 -896
2022-08-15 17:56:16 GMT 52.846436 -1.980209 10,650 195 239 -960
2022-08-15 17:56:13 GMT 52.849358 -1.979030 10,725 194 240 -960
2022-08-15 17:56:11 GMT 52.850967 -1.978302 10,725 194 241 -960
2022-08-15 17:56:10 GMT 52.852020 -1.977921 10,750 194 241 -768
2022-08-15 17:56:09 GMT 52.853989 -1.977081 10,750 194 242 -768
2022-08-15 17:56:07 GMT 52.855042 -1.976624 10,775 195 243 -768
2022-08-15 17:56:04 GMT 52.858437 -1.975263 10,800 195 243 -896
2022-08-15 17:56:03 GMT 52.859276 -1.974871 10,825 195 245 -960
2022-08-15 17:56:01 GMT 52.861462 -1.974008 10,850 195 245 -896
2022-08-15 17:56:00 GMT 52.863045 -1.973380 10,875 195 247 -768
2022-08-15 17:55:59 GMT 52.863697 -1.973066 10,900 194 248 -896
2022-08-15 17:55:57 GMT 52.866440 -1.971893 10,925 195 249 -960
2022-08-15 17:55:55 GMT 52.868225 -1.971130 10,975 194 250 -896
2022-08-15 17:55:53 GMT 52.870468 -1.970215 10,975 194 252 -832
2022-08-15 17:55:51 GMT 52.873856 -1.968842 11,025 194 253 -960
2022-08-15 17:55:49 GMT 52.875000 -1.968384 11,050 194 254 -832
2022-08-15 17:55:47 GMT 52.877151 -1.967573 11,075 194 255 -896
2022-08-15 17:55:46 GMT 52.879665 -1.966553 11,075 194 255 -832
2022-08-15 17:55:44 GMT 52.880829 -1.966082 11,100 194 255 -960
2022-08-15 17:55:43 GMT 52.883011 -1.965179 11,125 194 256 -896
2022-08-15 17:55:41 GMT 52.884155 -1.964722 11,150 194 256 -896
2022-08-15 17:55:40 GMT 52.885159 -1.964277 11,175 194 256 -832
2022-08-15 17:55:38 GMT 52.887817 -1.963196 11,200 194 256 -896
2022-08-15 17:55:37 GMT 52.888504 -1.962891 11,200 194 257 -832
2022-08-15 17:55:36 GMT 52.891022 -1.961823 11,250 194 257 -960
2022-08-15 17:55:34 GMT 52.893356 -1.960907 11,275 194 257 -960
2022-08-15 17:55:32 GMT 52.894375 -1.960432 11,275 194 257 -1024
2022-08-15 17:55:31 GMT 52.897167 -1.959333 11,325 195 258 -1024
2022-08-15 17:55:29 GMT 52.898331 -1.958862 11,325 195 257 -1088
2022-08-15 17:55:27 GMT 52.900612 -1.957842 11,375 196 257 -960
2022-08-15 17:55:26 GMT 52.901775 -1.957293 11,400 197 257 -832
2022-08-15 17:55:24 GMT 52.903931 -1.956329 11,425 199 258 -896
2022-08-15 17:55:23 GMT 52.905075 -1.955719 11,425 200 257 -960
2022-08-15 17:55:20 GMT 52.908527 -1.953605 11,475 207 257 -1024
2022-08-15 17:55:18 GMT 52.910568 -1.951981 11,500 211 257 -896
2022-08-15 17:55:17 GMT 52.911694 -1.950936 11,525 213 256 -960
2022-08-15 17:55:15 GMT 52.913509 -1.949053 11,550 218 256 -1024
2022-08-15 17:55:13 GMT 52.915417 -1.946699 11,600 222 255 -896
2022-08-15 17:55:12 GMT 52.916302 -1.945443 11,600 225 254 -896
2022-08-15 17:55:11 GMT 52.918022 -1.942775 11,625 229 253 -896
2022-08-15 17:55:09 GMT 52.919632 -1.939774 11,675 234 252 -896
2022-08-15 17:55:07 GMT 52.920364 -1.938248 11,675 236 252 -896
2022-08-15 17:55:05 GMT 52.921795 -1.934928 11,700 240 252 -704
2022-08-15 17:55:04 GMT 52.923050 -1.931240 11,725 247 251 -768
2022-08-15 17:55:00 GMT 52.924118 -1.927567 11,750 250 251 -768
2022-08-15 17:54:59 GMT 52.924942 -1.923981 11,775 252 251 -832
2022-08-15 17:54:58 GMT 52.925217 -1.922531 11,800 256 250 -896
2022-08-15 17:54:56 GMT 52.925472 -1.920881 11,825 258 250 -832
2022-08-15 17:54:54 GMT 52.926029 -1.916330 11,825 262 249 -768
2022-08-15 17:54:53 GMT 52.926407 -1.912384 11,875 264 247 -768
2022-08-15 17:54:51 GMT 52.926544 -1.910477 11,875 264 247 -768
2022-08-15 17:54:49 GMT 52.926773 -1.907501 11,900 264 245 -832
2022-08-15 17:54:48 GMT 52.926964 -1.905029 11,925 264 244 -832
2022-08-15 17:54:46 GMT 52.927185 -1.901855 11,925 263 243 -832
2022-08-15 17:54:44 GMT 52.927612 -1.896162 12,000 263 239 -576
2022-08-15 17:54:41 GMT 52.929199 -1.875839 12,025 263 237 -256
2022-08-15 17:54:32 GMT 52.929199 -1.875839 12,025 263 232 0
2022-08-15 17:54:30 GMT 52.929428 -1.873016 12,025 263 232 0
2022-08-15 17:54:28 GMT 52.929802 -1.868225 12,025 263 229 0
2022-08-15 17:54:25 GMT 52.930126 -1.863988 12,025 263 229 0
2022-08-15 17:54:23 GMT 52.930779 -1.855669 12,025 263 227 0
2022-08-15 17:54:20 GMT 52.930779 -1.855669 12,025 263 226 0
2022-08-15 17:54:18 GMT 52.931107 -1.851118 12,025 264 224 0
2022-08-15 17:54:15 GMT 52.931900 -1.840363 12,025 264 223 0
2022-08-15 17:54:12 GMT 52.931900 -1.840363 12,025 264 222 0
2022-08-15 17:54:09 GMT 52.932358 -1.833649 12,025 265 218 0
2022-08-15 17:54:05 GMT 52.932640 -1.828439 12,025 266 217 0
2022-08-15 17:54:02 GMT 52.933105 -1.817845 12,025 267 215 64
2022-08-15 17:53:59 GMT 52.933105 -1.817845 12,000 268 212 0
2022-08-15 17:53:56 GMT 52.933228 -1.814423 12,000 268 212 0
2022-08-15 17:53:54 GMT 52.933338 -1.810390 12,000 269 210 0
2022-08-15 17:53:51 GMT 52.933411 -1.806335 12,000 269 208 -64
2022-08-15 17:53:48 GMT 52.933525 -1.797520 12,025 272 200 64
2022-08-15 17:53:45 GMT 52.933456 -1.792755 12,025 272 203 0
2022-08-15 17:53:43 GMT 52.933456 -1.792755 11,850 306 209 1408
2022-08-15 17:53:40 GMT 52.933365 -1.789398 12,000 276 201 384
2022-08-15 17:53:38 GMT 52.933201 -1.786220 11,975 283 201 640
2022-08-15 17:53:35 GMT 52.932587 -1.780548 11,950 301 205 1088
2022-08-15 17:53:32 GMT 52.931755 -1.776646 11,950 301 205 1088
2022-08-15 17:53:29 GMT 52.928284 -1.767044 11,850 305 207 1088
2022-08-15 17:53:26 GMT 52.927475 -1.765111 11,800 306 208 1088
2022-08-15 17:53:23 GMT 52.927475 -1.765111 11,375 311 210 448
2022-08-15 17:53:20 GMT 52.925720 -1.761093 11,700 306 208 1152
2022-08-15 17:53:18 GMT 52.924576 -1.758499 11,675 307 210 1216
2022-08-15 17:53:15 GMT 52.923019 -1.754913 11,625 306 208 1408
2022-08-15 17:53:12 GMT 52.920818 -1.749808 11,475 307 211 1152
2022-08-15 17:53:09 GMT 52.919403 -1.746597 11,475 308 211 960
2022-08-15 17:53:06 GMT 52.917187 -1.741804 11,400 309 212 576
2022-08-15 17:53:03 GMT 52.915604 -1.738508 11,400 310 211 384
2022-08-15 17:53:00 GMT 52.912628 -1.732559 11,350 312 209 640
2022-08-15 17:52:57 GMT 52.910065 -1.727757 11,275 315 210 768
2022-08-15 17:52:54 GMT 52.910065 -1.727757 11,300 316 210 704
2022-08-15 17:52:51 GMT 52.908142 -1.724777 11,275 323 211 704
2022-08-15 17:52:48 GMT 52.906174 -1.722183 11,275 328 212 960
2022-08-15 17:52:45 GMT 52.902149 -1.718419 11,150 340 216 1280
2022-08-15 17:52:42 GMT 52.900661 -1.717477 11,150 343 216 1216
2022-08-15 17:52:40 GMT 52.898331 -1.716300 11,075 352 218 832
2022-08-15 17:52:38 GMT 52.895645 -1.715698 11,050 1 218 896
2022-08-15 17:52:35 GMT 52.893723 -1.715594 11,025 1 218 896
2022-08-15 17:52:32 GMT 52.890465 -1.715672 11,000 3 217 1024
2022-08-15 17:52:30 GMT 52.887589 -1.716003 10,925 4 217 960
2022-08-15 17:52:27 GMT 52.885345 -1.716309 10,875 4 217 832
2022-08-15 17:52:24 GMT 52.881775 -1.716766 10,850 4 215 768
2022-08-15 17:52:21 GMT 52.878689 -1.717163 10,800 4 215 1088
2022-08-15 17:52:18 GMT 52.876190 -1.717453 10,725 4 215 1408
2022-08-15 17:52:15 GMT 52.873398 -1.717834 10,650 4 215 1600
2022-08-15 17:52:12 GMT 52.870056 -1.718216 10,600 4 217 1472
2022-08-15 17:52:09 GMT 52.867859 -1.718521 10,550 4 218 1216
2022-08-15 17:52:07 GMT 52.862000 -1.719360 10,400 4 218 1152
2022-08-15 17:52:04 GMT 52.859509 -1.719674 10,450 4 218 1088
2022-08-15 17:52:01 GMT 52.859509 -1.719674 10,400 4 218 1152
2022-08-15 17:51:59 GMT 52.857971 -1.719894 10,325 4 218 1024
2022-08-15 17:51:57 GMT 52.852245 -1.720773 10,275 5 218 960
2022-08-15 17:51:54 GMT 52.852245 -1.720773 10,200 5 217 768
2022-08-15 17:51:51 GMT 52.848724 -1.721268 10,225 6 215 896
2022-08-15 17:51:48 GMT 52.846241 -1.721636 10,175 5 216 832
2022-08-15 17:51:45 GMT 52.843262 -1.722185 10,150 5 216 896
2022-08-15 17:51:43 GMT 52.841259 -1.722499 10,125 6 215 896
2022-08-15 17:51:40 GMT 52.838196 -1.723022 10,075 6 214 960
2022-08-15 17:51:38 GMT 52.836227 -1.723404 10,025 6 214 1152
2022-08-15 17:51:35 GMT 52.830505 -1.724472 9,975 6 214 1344
2022-08-15 17:51:32 GMT 52.827942 -1.724930 9,900 6 214 1344
2022-08-15 17:51:29 GMT 52.827942 -1.724930 9,850 6 215 1344
2022-08-15 17:51:27 GMT 52.822998 -1.725845 9,775 6 215 1280
2022-08-15 17:51:24 GMT 52.822998 -1.725845 9,775 6 215 1280
2022-08-15 17:51:21 GMT 52.819565 -1.726423 9,675 5 215 1088
2022-08-15 17:51:18 GMT 52.815983 -1.727051 9,600 5 215 1152
2022-08-15 17:51:15 GMT 52.813522 -1.727448 9,575 5 215 1152
2022-08-15 17:51:13 GMT 52.808441 -1.728306 9,500 5 215 1152
2022-08-15 17:51:10 GMT 52.808441 -1.728306 9,500 5 215 1088
2022-08-15 17:51:08 GMT 52.806297 -1.728699 9,425 5 215 1088
2022-08-15 17:51:05 GMT 52.800842 -1.729660 9,375 5 214 1088
2022-08-15 17:50:59 GMT 52.798199 -1.730111 9,275 6 213 1088
2022-08-15 17:50:57 GMT 52.796127 -1.730499 9,175 6 213 1280
2022-08-15 17:50:54 GMT 52.793610 -1.730957 9,200 6 213 1280
2022-08-15 17:50:52 GMT 52.790565 -1.731524 9,150 6 213 1280
2022-08-15 17:50:49 GMT 52.788609 -1.731838 9,075 6 213 1408
2022-08-15 17:50:47 GMT 52.786049 -1.732309 9,000 6 213 1344
2022-08-15 17:50:44 GMT 52.784092 -1.732701 9,000 6 213 1344
2022-08-15 17:50:42 GMT 52.781662 -1.733170 8,925 6 213 1152
2022-08-15 17:50:39 GMT 52.778137 -1.733856 8,875 6 213 1152
2022-08-15 17:50:37 GMT 52.776646 -1.734113 8,825 6 213 960
2022-08-15 17:50:34 GMT 52.773788 -1.734695 8,725 7 212 832
2022-08-15 17:50:32 GMT 52.772129 -1.735055 8,675 7 211 832
2022-08-15 17:50:29 GMT 52.768753 -1.735764 8,725 7 210 896
2022-08-15 17:50:27 GMT 52.766357 -1.736232 8,650 7 209 896
2022-08-15 17:50:24 GMT 52.764214 -1.736703 8,650 7 209 896
2022-08-15 17:50:22 GMT 52.758675 -1.737802 8,600 6 207 832
2022-08-15 17:50:19 GMT 52.758675 -1.737802 8,550 6 206 832
2022-08-15 17:50:16 GMT 52.756302 -1.738281 8,375 6 204 1152
2022-08-15 17:50:13 GMT 52.754299 -1.738665 8,500 6 205 960
2022-08-15 17:50:11 GMT 52.751694 -1.739136 8,450 6 204 1152
2022-08-15 17:50:08 GMT 52.748482 -1.739764 8,375 6 203 1152
2022-08-15 17:50:06 GMT 52.746616 -1.740077 8,125 6 203 1024
2022-08-15 17:50:03 GMT 52.740662 -1.741176 8,250 5 201 1152
2022-08-15 17:50:00 GMT 52.740662 -1.741176 8,225 6 201 1152
2022-08-15 17:49:57 GMT 52.738796 -1.741490 8,225 6 200 1152
2022-08-15 17:49:55 GMT 52.735867 -1.742039 8,150 6 200 1152
2022-08-15 17:49:52 GMT 52.733490 -1.742510 8,075 6 200 1152
2022-08-15 17:49:49 GMT 52.730621 -1.743011 7,625 7 198 1344
2022-08-15 17:49:46 GMT 52.727875 -1.743469 7,975 7 198 1344
2022-08-15 17:49:43 GMT 52.725128 -1.744003 7,875 6 198 1280
2022-08-15 17:49:40 GMT 52.719944 -1.745021 7,775 6 198 1344
2022-08-15 17:49:37 GMT 52.719944 -1.745021 7,800 6 198 1344
2022-08-15 17:49:35 GMT 52.718128 -1.745335 7,725 6 198 1280
2022-08-15 17:49:32 GMT 52.714966 -1.745987 7,625 7 197 1280
2022-08-15 17:49:29 GMT 52.712219 -1.746521 7,625 7 198 1344
2022-08-15 17:49:26 GMT 52.709984 -1.747062 7,600 7 198 1344
2022-08-15 17:49:23 GMT 52.707607 -1.747532 7,550 7 197 1216
2022-08-15 17:49:20 GMT 52.704254 -1.748276 7,450 7 197 1216
2022-08-15 17:49:17 GMT 52.701416 -1.748945 7,350 8 197 1280
2022-08-15 17:49:14 GMT 52.695557 -1.750336 7,275 8 197 1344
2022-08-15 17:49:11 GMT 52.695557 -1.750336 7,225 8 197 1536
2022-08-15 17:49:08 GMT 52.693771 -1.750717 7,200 8 197 1536
2022-08-15 17:49:05 GMT 52.688187 -1.752090 7,100 8 197 1344
2022-08-15 17:49:02 GMT 52.688187 -1.752090 7,025 8 197 1216
2022-08-15 17:48:59 GMT 52.686100 -1.752555 6,975 8 197 1216
2022-08-15 17:48:56 GMT 52.682842 -1.753339 6,925 8 197 1280
2022-08-15 17:48:54 GMT 52.680588 -1.753845 6,800 8 197 1344
2022-08-15 17:48:51 GMT 52.678024 -1.754456 6,800 8 197 1344
2022-08-15 17:48:48 GMT 52.676140 -1.754909 6,750 8 198 1344
2022-08-15 17:48:46 GMT 52.673859 -1.755447 6,725 8 197 1280
2022-08-15 17:48:44 GMT 52.672073 -1.755905 6,675 8 197 1344
2022-08-15 17:48:41 GMT 52.669556 -1.756439 6,550 7 198 1536
2022-08-15 17:48:38 GMT 52.664223 -1.757734 6,525 8 197 1536
2022-08-15 17:48:35 GMT 52.662918 -1.758048 6,450 7 198 1536
2022-08-15 17:48:33 GMT 52.662918 -1.758048 6,325 7 198 1408
2022-08-15 17:48:31 GMT 52.660492 -1.758575 6,325 7 199 1408
2022-08-15 17:48:28 GMT 52.654911 -1.759853 6,275 7 199 1344
2022-08-15 17:48:25 GMT 52.654911 -1.759853 6,225 7 199 1216
2022-08-15 17:48:23 GMT 52.653095 -1.760245 6,175 7 199 1152
2022-08-15 17:48:20 GMT 52.650055 -1.760941 6,125 7 198 1216
2022-08-15 17:48:17 GMT 52.647491 -1.761475 6,075 7 198 1216
2022-08-15 17:48:14 GMT 52.644482 -1.762129 6,000 7 197 1472
2022-08-15 17:48:11 GMT 52.641411 -1.762835 5,925 7 197 1792
2022-08-15 17:48:08 GMT 52.639595 -1.763227 5,850 7 197 1792
2022-08-15 17:48:06 GMT 52.636826 -1.763840 5,775 7 197 1664
2022-08-15 17:48:03 GMT 52.632145 -1.764797 5,725 7 198 1408
2022-08-15 17:48:01 GMT 52.632145 -1.764797 5,650 6 197 1216
2022-08-15 17:47:58 GMT 52.630516 -1.765111 5,625 6 197 1280
2022-08-15 17:47:56 GMT 52.626747 -1.765895 5,525 6 196 1152
2022-08-15 17:47:53 GMT 52.625816 -1.766052 5,475 6 196 1152
2022-08-15 17:47:50 GMT 52.622131 -1.766815 5,400 6 194 1088
2022-08-15 17:47:47 GMT 52.620850 -1.767044 5,425 6 195 1024
2022-08-15 17:47:45 GMT 52.618462 -1.767543 5,350 6 194 1088
2022-08-15 17:47:42 GMT 52.615574 -1.768014 5,300 6 193 1152
2022-08-15 17:47:39 GMT 52.613388 -1.768494 5,225 6 193 1280
2022-08-15 17:47:36 GMT 52.610550 -1.769028 5,175 6 193 960
2022-08-15 17:47:32 GMT 52.607426 -1.769584 5,125 6 193 896
2022-08-15 17:47:29 GMT 52.601898 -1.770554 5,075 6 190 1152
2022-08-15 17:47:26 GMT 52.601898 -1.770554 5,000 6 189 1280
2022-08-15 17:47:23 GMT 52.599243 -1.771011 4,875 6 189 1280
2022-08-15 17:47:21 GMT 52.597420 -1.771388 4,900 6 189 1280
2022-08-15 17:47:18 GMT 52.594391 -1.771927 4,850 6 185 1344
2022-08-15 17:47:16 GMT 52.593018 -1.772156 4,750 6 185 1280
2022-08-15 17:47:13 GMT 52.589970 -1.772644 4,750 6 186 1216
2022-08-15 17:47:09 GMT 52.587341 -1.773148 4,625 6 184 1472
2022-08-15 17:47:06 GMT 52.584385 -1.773664 4,575 6 184 1600
2022-08-15 17:47:03 GMT 52.582195 -1.774057 4,550 6 184 1600
2022-08-15 17:47:01 GMT 52.579559 -1.774521 4,475 6 185 1600
2022-08-15 17:46:58 GMT 52.578003 -1.774750 4,225 6 185 1536
2022-08-15 17:46:55 GMT 52.575806 -1.775208 4,225 6 185 1792
2022-08-15 17:46:52 GMT 52.572838 -1.775705 3,975 6 184 1536
2022-08-15 17:46:49 GMT 52.569717 -1.776276 4,125 6 186 1344
2022-08-15 17:46:46 GMT 52.567291 -1.776733 4,075 6 185 1216
2022-08-15 17:46:42 GMT 52.562134 -1.777666 3,975 6 183 1344
2022-08-15 17:46:38 GMT 52.560837 -1.777954 3,925 6 183 1280
2022-08-15 17:46:35 GMT 52.558735 -1.778294 3,850 6 182 1216
2022-08-15 17:46:32 GMT 52.552780 -1.779480 3,775 6 182 1536
2022-08-15 17:46:29 GMT 52.552780 -1.779480 3,675 7 182 2048
2022-08-15 17:46:26 GMT 52.550354 -1.779942 3,625 7 183 2176
2022-08-15 17:46:23 GMT 52.545979 -1.780884 3,525 7 184 2240
2022-08-15 17:46:20 GMT 52.545979 -1.780884 3,425 7 180 1664
2022-08-15 17:46:16 GMT 52.541183 -1.781982 3,300 7 187 1344
2022-08-15 17:46:13 GMT 52.540237 -1.782150 3,275 7 187 1216
2022-08-15 17:46:10 GMT 52.537086 -1.782846 3,200 7 185 1024
2022-08-15 17:46:06 GMT 52.531586 -1.783981 3,050 7 180 1152
2022-08-15 17:46:03 GMT 52.531586 -1.783981 3,050 7 181 1472
2022-08-15 17:46:00 GMT 52.528748 -1.784668 2,950 7 181 1472
2022-08-15 17:45:57 GMT 52.526276 -1.785202 2,875 7 181 1472
2022-08-15 17:45:54 GMT 52.523540 -1.785749 2,850 7 181 1408
2022-08-15 17:45:50 GMT 52.520561 -1.786377 2,750 7 180 1152
2022-08-15 17:45:46 GMT 52.516159 -1.787415 2,650 8 177 1472
2022-08-15 17:45:43 GMT 52.514973 -1.787711 2,600 9 179 1792
2022-08-15 17:45:40 GMT 52.509575 -1.789045 2,425 9 180 1088
2022-08-15 17:45:37 GMT 52.506641 -1.789830 2,375 9 180 1088
2022-08-15 17:45:33 GMT 52.506641 -1.789830 2,350 9 179 896
2022-08-15 17:45:30 GMT 52.503754 -1.790543 2,300 7 177 960
2022-08-15 17:45:26 GMT 52.499863 -1.791229 2,200 0 173 1984
2022-08-15 17:45:23 GMT 52.498680 -1.791242 2,175 358 173 2240
2022-08-15 17:45:19 GMT 52.495468 -1.790850 2,025 348 174 1984
2022-08-15 17:45:18 GMT 52.494781 -1.790619 2,000 346 173 1792
2022-08-15 17:45:17 GMT 52.494003 -1.790314 1,975 343 173 1792
2022-08-15 17:45:14 GMT 52.489697 -1.787633 1,800 330 173 1536
2022-08-15 17:45:12 GMT 52.489697 -1.787633 1,800 333 173 1728
2022-08-15 17:45:09 GMT 52.487549 -1.785583 1,725 328 173 1216
2022-08-15 17:45:07 GMT 52.486313 -1.784363 1,675 328 172 1024
2022-08-15 17:45:06 GMT 52.485600 -1.783552 1,650 328 171 832
2022-08-15 17:45:04 GMT 52.484249 -1.782218 1,625 328 170 704
2022-08-15 17:45:03 GMT 52.482330 -1.780167 1,600 328 167 256
2022-08-15 17:45:01 GMT 52.482330 -1.780167 1,600 328 165 64
2022-08-15 17:44:59 GMT 52.480946 -1.778765 1,600 328 164 0
2022-08-15 17:44:57 GMT 52.480270 -1.778030 1,600 328 160 64
2022-08-15 17:44:55 GMT 52.478943 -1.776646 1,575 327 158 192
2022-08-15 17:44:54 GMT 52.478394 -1.776047 1,575 327 154 576
2022-08-15 17:44:52 GMT 52.477570 -1.775131 1,575 327 154 576
2022-08-15 17:44:51 GMT 52.476379 -1.773834 1,550 326 151 576
2022-08-15 17:44:50 GMT 52.475784 -1.773224 1,550 326 149 320
2022-08-15 17:44:48 GMT 52.474548 -1.771774 1,525 327 146 704
2022-08-15 17:44:47 GMT 52.473915 -1.771075 1,525 326 145 704
2022-08-15 17:44:46 GMT 52.473030 -1.770133 1,500 326 143 832
2022-08-15 17:44:44 GMT 52.472397 -1.769409 1,500 325 142 896
2022-08-15 17:44:42 GMT 52.471264 -1.768093 1,450 325 140 960
2022-08-15 17:44:41 GMT 52.470749 -1.767465 1,425 325 139 1024
2022-08-15 17:44:39 GMT 52.469681 -1.766288 1,400 325 134 1216
2022-08-15 17:44:37 GMT 52.467865 -1.764145 1,350 325 133 1472
2022-08-15 17:44:35 GMT 52.467445 -1.763620 1,325 324 132 1600
2022-08-15 17:44:33 GMT 52.466400 -1.762390 1,250 325 131 2368
2022-08-15 17:44:32 GMT 52.465443 -1.761265 1,175 325 133 2432
2022-08-15 17:44:30 GMT 52.464977 -1.760716 1,125 326 135 2368
2022-08-15 17:44:29 GMT 52.463951 -1.759539 1,050 325 135 2304
2022-08-15 17:44:27 GMT 52.463287 -1.758728 1,000 325 135 2112
2022-08-15 17:44:26 GMT 52.462280 -1.757584 950 325 135 1728
2022-08-15 17:44:23 GMT 52.461731 -1.756973 925 325 135 1792
2022-08-15 17:44:22 GMT 52.460693 -1.755772 875 325 134 1792
2022-08-15 17:44:19 GMT 52.459949 -1.754909 825 325 134 1856
2022-08-15 17:44:18 GMT 52.459213 -1.754074 800 325 134 1728
2022-08-15 17:44:17 GMT 52.458740 -1.753496 750 326 135 1664
2022-08-15 17:44:15 GMT 52.457565 -1.752167 700 326 135 1472
2022-08-15 17:44:14 GMT 52.457294 -1.751927 675 326 133 1344
2022-08-15 17:44:12 GMT 52.456055 -1.750488 625 327 128 64
2022-08-15 17:44:09 GMT 52.454735 -1.749102 600 327 128 64
2022-08-15 17:44:07 GMT 52.453720 -1.747971 600 326 109 -64
2022-08-15 17:44:06 GMT 52.453262 -1.747437 600 326 109 -64
2022-08-15 17:44:02 GMT 52.451477 -1.745377 600 326 102 -128
2022-08-15 17:43:59 GMT 52.449589 -1.743259 0 329 82
2022-08-15 17:43:52 GMT 52.448204 -1.741734 0 329 56
2022-08-15 17:43:50 GMT 52.447666 -1.741142 0 329 40
2022-08-15 17:43:48 GMT 52.447346 -1.740764 0 329 28
2022-08-15 17:43:47 GMT 52.447227 -1.740646 0 329 23
2022-08-15 17:43:45 GMT 52.447094 -1.740494 0 329 17
2022-08-15 17:43:23 GMT 52.446903 -1.740274 0 326 0
2022-08-15 17:43:14 GMT 52.446892 -1.740274 0 326 0
2022-08-15 17:42:59 GMT 52.446808 -1.740170 0 326 7
2022-08-15 17:42:52 GMT 52.446602 -1.739920 0 300 9
2022-08-15 17:42:45 GMT 52.446556 -1.739407 0 250 12
2022-08-15 17:42:34 GMT 52.446857 -1.738626 0 239 12
2022-08-15 17:42:22 GMT 52.447136 -1.737959 0 239 0
2022-08-15 17:42:13 GMT 52.447182 -1.737861 0 236 0
2022-08-15 17:42:03 GMT 52.447205 -1.737880 0 236 0
2022-08-15 17:41:52 GMT 52.447197 -1.737881 0 236 0
2022-08-15 17:41:41 GMT 52.447186 -1.737862 0 236 4
2022-08-15 17:41:37 GMT 52.447266 -1.737671 0 236 11
2022-08-15 17:41:32 GMT 52.447426 -1.737347 0 216 14
2022-08-15 17:41:26 GMT 52.447926 -1.737037 0 199 18
2022-08-15 17:41:16 GMT 52.448627 -1.736683 0 199 18

Making use of Plane Finder data

You are free to use the raw flight data, aircraft information and images provided in this report for your own purposes provided the data is correctly attributed to Plane Finder. We ask that you please credit Plane Finder and link to planefinder.net in close proximity to the content.

Optionally one of the following logos (no smaller then 150x24px) can be used and must link to planefinder.net

Embedding the Plane Finder map

You are welcome to embed the Plane Finder playback map on your website to offer visitors a more interactive experience. We suggest using the following HTML code:

<iframe src="//planefinder.net/data/report/BE796-EC-KKQ-7700-squawk-2022-08-15/map" width="800" height="600" seamless="seamless"></iframe>

Where our data comes from

Plane Finder has a global network of data feeds and antenna radars that receive data broadcast directly from aircraft. The primary technologies used are ADS-B and MLAT. We also show feeds from the FAA and a FLARM glider feed.

Click here to find out more about the Plane Finder network.

How we collect our data